<?xml version='1.0' encoding='UTF-8'?>
<gpx version="1.1" creator="https://www.komoot.de" xmlns="http://www.topografix.com/GPX/1/1" xmlns:xsi="http://www.w3.org/2001/XMLSchema-instance" xsi:schemaLocation="http://www.topografix.com/GPX/1/1 http://www.topografix.com/GPX/1/1/gpx.xsd">
  <metadata>
    <name>GPX Download: Zwei-Seen-Tour</name>
    <author>
      <link href="https://www.komoot.de">
        <text>komoot</text>
        <type>text/html</type>
      </link>
    </author>
  </metadata>
  <wpt lat="48.956440" lon="10.911380">
    <name>Stadtschloss Treuchtlingen</name>
    <sym>Flag, Blue</sym>
  </wpt>
  <wpt lat="48.947841" lon="10.872098">
    <name>Heumöderntal – Treuchtlingen</name>
    <sym>Flag, Blue</sym>
  </wpt>
  <wpt lat="48.969211" lon="10.722644">
    <name>Nordufer des Hahnenkammsees</name>
    <sym>Flag, Blue</sym>
  </wpt>
  <wpt lat="49.045070" lon="10.716577">
    <name>Blick auf die Burg Spielberg</name>
    <sym>Flag, Blue</sym>
  </wpt>
  <trk>
    <name>GPX Download: Zwei-Seen-Tour</name>
    <trkseg>
      <trkpt lat="49.110341" lon="10.755098">
        <ele>414.806139</ele>
        <time>2026-05-05T09:56:54.904Z</time>
      </trkpt>
      <trkpt lat="49.110278" lon="10.755257">
        <ele>414.806139</ele>
        <time>2026-05-05T09:56:57.503Z</time>
      </trkpt>
      <trkpt lat="49.110244" lon="10.755386">
        <ele>414.806139</ele>
        <time>2026-05-05T09:57:00.082Z</time>
      </trkpt>
      <trkpt lat="49.110307" lon="10.755499">
        <ele>414.806139</ele>
        <time>2026-05-05T09:57:02.853Z</time>
      </trkpt>
      <trkpt lat="49.110287" lon="10.755878">
        <ele>414.806139</ele>
        <time>2026-05-05T09:57:08.116Z</time>
      </trkpt>
      <trkpt lat="49.110363" lon="10.755907">
        <ele>414.806139</ele>
        <time>2026-05-05T09:57:09.790Z</time>
      </trkpt>
      <trkpt lat="49.110415" lon="10.755995">
        <ele>414.806139</ele>
        <time>2026-05-05T09:57:11.420Z</time>
      </trkpt>
      <trkpt lat="49.110553" lon="10.756752">
        <ele>414.809915</ele>
        <time>2026-05-05T09:57:22.353Z</time>
      </trkpt>
      <trkpt lat="49.110562" lon="10.756813">
        <ele>414.810384</ele>
        <time>2026-05-05T09:57:23.291Z</time>
      </trkpt>
      <trkpt lat="49.110385" lon="10.756883">
        <ele>414.812477</ele>
        <time>2026-05-05T09:57:30.099Z</time>
      </trkpt>
      <trkpt lat="49.110149" lon="10.756970">
        <ele>414.815257</ele>
        <time>2026-05-05T09:57:39.188Z</time>
      </trkpt>
      <trkpt lat="49.109757" lon="10.757206">
        <ele>414.820081</ele>
        <time>2026-05-05T09:57:54.934Z</time>
      </trkpt>
      <trkpt lat="49.108827" lon="10.757872">
        <ele>415.051522</ele>
        <time>2026-05-05T09:58:33.623Z</time>
      </trkpt>
      <trkpt lat="49.108309" lon="10.758315">
        <ele>415.350643</ele>
        <time>2026-05-05T09:58:56.629Z</time>
      </trkpt>
      <trkpt lat="49.108384" lon="10.758955">
        <ele>415.565101</ele>
        <time>2026-05-05T09:59:07.609Z</time>
      </trkpt>
      <trkpt lat="49.108445" lon="10.759272">
        <ele>415.674086</ele>
        <time>2026-05-05T09:59:13.305Z</time>
      </trkpt>
      <trkpt lat="49.108750" lon="10.760132">
        <ele>416.232281</ele>
        <time>2026-05-05T09:59:30.728Z</time>
      </trkpt>
      <trkpt lat="49.109139" lon="10.761486">
        <ele>417.155714</ele>
        <time>2026-05-05T09:59:55.676Z</time>
      </trkpt>
      <trkpt lat="49.108835" lon="10.761801">
        <ele>417.508968</ele>
        <time>2026-05-05T10:00:05.384Z</time>
      </trkpt>
      <trkpt lat="49.109171" lon="10.762806">
        <ele>418.248374</ele>
        <time>2026-05-05T10:00:25.817Z</time>
      </trkpt>
      <trkpt lat="49.109440" lon="10.763573">
        <ele>418.818507</ele>
        <time>2026-05-05T10:00:41.414Z</time>
      </trkpt>
      <trkpt lat="49.108732" lon="10.764095">
        <ele>419.498142</ele>
        <time>2026-05-05T10:01:02.468Z</time>
      </trkpt>
      <trkpt lat="49.107999" lon="10.764708">
        <ele>420.082746</ele>
        <time>2026-05-05T10:01:23.672Z</time>
      </trkpt>
      <trkpt lat="49.108185" lon="10.765246">
        <ele>420.361380</ele>
        <time>2026-05-05T10:01:33.805Z</time>
      </trkpt>
      <trkpt lat="49.107706" lon="10.765661">
        <ele>420.379429</ele>
        <time>2026-05-05T10:01:48.326Z</time>
      </trkpt>
      <trkpt lat="49.107668" lon="10.765689">
        <ele>420.363625</ele>
        <time>2026-05-05T10:01:49.400Z</time>
      </trkpt>
      <trkpt lat="49.107076" lon="10.766089">
        <ele>420.121143</ele>
        <time>2026-05-05T10:02:04.160Z</time>
      </trkpt>
      <trkpt lat="49.106990" lon="10.766149">
        <ele>420.085728</ele>
        <time>2026-05-05T10:02:06.125Z</time>
      </trkpt>
      <trkpt lat="49.106709" lon="10.765421">
        <ele>419.878483</ele>
        <time>2026-05-05T10:02:16.645Z</time>
      </trkpt>
      <trkpt lat="49.106564" lon="10.765073">
        <ele>419.681587</ele>
        <time>2026-05-05T10:02:21.590Z</time>
      </trkpt>
      <trkpt lat="49.106525" lon="10.764997">
        <ele>419.617710</ele>
        <time>2026-05-05T10:02:22.737Z</time>
      </trkpt>
      <trkpt lat="49.106422" lon="10.764778">
        <ele>419.439333</ele>
        <time>2026-05-05T10:02:25.927Z</time>
      </trkpt>
      <trkpt lat="49.105822" lon="10.763836">
        <ele>418.569938</ele>
        <time>2026-05-05T10:02:41.734Z</time>
      </trkpt>
      <trkpt lat="49.105411" lon="10.763230">
        <ele>418.024479</ele>
        <time>2026-05-05T10:02:53.807Z</time>
      </trkpt>
      <trkpt lat="49.105355" lon="10.763156">
        <ele>418.050443</ele>
        <time>2026-05-05T10:02:55.505Z</time>
      </trkpt>
      <trkpt lat="49.105246" lon="10.763008">
        <ele>418.101579</ele>
        <time>2026-05-05T10:02:58.891Z</time>
      </trkpt>
      <trkpt lat="49.105194" lon="10.763117">
        <ele>418.132539</ele>
        <time>2026-05-05T10:03:00.979Z</time>
      </trkpt>
      <trkpt lat="49.104994" lon="10.763146">
        <ele>418.202982</ele>
        <time>2026-05-05T10:03:05.796Z</time>
      </trkpt>
      <trkpt lat="49.104831" lon="10.763258">
        <ele>418.265653</ele>
        <time>2026-05-05T10:03:10.145Z</time>
      </trkpt>
      <trkpt lat="49.104451" lon="10.763829">
        <ele>418.452561</ele>
        <time>2026-05-05T10:03:23.339Z</time>
      </trkpt>
      <trkpt lat="49.103187" lon="10.765721">
        <ele>418.999009</ele>
        <time>2026-05-05T10:04:05.742Z</time>
      </trkpt>
      <trkpt lat="49.100953" lon="10.769090">
        <ele>419.176226</ele>
        <time>2026-05-05T10:05:15.336Z</time>
      </trkpt>
      <trkpt lat="49.101044" lon="10.769273">
        <ele>419.185801</ele>
        <time>2026-05-05T10:05:18.774Z</time>
      </trkpt>
      <trkpt lat="49.101058" lon="10.769423">
        <ele>419.192114</ele>
        <time>2026-05-05T10:05:21.038Z</time>
      </trkpt>
      <trkpt lat="49.100805" lon="10.769841">
        <ele>419.215832</ele>
        <time>2026-05-05T10:05:29.446Z</time>
      </trkpt>
      <trkpt lat="49.100356" lon="10.770279">
        <ele>419.253985</ele>
        <time>2026-05-05T10:05:41.445Z</time>
      </trkpt>
      <trkpt lat="49.100273" lon="10.770378">
        <ele>419.264615</ele>
        <time>2026-05-05T10:05:43.828Z</time>
      </trkpt>
      <trkpt lat="49.099950" lon="10.770521">
        <ele>419.298559</ele>
        <time>2026-05-05T10:05:51.313Z</time>
      </trkpt>
      <trkpt lat="49.099865" lon="10.770602">
        <ele>419.308672</ele>
        <time>2026-05-05T10:05:53.524Z</time>
      </trkpt>
      <trkpt lat="49.098548" lon="10.772637">
        <ele>419.585330</ele>
        <time>2026-05-05T10:06:36.099Z</time>
      </trkpt>
      <trkpt lat="49.098371" lon="10.772961">
        <ele>419.646332</ele>
        <time>2026-05-05T10:06:42.582Z</time>
      </trkpt>
      <trkpt lat="49.098233" lon="10.773295">
        <ele>419.703428</ele>
        <time>2026-05-05T10:06:48.700Z</time>
      </trkpt>
      <trkpt lat="49.098214" lon="10.773470">
        <ele>419.729073</ele>
        <time>2026-05-05T10:06:51.466Z</time>
      </trkpt>
      <trkpt lat="49.097986" lon="10.774082">
        <ele>419.826664</ele>
        <time>2026-05-05T10:07:02.405Z</time>
      </trkpt>
      <trkpt lat="49.097895" lon="10.774157">
        <ele>419.839603</ele>
        <time>2026-05-05T10:07:04.819Z</time>
      </trkpt>
      <trkpt lat="49.096728" lon="10.776882">
        <ele>420.030937</ele>
        <time>2026-05-05T10:07:52.998Z</time>
      </trkpt>
      <trkpt lat="49.095433" lon="10.779922">
        <ele>419.734646</ele>
        <time>2026-05-05T10:08:45.138Z</time>
      </trkpt>
      <trkpt lat="49.094212" lon="10.782668">
        <ele>418.682741</ele>
        <time>2026-05-05T10:09:30.012Z</time>
      </trkpt>
      <trkpt lat="49.093339" lon="10.784154">
        <ele>417.830982</ele>
        <time>2026-05-05T10:09:55.090Z</time>
      </trkpt>
      <trkpt lat="49.093321" lon="10.784216">
        <ele>417.801327</ele>
        <time>2026-05-05T10:09:55.970Z</time>
      </trkpt>
      <trkpt lat="49.093207" lon="10.784343">
        <ele>417.707100</ele>
        <time>2026-05-05T10:09:58.761Z</time>
      </trkpt>
      <trkpt lat="49.092663" lon="10.785120">
        <ele>417.237187</ele>
        <time>2026-05-05T10:10:14.485Z</time>
      </trkpt>
      <trkpt lat="49.092501" lon="10.785329">
        <ele>417.176446</ele>
        <time>2026-05-05T10:10:19.256Z</time>
      </trkpt>
      <trkpt lat="49.092395" lon="10.785277">
        <ele>417.144558</ele>
        <time>2026-05-05T10:10:21.822Z</time>
      </trkpt>
      <trkpt lat="49.092152" lon="10.785687">
        <ele>417.040841</ele>
        <time>2026-05-05T10:10:29.796Z</time>
      </trkpt>
      <trkpt lat="49.092050" lon="10.785918">
        <ele>416.988586</ele>
        <time>2026-05-05T10:10:33.566Z</time>
      </trkpt>
      <trkpt lat="49.091853" lon="10.786457">
        <ele>416.872812</ele>
        <time>2026-05-05T10:10:42.212Z</time>
      </trkpt>
      <trkpt lat="49.091696" lon="10.786993">
        <ele>416.762682</ele>
        <time>2026-05-05T10:10:50.338Z</time>
      </trkpt>
      <trkpt lat="49.091649" lon="10.787126">
        <ele>416.718681</ele>
        <time>2026-05-05T10:10:52.353Z</time>
      </trkpt>
      <trkpt lat="49.091560" lon="10.787375">
        <ele>416.565429</ele>
        <time>2026-05-05T10:10:56.168Z</time>
      </trkpt>
      <trkpt lat="49.091468" lon="10.787589">
        <ele>416.427132</ele>
        <time>2026-05-05T10:10:59.590Z</time>
      </trkpt>
      <trkpt lat="49.091021" lon="10.788600">
        <ele>415.768120</ele>
        <time>2026-05-05T10:11:15.275Z</time>
      </trkpt>
      <trkpt lat="49.090783" lon="10.789034">
        <ele>415.462302</ele>
        <time>2026-05-05T10:11:22.652Z</time>
      </trkpt>
      <trkpt lat="49.090502" lon="10.789396">
        <ele>415.126555</ele>
        <time>2026-05-05T10:11:29.625Z</time>
      </trkpt>
      <trkpt lat="49.089714" lon="10.790273">
        <ele>414.060595</ele>
        <time>2026-05-05T10:11:47.803Z</time>
      </trkpt>
      <trkpt lat="49.089506" lon="10.790595">
        <ele>413.736798</ele>
        <time>2026-05-05T10:11:53.460Z</time>
      </trkpt>
      <trkpt lat="49.089314" lon="10.790994">
        <ele>413.382325</ele>
        <time>2026-05-05T10:11:59.752Z</time>
      </trkpt>
      <trkpt lat="49.089408" lon="10.791085">
        <ele>413.279847</ele>
        <time>2026-05-05T10:12:01.960Z</time>
      </trkpt>
      <trkpt lat="49.089267" lon="10.791427">
        <ele>413.164551</ele>
        <time>2026-05-05T10:12:07.210Z</time>
      </trkpt>
      <trkpt lat="49.088978" lon="10.792147">
        <ele>412.923625</ele>
        <time>2026-05-05T10:12:18.520Z</time>
      </trkpt>
      <trkpt lat="49.088581" lon="10.793209">
        <ele>412.574752</ele>
        <time>2026-05-05T10:12:35.464Z</time>
      </trkpt>
      <trkpt lat="49.088300" lon="10.794074">
        <ele>412.505078</ele>
        <time>2026-05-05T10:12:49.292Z</time>
      </trkpt>
      <trkpt lat="49.088005" lon="10.795354">
        <ele>412.497842</ele>
        <time>2026-05-05T10:13:09.625Z</time>
      </trkpt>
      <trkpt lat="49.087908" lon="10.796019">
        <ele>412.491738</ele>
        <time>2026-05-05T10:13:19.445Z</time>
      </trkpt>
      <trkpt lat="49.087797" lon="10.797030">
        <ele>412.392056</ele>
        <time>2026-05-05T10:13:33.917Z</time>
      </trkpt>
      <trkpt lat="49.087652" lon="10.796988">
        <ele>412.370142</ele>
        <time>2026-05-05T10:13:37.085Z</time>
      </trkpt>
      <trkpt lat="49.087570" lon="10.796983">
        <ele>412.357957</ele>
        <time>2026-05-05T10:13:38.834Z</time>
      </trkpt>
      <trkpt lat="49.087502" lon="10.796853">
        <ele>412.341778</ele>
        <time>2026-05-05T10:13:41.178Z</time>
      </trkpt>
      <trkpt lat="49.087439" lon="10.796802">
        <ele>412.331191</ele>
        <time>2026-05-05T10:13:42.706Z</time>
      </trkpt>
      <trkpt lat="49.087023" lon="10.796608">
        <ele>412.266605</ele>
        <time>2026-05-05T10:13:52.003Z</time>
      </trkpt>
      <trkpt lat="49.085434" lon="10.796122">
        <ele>412.206719</ele>
        <time>2026-05-05T10:14:27.800Z</time>
      </trkpt>
      <trkpt lat="49.084811" lon="10.795964">
        <ele>412.220701</ele>
        <time>2026-05-05T10:14:41.890Z</time>
      </trkpt>
      <trkpt lat="49.084096" lon="10.795911">
        <ele>412.299250</ele>
        <time>2026-05-05T10:14:57.989Z</time>
      </trkpt>
      <trkpt lat="49.082897" lon="10.795564">
        <ele>412.382931</ele>
        <time>2026-05-05T10:15:26.250Z</time>
      </trkpt>
      <trkpt lat="49.082409" lon="10.795477">
        <ele>412.361192</ele>
        <time>2026-05-05T10:15:37.243Z</time>
      </trkpt>
      <trkpt lat="49.082249" lon="10.795383">
        <ele>412.353607</ele>
        <time>2026-05-05T10:15:40.982Z</time>
      </trkpt>
      <trkpt lat="49.082225" lon="10.795302">
        <ele>412.351030</ele>
        <time>2026-05-05T10:15:42.274Z</time>
      </trkpt>
      <trkpt lat="49.082193" lon="10.795360">
        <ele>412.348833</ele>
        <time>2026-05-05T10:15:43.377Z</time>
      </trkpt>
      <trkpt lat="49.081198" lon="10.795683">
        <ele>412.369756</ele>
        <time>2026-05-05T10:16:06.041Z</time>
      </trkpt>
      <trkpt lat="49.080068" lon="10.795735">
        <ele>412.556022</ele>
        <time>2026-05-05T10:16:32.118Z</time>
      </trkpt>
      <trkpt lat="49.079840" lon="10.795797">
        <ele>412.594179</ele>
        <time>2026-05-05T10:16:38.147Z</time>
      </trkpt>
      <trkpt lat="49.079618" lon="10.795917">
        <ele>412.736469</ele>
        <time>2026-05-05T10:16:44.512Z</time>
      </trkpt>
      <trkpt lat="49.079242" lon="10.796327">
        <ele>413.230523</ele>
        <time>2026-05-05T10:16:57.202Z</time>
      </trkpt>
      <trkpt lat="49.078849" lon="10.797032">
        <ele>413.878893</ele>
        <time>2026-05-05T10:17:14.263Z</time>
      </trkpt>
      <trkpt lat="49.078705" lon="10.797353">
        <ele>414.151385</ele>
        <time>2026-05-05T10:17:21.449Z</time>
      </trkpt>
      <trkpt lat="49.078570" lon="10.797577">
        <ele>414.364574</ele>
        <time>2026-05-05T10:17:27.071Z</time>
      </trkpt>
      <trkpt lat="49.078501" lon="10.797656">
        <ele>414.456794</ele>
        <time>2026-05-05T10:17:29.483Z</time>
      </trkpt>
      <trkpt lat="49.078397" lon="10.797713">
        <ele>414.562035</ele>
        <time>2026-05-05T10:17:32.557Z</time>
      </trkpt>
      <trkpt lat="49.077869" lon="10.797782">
        <ele>414.934230</ele>
        <time>2026-05-05T10:17:46.891Z</time>
      </trkpt>
      <trkpt lat="49.077175" lon="10.797812">
        <ele>415.421852</ele>
        <time>2026-05-05T10:18:04.670Z</time>
      </trkpt>
      <trkpt lat="49.076972" lon="10.797768">
        <ele>415.565858</ele>
        <time>2026-05-05T10:18:09.897Z</time>
      </trkpt>
      <trkpt lat="49.076272" lon="10.797875">
        <ele>415.764317</ele>
        <time>2026-05-05T10:18:27.563Z</time>
      </trkpt>
      <trkpt lat="49.075623" lon="10.798015">
        <ele>415.699935</ele>
        <time>2026-05-05T10:18:42.628Z</time>
      </trkpt>
      <trkpt lat="49.075130" lon="10.798110">
        <ele>415.651125</ele>
        <time>2026-05-05T10:18:53.508Z</time>
      </trkpt>
      <trkpt lat="49.074812" lon="10.798115">
        <ele>415.593632</ele>
        <time>2026-05-05T10:19:00.377Z</time>
      </trkpt>
      <trkpt lat="49.074619" lon="10.798090">
        <ele>415.450629</ele>
        <time>2026-05-05T10:19:04.418Z</time>
      </trkpt>
      <trkpt lat="49.073802" lon="10.798287">
        <ele>414.839963</ele>
        <time>2026-05-05T10:19:21.175Z</time>
      </trkpt>
      <trkpt lat="49.073127" lon="10.798639">
        <ele>414.313336</ele>
        <time>2026-05-05T10:19:36.102Z</time>
      </trkpt>
      <trkpt lat="49.072409" lon="10.799000">
        <ele>413.845734</ele>
        <time>2026-05-05T10:19:56.599Z</time>
      </trkpt>
      <trkpt lat="49.071466" lon="10.799367">
        <ele>413.247504</ele>
        <time>2026-05-05T10:20:23.307Z</time>
      </trkpt>
      <trkpt lat="49.071242" lon="10.799488">
        <ele>413.099210</ele>
        <time>2026-05-05T10:20:29.683Z</time>
      </trkpt>
      <trkpt lat="49.069674" lon="10.800846">
        <ele>412.007546</ele>
        <time>2026-05-05T10:21:18.342Z</time>
      </trkpt>
      <trkpt lat="49.068787" lon="10.801597">
        <ele>411.670769</ele>
        <time>2026-05-05T10:21:46.896Z</time>
      </trkpt>
      <trkpt lat="49.067316" lon="10.803166">
        <ele>411.390936</ele>
        <time>2026-05-05T10:22:38.057Z</time>
      </trkpt>
      <trkpt lat="49.067245" lon="10.803211">
        <ele>411.386372</ele>
        <time>2026-05-05T10:22:40.311Z</time>
      </trkpt>
      <trkpt lat="49.065988" lon="10.804716">
        <ele>411.494360</ele>
        <time>2026-05-05T10:23:28.402Z</time>
      </trkpt>
      <trkpt lat="49.064119" lon="10.806969">
        <ele>411.532363</ele>
        <time>2026-05-05T10:24:38.179Z</time>
      </trkpt>
      <trkpt lat="49.064079" lon="10.807089">
        <ele>411.528745</ele>
        <time>2026-05-05T10:24:40.671Z</time>
      </trkpt>
      <trkpt lat="49.064085" lon="10.807252">
        <ele>411.524830</ele>
        <time>2026-05-05T10:24:43.703Z</time>
      </trkpt>
      <trkpt lat="49.064164" lon="10.807493">
        <ele>411.523394</ele>
        <time>2026-05-05T10:24:48.705Z</time>
      </trkpt>
      <trkpt lat="49.064501" lon="10.808239">
        <ele>411.518566</ele>
        <time>2026-05-05T10:25:05.656Z</time>
      </trkpt>
      <trkpt lat="49.064520" lon="10.808332">
        <ele>411.518047</ele>
        <time>2026-05-05T10:25:07.483Z</time>
      </trkpt>
      <trkpt lat="49.064417" lon="10.808497">
        <ele>411.516833</ele>
        <time>2026-05-05T10:25:11.767Z</time>
      </trkpt>
      <trkpt lat="49.060877" lon="10.812408">
        <ele>411.949364</ele>
        <time>2026-05-05T10:27:22.085Z</time>
      </trkpt>
      <trkpt lat="49.059868" lon="10.813619">
        <ele>411.852367</ele>
        <time>2026-05-05T10:27:59.531Z</time>
      </trkpt>
      <trkpt lat="49.055969" lon="10.818249">
        <ele>411.350728</ele>
        <time>2026-05-05T10:30:21.051Z</time>
      </trkpt>
      <trkpt lat="49.052290" lon="10.822436">
        <ele>412.173651</ele>
        <time>2026-05-05T10:32:07.364Z</time>
      </trkpt>
      <trkpt lat="49.051598" lon="10.822959">
        <ele>412.166939</ele>
        <time>2026-05-05T10:32:24.791Z</time>
      </trkpt>
      <trkpt lat="49.049644" lon="10.824333">
        <ele>411.927101</ele>
        <time>2026-05-05T10:33:11.551Z</time>
      </trkpt>
      <trkpt lat="49.048241" lon="10.825571">
        <ele>411.754743</ele>
        <time>2026-05-05T10:33:45.811Z</time>
      </trkpt>
      <trkpt lat="49.047646" lon="10.825817">
        <ele>411.732928</ele>
        <time>2026-05-05T10:33:59.891Z</time>
      </trkpt>
      <trkpt lat="49.047322" lon="10.826043">
        <ele>411.773715</ele>
        <time>2026-05-05T10:34:08.365Z</time>
      </trkpt>
      <trkpt lat="49.047211" lon="10.826085">
        <ele>411.822717</ele>
        <time>2026-05-05T10:34:11.107Z</time>
      </trkpt>
      <trkpt lat="49.046780" lon="10.826491">
        <ele>412.039752</ele>
        <time>2026-05-05T10:34:23.510Z</time>
      </trkpt>
      <trkpt lat="49.045113" lon="10.828554">
        <ele>413.096575</ele>
        <time>2026-05-05T10:35:15.066Z</time>
      </trkpt>
      <trkpt lat="49.044675" lon="10.829144">
        <ele>413.420851</ele>
        <time>2026-05-05T10:35:29.650Z</time>
      </trkpt>
      <trkpt lat="49.043463" lon="10.830719">
        <ele>413.971149</ele>
        <time>2026-05-05T10:36:09.573Z</time>
      </trkpt>
      <trkpt lat="49.043368" lon="10.830804">
        <ele>414.007157</ele>
        <time>2026-05-05T10:36:11.906Z</time>
      </trkpt>
      <trkpt lat="49.043199" lon="10.830873">
        <ele>414.064357</ele>
        <time>2026-05-05T10:36:15.474Z</time>
      </trkpt>
      <trkpt lat="49.043103" lon="10.830976">
        <ele>414.006979</ele>
        <time>2026-05-05T10:36:17.796Z</time>
      </trkpt>
      <trkpt lat="49.042520" lon="10.831755">
        <ele>413.125281</ele>
        <time>2026-05-05T10:36:32.299Z</time>
      </trkpt>
      <trkpt lat="49.042499" lon="10.831808">
        <ele>413.079097</ele>
        <time>2026-05-05T10:36:33.031Z</time>
      </trkpt>
      <trkpt lat="49.042503" lon="10.831961">
        <ele>412.964908</ele>
        <time>2026-05-05T10:36:34.810Z</time>
      </trkpt>
      <trkpt lat="49.042698" lon="10.832991">
        <ele>412.165402</ele>
        <time>2026-05-05T10:36:47.743Z</time>
      </trkpt>
      <trkpt lat="49.043141" lon="10.835609">
        <ele>410.889151</ele>
        <time>2026-05-05T10:37:23.099Z</time>
      </trkpt>
      <trkpt lat="49.043138" lon="10.835731">
        <ele>410.833833</ele>
        <time>2026-05-05T10:37:24.774Z</time>
      </trkpt>
      <trkpt lat="49.043111" lon="10.835816">
        <ele>410.791641</ele>
        <time>2026-05-05T10:37:26.063Z</time>
      </trkpt>
      <trkpt lat="49.038306" lon="10.841683">
        <ele>409.944287</ele>
        <time>2026-05-05T10:39:40.492Z</time>
      </trkpt>
      <trkpt lat="49.037797" lon="10.842269">
        <ele>409.824481</ele>
        <time>2026-05-05T10:39:54.398Z</time>
      </trkpt>
      <trkpt lat="49.037379" lon="10.842484">
        <ele>409.760324</ele>
        <time>2026-05-05T10:40:03.364Z</time>
      </trkpt>
      <trkpt lat="49.037006" lon="10.843186">
        <ele>409.926459</ele>
        <time>2026-05-05T10:40:15.648Z</time>
      </trkpt>
      <trkpt lat="49.036833" lon="10.843442">
        <ele>409.994055</ele>
        <time>2026-05-05T10:40:21.103Z</time>
      </trkpt>
      <trkpt lat="49.036748" lon="10.843473">
        <ele>410.018565</ele>
        <time>2026-05-05T10:40:23.090Z</time>
      </trkpt>
      <trkpt lat="49.036651" lon="10.843452">
        <ele>410.046041</ele>
        <time>2026-05-05T10:40:25.361Z</time>
      </trkpt>
      <trkpt lat="49.033207" lon="10.841917">
        <ele>413.285131</ele>
        <time>2026-05-05T10:42:04.766Z</time>
      </trkpt>
      <trkpt lat="49.033216" lon="10.841670">
        <ele>413.437256</ele>
        <time>2026-05-05T10:42:09.099Z</time>
      </trkpt>
      <trkpt lat="49.033325" lon="10.840323">
        <ele>414.227666</ele>
        <time>2026-05-05T10:42:31.315Z</time>
      </trkpt>
      <trkpt lat="49.033370" lon="10.839327">
        <ele>414.746065</ele>
        <time>2026-05-05T10:42:47.435Z</time>
      </trkpt>
      <trkpt lat="49.033334" lon="10.837376">
        <ele>416.117519</ele>
        <time>2026-05-05T10:43:20.501Z</time>
      </trkpt>
      <trkpt lat="49.033303" lon="10.836689">
        <ele>416.843789</ele>
        <time>2026-05-05T10:43:33.112Z</time>
      </trkpt>
      <trkpt lat="49.033264" lon="10.836375">
        <ele>417.180845</ele>
        <time>2026-05-05T10:43:39.156Z</time>
      </trkpt>
      <trkpt lat="49.033202" lon="10.836033">
        <ele>417.555076</ele>
        <time>2026-05-05T10:43:45.981Z</time>
      </trkpt>
      <trkpt lat="49.033082" lon="10.835594">
        <ele>418.056707</ele>
        <time>2026-05-05T10:43:55.524Z</time>
      </trkpt>
      <trkpt lat="49.032791" lon="10.834619">
        <ele>419.548159</ele>
        <time>2026-05-05T10:44:18.352Z</time>
      </trkpt>
      <trkpt lat="49.032607" lon="10.833490">
        <ele>421.278841</ele>
        <time>2026-05-05T10:44:43.087Z</time>
      </trkpt>
      <trkpt lat="49.032683" lon="10.832048">
        <ele>422.876118</ele>
        <time>2026-05-05T10:45:11.127Z</time>
      </trkpt>
      <trkpt lat="49.032729" lon="10.830649">
        <ele>423.852487</ele>
        <time>2026-05-05T10:45:34.513Z</time>
      </trkpt>
      <trkpt lat="49.032741" lon="10.830303">
        <ele>424.093996</ele>
        <time>2026-05-05T10:45:39.987Z</time>
      </trkpt>
      <trkpt lat="49.033105" lon="10.826844">
        <ele>425.634929</ele>
        <time>2026-05-05T10:46:36.262Z</time>
      </trkpt>
      <trkpt lat="49.033110" lon="10.824744">
        <ele>426.855477</ele>
        <time>2026-05-05T10:47:12.332Z</time>
      </trkpt>
      <trkpt lat="49.032945" lon="10.822155">
        <ele>428.739913</ele>
        <time>2026-05-05T10:47:57.752Z</time>
      </trkpt>
      <trkpt lat="49.032795" lon="10.820566">
        <ele>429.657330</ele>
        <time>2026-05-05T10:48:26.577Z</time>
      </trkpt>
      <trkpt lat="49.032800" lon="10.820440">
        <ele>429.724326</ele>
        <time>2026-05-05T10:48:28.676Z</time>
      </trkpt>
      <trkpt lat="49.033000" lon="10.819799">
        <ele>430.101092</ele>
        <time>2026-05-05T10:48:40.029Z</time>
      </trkpt>
      <trkpt lat="49.032798" lon="10.819609">
        <ele>430.293208</ele>
        <time>2026-05-05T10:48:45.797Z</time>
      </trkpt>
      <trkpt lat="49.032563" lon="10.819113">
        <ele>430.567336</ele>
        <time>2026-05-05T10:48:55.438Z</time>
      </trkpt>
      <trkpt lat="49.032287" lon="10.818418">
        <ele>430.881622</ele>
        <time>2026-05-05T10:49:07.979Z</time>
      </trkpt>
      <trkpt lat="49.031805" lon="10.817230">
        <ele>431.421998</ele>
        <time>2026-05-05T10:49:32.276Z</time>
      </trkpt>
      <trkpt lat="49.031729" lon="10.817047">
        <ele>431.506233</ele>
        <time>2026-05-05T10:49:36.188Z</time>
      </trkpt>
      <trkpt lat="49.031666" lon="10.816896">
        <ele>431.577753</ele>
        <time>2026-05-05T10:49:39.454Z</time>
      </trkpt>
      <trkpt lat="49.031568" lon="10.816712">
        <ele>431.672482</ele>
        <time>2026-05-05T10:49:43.715Z</time>
      </trkpt>
      <trkpt lat="49.031428" lon="10.816593">
        <ele>431.770164</ele>
        <time>2026-05-05T10:49:48.075Z</time>
      </trkpt>
      <trkpt lat="49.031283" lon="10.816600">
        <ele>431.858582</ele>
        <time>2026-05-05T10:49:52.001Z</time>
      </trkpt>
      <trkpt lat="49.030707" lon="10.816916">
        <ele>432.231658</ele>
        <time>2026-05-05T10:50:07.959Z</time>
      </trkpt>
      <trkpt lat="49.030493" lon="10.816949">
        <ele>432.362751</ele>
        <time>2026-05-05T10:50:12.925Z</time>
      </trkpt>
      <trkpt lat="49.030431" lon="10.816544">
        <ele>432.528944</ele>
        <time>2026-05-05T10:50:19.337Z</time>
      </trkpt>
      <trkpt lat="49.030346" lon="10.815988">
        <ele>432.701132</ele>
        <time>2026-05-05T10:50:28.339Z</time>
      </trkpt>
      <trkpt lat="49.030337" lon="10.815774">
        <ele>432.758375</ele>
        <time>2026-05-05T10:50:31.727Z</time>
      </trkpt>
      <trkpt lat="49.030323" lon="10.815680">
        <ele>432.784107</ele>
        <time>2026-05-05T10:50:33.271Z</time>
      </trkpt>
      <trkpt lat="49.030307" lon="10.815606">
        <ele>432.804908</ele>
        <time>2026-05-05T10:50:34.520Z</time>
      </trkpt>
      <trkpt lat="49.030191" lon="10.815203">
        <ele>432.922397</ele>
        <time>2026-05-05T10:50:41.556Z</time>
      </trkpt>
      <trkpt lat="49.030176" lon="10.815150">
        <ele>432.937807</ele>
        <time>2026-05-05T10:50:42.496Z</time>
      </trkpt>
      <trkpt lat="49.030111" lon="10.814887">
        <ele>433.012836</ele>
        <time>2026-05-05T10:50:47.047Z</time>
      </trkpt>
      <trkpt lat="49.030042" lon="10.814646">
        <ele>433.083036</ele>
        <time>2026-05-05T10:50:51.310Z</time>
      </trkpt>
      <trkpt lat="49.029945" lon="10.814208">
        <ele>433.206448</ele>
        <time>2026-05-05T10:50:58.956Z</time>
      </trkpt>
      <trkpt lat="49.029918" lon="10.814046">
        <ele>433.251069</ele>
        <time>2026-05-05T10:51:01.775Z</time>
      </trkpt>
      <trkpt lat="49.029909" lon="10.813994">
        <ele>433.265426</ele>
        <time>2026-05-05T10:51:02.671Z</time>
      </trkpt>
      <trkpt lat="49.029882" lon="10.813791">
        <ele>433.320720</ele>
        <time>2026-05-05T10:51:06.113Z</time>
      </trkpt>
      <trkpt lat="49.029859" lon="10.813620">
        <ele>433.396017</ele>
        <time>2026-05-05T10:51:09.049Z</time>
      </trkpt>
      <trkpt lat="49.029717" lon="10.813286">
        <ele>433.567897</ele>
        <time>2026-05-05T10:51:15.810Z</time>
      </trkpt>
      <trkpt lat="49.029670" lon="10.813220">
        <ele>433.609969</ele>
        <time>2026-05-05T10:51:17.433Z</time>
      </trkpt>
      <trkpt lat="49.029575" lon="10.813079">
        <ele>433.697265</ele>
        <time>2026-05-05T10:51:20.914Z</time>
      </trkpt>
      <trkpt lat="49.029368" lon="10.812872">
        <ele>433.860271</ele>
        <time>2026-05-05T10:51:27.464Z</time>
      </trkpt>
      <trkpt lat="49.029205" lon="10.812604">
        <ele>434.018110</ele>
        <time>2026-05-05T10:51:33.774Z</time>
      </trkpt>
      <trkpt lat="49.029190" lon="10.812618">
        <ele>434.029691</ele>
        <time>2026-05-05T10:51:34.265Z</time>
      </trkpt>
      <trkpt lat="49.029173" lon="10.812638">
        <ele>434.043830</ele>
        <time>2026-05-05T10:51:34.847Z</time>
      </trkpt>
      <trkpt lat="49.029135" lon="10.812676">
        <ele>434.073754</ele>
        <time>2026-05-05T10:51:36.055Z</time>
      </trkpt>
      <trkpt lat="49.029099" lon="10.812713">
        <ele>434.102342</ele>
        <time>2026-05-05T10:51:37.154Z</time>
      </trkpt>
      <trkpt lat="49.028964" lon="10.812305">
        <ele>434.299673</ele>
        <time>2026-05-05T10:51:45.007Z</time>
      </trkpt>
      <trkpt lat="49.028854" lon="10.811823">
        <ele>434.519820</ele>
        <time>2026-05-05T10:51:53.691Z</time>
      </trkpt>
      <trkpt lat="49.028825" lon="10.811751">
        <ele>434.555756</ele>
        <time>2026-05-05T10:51:55.098Z</time>
      </trkpt>
      <trkpt lat="49.028439" lon="10.811060">
        <ele>434.941822</ele>
        <time>2026-05-05T10:52:09.565Z</time>
      </trkpt>
      <trkpt lat="49.028437" lon="10.811052">
        <ele>434.945463</ele>
        <time>2026-05-05T10:52:09.698Z</time>
      </trkpt>
      <trkpt lat="49.028370" lon="10.810792">
        <ele>435.064272</ele>
        <time>2026-05-05T10:52:14.010Z</time>
      </trkpt>
      <trkpt lat="49.028338" lon="10.810533">
        <ele>435.176361</ele>
        <time>2026-05-05T10:52:18.079Z</time>
      </trkpt>
      <trkpt lat="49.028401" lon="10.810511">
        <ele>435.218281</ele>
        <time>2026-05-05T10:52:19.512Z</time>
      </trkpt>
      <trkpt lat="49.028433" lon="10.810495">
        <ele>435.240124</ele>
        <time>2026-05-05T10:52:20.322Z</time>
      </trkpt>
      <trkpt lat="49.028473" lon="10.810476">
        <ele>435.267298</ele>
        <time>2026-05-05T10:52:21.312Z</time>
      </trkpt>
      <trkpt lat="49.028484" lon="10.810470">
        <ele>435.274876</ele>
        <time>2026-05-05T10:52:21.603Z</time>
      </trkpt>
      <trkpt lat="49.028543" lon="10.810425">
        <ele>435.317663</ele>
        <time>2026-05-05T10:52:23.137Z</time>
      </trkpt>
      <trkpt lat="49.028599" lon="10.810369">
        <ele>435.361098</ele>
        <time>2026-05-05T10:52:24.760Z</time>
      </trkpt>
      <trkpt lat="49.028870" lon="10.810175">
        <ele>435.555274</ele>
        <time>2026-05-05T10:52:32.535Z</time>
      </trkpt>
      <trkpt lat="49.028910" lon="10.810149">
        <ele>435.583477</ele>
        <time>2026-05-05T10:52:33.730Z</time>
      </trkpt>
      <trkpt lat="49.029260" lon="10.810017">
        <ele>436.157918</ele>
        <time>2026-05-05T10:52:43.968Z</time>
      </trkpt>
      <trkpt lat="49.029406" lon="10.810021">
        <ele>436.474524</ele>
        <time>2026-05-05T10:52:48.317Z</time>
      </trkpt>
      <trkpt lat="49.029470" lon="10.809661">
        <ele>437.004785</ele>
        <time>2026-05-05T10:52:56.127Z</time>
      </trkpt>
      <trkpt lat="49.029483" lon="10.809383">
        <ele>437.400999</ele>
        <time>2026-05-05T10:53:02.146Z</time>
      </trkpt>
      <trkpt lat="49.029461" lon="10.809168">
        <ele>437.710346</ele>
        <time>2026-05-05T10:53:06.821Z</time>
      </trkpt>
      <trkpt lat="49.029360" lon="10.808658">
        <ele>438.467722</ele>
        <time>2026-05-05T10:53:18.509Z</time>
      </trkpt>
      <trkpt lat="49.029016" lon="10.807194">
        <ele>440.486013</ele>
        <time>2026-05-05T10:53:52.599Z</time>
      </trkpt>
      <trkpt lat="49.028978" lon="10.806816">
        <ele>440.935078</ele>
        <time>2026-05-05T10:54:00.154Z</time>
      </trkpt>
      <trkpt lat="49.028930" lon="10.805936">
        <ele>441.972017</ele>
        <time>2026-05-05T10:54:17.139Z</time>
      </trkpt>
      <trkpt lat="49.028874" lon="10.804473">
        <ele>443.337490</ele>
        <time>2026-05-05T10:54:43.929Z</time>
      </trkpt>
      <trkpt lat="49.028739" lon="10.803170">
        <ele>444.274733</ele>
        <time>2026-05-05T10:55:07.256Z</time>
      </trkpt>
      <trkpt lat="49.028579" lon="10.801999">
        <ele>445.351332</ele>
        <time>2026-05-05T10:55:28.908Z</time>
      </trkpt>
      <trkpt lat="49.028550" lon="10.801312">
        <ele>446.130334</ele>
        <time>2026-05-05T10:55:42.021Z</time>
      </trkpt>
      <trkpt lat="49.028566" lon="10.800934">
        <ele>446.558960</ele>
        <time>2026-05-05T10:55:49.447Z</time>
      </trkpt>
      <trkpt lat="49.028661" lon="10.800308">
        <ele>447.286052</ele>
        <time>2026-05-05T10:56:02.480Z</time>
      </trkpt>
      <trkpt lat="49.028932" lon="10.799423">
        <ele>448.635950</ele>
        <time>2026-05-05T10:56:23.411Z</time>
      </trkpt>
      <trkpt lat="49.029317" lon="10.798379">
        <ele>450.599458</ele>
        <time>2026-05-05T10:56:50.374Z</time>
      </trkpt>
      <trkpt lat="49.029606" lon="10.797467">
        <ele>452.259905</ele>
        <time>2026-05-05T10:57:12.693Z</time>
      </trkpt>
      <trkpt lat="49.029705" lon="10.796603">
        <ele>453.138484</ele>
        <time>2026-05-05T10:57:30.677Z</time>
      </trkpt>
      <trkpt lat="49.029729" lon="10.795832">
        <ele>453.881504</ele>
        <time>2026-05-05T10:57:45.221Z</time>
      </trkpt>
      <trkpt lat="49.029994" lon="10.793980">
        <ele>455.739673</ele>
        <time>2026-05-05T10:58:18.456Z</time>
      </trkpt>
      <trkpt lat="49.030036" lon="10.793424">
        <ele>456.303356</ele>
        <time>2026-05-05T10:58:28.757Z</time>
      </trkpt>
      <trkpt lat="49.029992" lon="10.791377">
        <ele>458.330711</ele>
        <time>2026-05-05T10:59:10.644Z</time>
      </trkpt>
      <trkpt lat="49.029996" lon="10.791042">
        <ele>458.648883</ele>
        <time>2026-05-05T10:59:17.282Z</time>
      </trkpt>
      <trkpt lat="49.030135" lon="10.790333">
        <ele>459.351611</ele>
        <time>2026-05-05T10:59:31.230Z</time>
      </trkpt>
      <trkpt lat="49.029675" lon="10.790318">
        <ele>460.017992</ele>
        <time>2026-05-05T10:59:43.981Z</time>
      </trkpt>
      <trkpt lat="49.029281" lon="10.790184">
        <ele>460.665715</ele>
        <time>2026-05-05T10:59:55.196Z</time>
      </trkpt>
      <trkpt lat="49.028939" lon="10.789944">
        <ele>461.347884</ele>
        <time>2026-05-05T11:00:05.234Z</time>
      </trkpt>
      <trkpt lat="49.028742" lon="10.789728">
        <ele>461.787529</ele>
        <time>2026-05-05T11:00:11.941Z</time>
      </trkpt>
      <trkpt lat="49.028588" lon="10.789458">
        <ele>462.212708</ele>
        <time>2026-05-05T11:00:18.952Z</time>
      </trkpt>
      <trkpt lat="49.028491" lon="10.789337">
        <ele>462.439780</ele>
        <time>2026-05-05T11:00:22.865Z</time>
      </trkpt>
      <trkpt lat="49.027867" lon="10.788504">
        <ele>464.138990</ele>
        <time>2026-05-05T11:00:50.843Z</time>
      </trkpt>
      <trkpt lat="49.027718" lon="10.788386">
        <ele>464.623443</ele>
        <time>2026-05-05T11:00:56.741Z</time>
      </trkpt>
      <trkpt lat="49.027377" lon="10.788199">
        <ele>465.669082</ele>
        <time>2026-05-05T11:01:09.363Z</time>
      </trkpt>
      <trkpt lat="49.026801" lon="10.788037">
        <ele>467.359167</ele>
        <time>2026-05-05T11:01:30.262Z</time>
      </trkpt>
      <trkpt lat="49.025844" lon="10.787852">
        <ele>469.526085</ele>
        <time>2026-05-05T11:02:03.819Z</time>
      </trkpt>
      <trkpt lat="49.025520" lon="10.787903">
        <ele>470.034104</ele>
        <time>2026-05-05T11:02:13.989Z</time>
      </trkpt>
      <trkpt lat="49.025194" lon="10.788072">
        <ele>470.571131</ele>
        <time>2026-05-05T11:02:23.841Z</time>
      </trkpt>
      <trkpt lat="49.024967" lon="10.788257">
        <ele>470.972561</ele>
        <time>2026-05-05T11:02:30.689Z</time>
      </trkpt>
      <trkpt lat="49.024853" lon="10.788350">
        <ele>471.174205</ele>
        <time>2026-05-05T11:02:33.967Z</time>
      </trkpt>
      <trkpt lat="49.024245" lon="10.789157">
        <ele>471.804270</ele>
        <time>2026-05-05T11:02:52.707Z</time>
      </trkpt>
      <trkpt lat="49.023698" lon="10.789763">
        <ele>472.057574</ele>
        <time>2026-05-05T11:03:08.470Z</time>
      </trkpt>
      <trkpt lat="49.023273" lon="10.790063">
        <ele>472.233031</ele>
        <time>2026-05-05T11:03:20.555Z</time>
      </trkpt>
      <trkpt lat="49.022706" lon="10.790255">
        <ele>473.139648</ele>
        <time>2026-05-05T11:03:36.608Z</time>
      </trkpt>
      <trkpt lat="49.022315" lon="10.790275">
        <ele>473.877644</ele>
        <time>2026-05-05T11:03:48.279Z</time>
      </trkpt>
      <trkpt lat="49.021757" lon="10.790134">
        <ele>474.944608</ele>
        <time>2026-05-05T11:04:06.038Z</time>
      </trkpt>
      <trkpt lat="49.020480" lon="10.789473">
        <ele>477.716750</ele>
        <time>2026-05-05T11:04:52.953Z</time>
      </trkpt>
      <trkpt lat="49.020266" lon="10.789448">
        <ele>478.172510</ele>
        <time>2026-05-05T11:04:59.835Z</time>
      </trkpt>
      <trkpt lat="49.020063" lon="10.789542">
        <ele>478.623017</ele>
        <time>2026-05-05T11:05:06.354Z</time>
      </trkpt>
      <trkpt lat="49.019678" lon="10.790029">
        <ele>479.379872</ele>
        <time>2026-05-05T11:05:20.405Z</time>
      </trkpt>
      <trkpt lat="49.019365" lon="10.790538">
        <ele>478.814091</ele>
        <time>2026-05-05T11:05:31.354Z</time>
      </trkpt>
      <trkpt lat="49.018999" lon="10.791010">
        <ele>478.221418</ele>
        <time>2026-05-05T11:05:40.472Z</time>
      </trkpt>
      <trkpt lat="49.018785" lon="10.791224">
        <ele>477.905000</ele>
        <time>2026-05-05T11:05:45.075Z</time>
      </trkpt>
      <trkpt lat="49.018380" lon="10.791525">
        <ele>477.347934</ele>
        <time>2026-05-05T11:05:52.924Z</time>
      </trkpt>
      <trkpt lat="49.017760" lon="10.791911">
        <ele>476.691993</ele>
        <time>2026-05-05T11:06:05.031Z</time>
      </trkpt>
      <trkpt lat="49.017613" lon="10.791987">
        <ele>476.544199</ele>
        <time>2026-05-05T11:06:08.007Z</time>
      </trkpt>
      <trkpt lat="49.017506" lon="10.791981">
        <ele>476.442250</ele>
        <time>2026-05-05T11:06:10.096Z</time>
      </trkpt>
      <trkpt lat="49.017327" lon="10.791808">
        <ele>476.240461</ele>
        <time>2026-05-05T11:06:14.199Z</time>
      </trkpt>
      <trkpt lat="49.016855" lon="10.791096">
        <ele>475.608278</ele>
        <time>2026-05-05T11:06:29.073Z</time>
      </trkpt>
      <trkpt lat="49.016354" lon="10.790692">
        <ele>475.997571</ele>
        <time>2026-05-05T11:06:44.866Z</time>
      </trkpt>
      <trkpt lat="49.016207" lon="10.790529">
        <ele>476.154528</ele>
        <time>2026-05-05T11:06:49.820Z</time>
      </trkpt>
      <trkpt lat="49.016133" lon="10.790206">
        <ele>476.348298</ele>
        <time>2026-05-05T11:06:55.676Z</time>
      </trkpt>
      <trkpt lat="49.016088" lon="10.789861">
        <ele>476.547515</ele>
        <time>2026-05-05T11:07:01.448Z</time>
      </trkpt>
      <trkpt lat="49.015808" lon="10.789851">
        <ele>476.789371</ele>
        <time>2026-05-05T11:07:08.310Z</time>
      </trkpt>
      <trkpt lat="49.015261" lon="10.790134">
        <ele>477.421283</ele>
        <time>2026-05-05T11:07:22.670Z</time>
      </trkpt>
      <trkpt lat="49.014995" lon="10.790341">
        <ele>477.870719</ele>
        <time>2026-05-05T11:07:30.521Z</time>
      </trkpt>
      <trkpt lat="49.014631" lon="10.790658">
        <ele>478.501573</ele>
        <time>2026-05-05T11:07:42.170Z</time>
      </trkpt>
      <trkpt lat="49.014246" lon="10.791076">
        <ele>479.212856</ele>
        <time>2026-05-05T11:07:56.426Z</time>
      </trkpt>
      <trkpt lat="49.014045" lon="10.791252">
        <ele>479.561681</ele>
        <time>2026-05-05T11:08:03.729Z</time>
      </trkpt>
      <trkpt lat="49.013944" lon="10.791234">
        <ele>479.714713</ele>
        <time>2026-05-05T11:08:06.888Z</time>
      </trkpt>
      <trkpt lat="49.013761" lon="10.790923">
        <ele>480.237073</ele>
        <time>2026-05-05T11:08:15.231Z</time>
      </trkpt>
      <trkpt lat="49.013525" lon="10.790962">
        <ele>480.720491</ele>
        <time>2026-05-05T11:08:22.284Z</time>
      </trkpt>
      <trkpt lat="49.013389" lon="10.791037">
        <ele>481.015009</ele>
        <time>2026-05-05T11:08:26.562Z</time>
      </trkpt>
      <trkpt lat="49.013314" lon="10.791334">
        <ele>481.440091</ele>
        <time>2026-05-05T11:08:32.760Z</time>
      </trkpt>
      <trkpt lat="49.013407" lon="10.791398">
        <ele>481.647880</ele>
        <time>2026-05-05T11:08:35.748Z</time>
      </trkpt>
      <trkpt lat="49.013438" lon="10.791502">
        <ele>481.800462</ele>
        <time>2026-05-05T11:08:38.033Z</time>
      </trkpt>
      <trkpt lat="49.013613" lon="10.792415">
        <ele>483.070938</ele>
        <time>2026-05-05T11:08:56.023Z</time>
      </trkpt>
      <trkpt lat="49.013730" lon="10.792816">
        <ele>484.013443</ele>
        <time>2026-05-05T11:09:04.988Z</time>
      </trkpt>
      <trkpt lat="49.013904" lon="10.793302">
        <ele>486.229218</ele>
        <time>2026-05-05T11:09:18.620Z</time>
      </trkpt>
      <trkpt lat="49.014054" lon="10.793587">
        <ele>487.691542</ele>
        <time>2026-05-05T11:09:29.225Z</time>
      </trkpt>
      <trkpt lat="49.013864" lon="10.793845">
        <ele>489.243928</ele>
        <time>2026-05-05T11:09:41.864Z</time>
      </trkpt>
      <trkpt lat="49.013770" lon="10.793931">
        <ele>489.912799</ele>
        <time>2026-05-05T11:09:47.733Z</time>
      </trkpt>
      <trkpt lat="49.012729" lon="10.795139">
        <ele>496.998977</ele>
        <time>2026-05-05T11:11:02.486Z</time>
      </trkpt>
      <trkpt lat="49.012728" lon="10.795572">
        <ele>498.280778</ele>
        <time>2026-05-05T11:11:20.149Z</time>
      </trkpt>
      <trkpt lat="49.012622" lon="10.796345">
        <ele>500.618539</ele>
        <time>2026-05-05T11:11:47.043Z</time>
      </trkpt>
      <trkpt lat="49.012605" lon="10.796833">
        <ele>502.065186</ele>
        <time>2026-05-05T11:12:00.236Z</time>
      </trkpt>
      <trkpt lat="49.012774" lon="10.800271">
        <ele>499.707100</ele>
        <time>2026-05-05T11:13:14.269Z</time>
      </trkpt>
      <trkpt lat="49.012929" lon="10.803429">
        <ele>493.581630</ele>
        <time>2026-05-05T11:14:17.657Z</time>
      </trkpt>
      <trkpt lat="49.016560" lon="10.802521">
        <ele>477.313565</ele>
        <time>2026-05-05T11:15:12.200Z</time>
      </trkpt>
      <trkpt lat="49.016550" lon="10.802647">
        <ele>477.202675</ele>
        <time>2026-05-05T11:15:15.323Z</time>
      </trkpt>
      <trkpt lat="49.016196" lon="10.803557">
        <ele>476.278260</ele>
        <time>2026-05-05T11:15:44.866Z</time>
      </trkpt>
      <trkpt lat="49.016577" lon="10.804165">
        <ele>475.715374</ele>
        <time>2026-05-05T11:16:11.091Z</time>
      </trkpt>
      <trkpt lat="49.016842" lon="10.804423">
        <ele>475.520432</ele>
        <time>2026-05-05T11:16:24.551Z</time>
      </trkpt>
      <trkpt lat="49.018636" lon="10.806554">
        <ele>472.403773</ele>
        <time>2026-05-05T11:17:36.722Z</time>
      </trkpt>
      <trkpt lat="49.019397" lon="10.807221">
        <ele>470.265647</ele>
        <time>2026-05-05T11:18:03.492Z</time>
      </trkpt>
      <trkpt lat="49.023026" lon="10.810312">
        <ele>455.381119</ele>
        <time>2026-05-05T11:19:12.638Z</time>
      </trkpt>
      <trkpt lat="49.023584" lon="10.810786">
        <ele>453.340973</ele>
        <time>2026-05-05T11:19:23.526Z</time>
      </trkpt>
      <trkpt lat="49.024006" lon="10.811163">
        <ele>451.778819</ele>
        <time>2026-05-05T11:19:32.125Z</time>
      </trkpt>
      <trkpt lat="49.024839" lon="10.813427">
        <ele>448.373145</ele>
        <time>2026-05-05T11:20:03.518Z</time>
      </trkpt>
      <trkpt lat="49.027221" lon="10.819933">
        <ele>443.217114</ele>
        <time>2026-05-05T11:21:38.567Z</time>
      </trkpt>
      <trkpt lat="49.027198" lon="10.820104">
        <ele>443.225136</ele>
        <time>2026-05-05T11:21:41.794Z</time>
      </trkpt>
      <trkpt lat="49.026883" lon="10.820224">
        <ele>443.247891</ele>
        <time>2026-05-05T11:21:51.714Z</time>
      </trkpt>
      <trkpt lat="49.024322" lon="10.820791">
        <ele>450.943975</ele>
        <time>2026-05-05T11:23:32.084Z</time>
      </trkpt>
      <trkpt lat="49.024183" lon="10.820909">
        <ele>451.227166</ele>
        <time>2026-05-05T11:23:37.125Z</time>
      </trkpt>
      <trkpt lat="49.024019" lon="10.822616">
        <ele>453.007381</ele>
        <time>2026-05-05T11:24:05.795Z</time>
      </trkpt>
      <trkpt lat="49.023836" lon="10.824769">
        <ele>452.592412</ele>
        <time>2026-05-05T11:24:55.375Z</time>
      </trkpt>
      <trkpt lat="49.023825" lon="10.824872">
        <ele>452.572465</ele>
        <time>2026-05-05T11:24:57.865Z</time>
      </trkpt>
      <trkpt lat="49.023785" lon="10.824915">
        <ele>452.558200</ele>
        <time>2026-05-05T11:24:59.626Z</time>
      </trkpt>
      <trkpt lat="49.023729" lon="10.824941">
        <ele>452.541137</ele>
        <time>2026-05-05T11:25:01.844Z</time>
      </trkpt>
      <trkpt lat="49.023577" lon="10.824932">
        <ele>452.498883</ele>
        <time>2026-05-05T11:25:07.504Z</time>
      </trkpt>
      <trkpt lat="49.023526" lon="10.824975">
        <ele>452.483743</ele>
        <time>2026-05-05T11:25:09.645Z</time>
      </trkpt>
      <trkpt lat="49.023605" lon="10.825644">
        <ele>452.367940</ele>
        <time>2026-05-05T11:25:26.730Z</time>
      </trkpt>
      <trkpt lat="49.023555" lon="10.825782">
        <ele>452.341081</ele>
        <time>2026-05-05T11:25:30.760Z</time>
      </trkpt>
      <trkpt lat="49.022659" lon="10.826214">
        <ele>452.096951</ele>
        <time>2026-05-05T11:26:05.234Z</time>
      </trkpt>
      <trkpt lat="49.022243" lon="10.826487">
        <ele>451.959156</ele>
        <time>2026-05-05T11:26:19.979Z</time>
      </trkpt>
      <trkpt lat="49.022179" lon="10.826584">
        <ele>451.928912</ele>
        <time>2026-05-05T11:26:22.909Z</time>
      </trkpt>
      <trkpt lat="49.022167" lon="10.826745">
        <ele>451.893297</ele>
        <time>2026-05-05T11:26:26.416Z</time>
      </trkpt>
      <trkpt lat="49.022378" lon="10.827763">
        <ele>451.658635</ele>
        <time>2026-05-05T11:26:50.167Z</time>
      </trkpt>
      <trkpt lat="49.021861" lon="10.828177">
        <ele>451.462911</ele>
        <time>2026-05-05T11:27:11.891Z</time>
      </trkpt>
      <trkpt lat="49.021286" lon="10.828751">
        <ele>452.730959</ele>
        <time>2026-05-05T11:27:42.869Z</time>
      </trkpt>
      <trkpt lat="49.020813" lon="10.829147">
        <ele>453.820725</ele>
        <time>2026-05-05T11:28:09.432Z</time>
      </trkpt>
      <trkpt lat="49.019998" lon="10.829856">
        <ele>454.925982</ele>
        <time>2026-05-05T11:28:52.495Z</time>
      </trkpt>
      <trkpt lat="49.019620" lon="10.830185">
        <ele>454.715841</ele>
        <time>2026-05-05T11:29:09.236Z</time>
      </trkpt>
      <trkpt lat="49.019006" lon="10.830827">
        <ele>454.356393</ele>
        <time>2026-05-05T11:29:33.804Z</time>
      </trkpt>
      <trkpt lat="49.018878" lon="10.830992">
        <ele>454.275469</ele>
        <time>2026-05-05T11:29:38.894Z</time>
      </trkpt>
      <trkpt lat="49.016732" lon="10.834022">
        <ele>448.991210</ele>
        <time>2026-05-05T11:31:07.887Z</time>
      </trkpt>
      <trkpt lat="49.016429" lon="10.834406">
        <ele>448.719775</ele>
        <time>2026-05-05T11:31:22.903Z</time>
      </trkpt>
      <trkpt lat="49.015946" lon="10.831927">
        <ele>450.508702</ele>
        <time>2026-05-05T11:32:19.613Z</time>
      </trkpt>
      <trkpt lat="49.015794" lon="10.831392">
        <ele>451.127522</ele>
        <time>2026-05-05T11:32:30.684Z</time>
      </trkpt>
      <trkpt lat="49.013466" lon="10.833183">
        <ele>447.375607</ele>
        <time>2026-05-05T11:33:19.992Z</time>
      </trkpt>
      <trkpt lat="49.013420" lon="10.833217">
        <ele>447.260694</ele>
        <time>2026-05-05T11:33:20.908Z</time>
      </trkpt>
      <trkpt lat="49.012869" lon="10.838442">
        <ele>438.402805</ele>
        <time>2026-05-05T11:35:06.625Z</time>
      </trkpt>
      <trkpt lat="49.012640" lon="10.840188">
        <ele>434.862808</ele>
        <time>2026-05-05T11:35:41.027Z</time>
      </trkpt>
      <trkpt lat="49.011575" lon="10.840146">
        <ele>431.944904</ele>
        <time>2026-05-05T11:35:58.235Z</time>
      </trkpt>
      <trkpt lat="49.010947" lon="10.840122">
        <ele>430.229924</ele>
        <time>2026-05-05T11:36:08.917Z</time>
      </trkpt>
      <trkpt lat="49.010276" lon="10.840119">
        <ele>429.570758</ele>
        <time>2026-05-05T11:36:21.588Z</time>
      </trkpt>
      <trkpt lat="49.009955" lon="10.840100">
        <ele>429.398639</ele>
        <time>2026-05-05T11:36:28.202Z</time>
      </trkpt>
      <trkpt lat="49.009629" lon="10.840038">
        <ele>429.222617</ele>
        <time>2026-05-05T11:36:35.810Z</time>
      </trkpt>
      <trkpt lat="49.009344" lon="10.840004">
        <ele>429.069450</ele>
        <time>2026-05-05T11:36:42.528Z</time>
      </trkpt>
      <trkpt lat="49.009059" lon="10.839969">
        <ele>428.916254</ele>
        <time>2026-05-05T11:36:49.164Z</time>
      </trkpt>
      <trkpt lat="49.008938" lon="10.839995">
        <ele>428.811164</ele>
        <time>2026-05-05T11:36:51.909Z</time>
      </trkpt>
      <trkpt lat="49.008728" lon="10.840308">
        <ele>428.507551</ele>
        <time>2026-05-05T11:36:58.135Z</time>
      </trkpt>
      <trkpt lat="49.008634" lon="10.840527">
        <ele>428.330076</ele>
        <time>2026-05-05T11:37:01.577Z</time>
      </trkpt>
      <trkpt lat="49.008607" lon="10.840660">
        <ele>428.235666</ele>
        <time>2026-05-05T11:37:03.375Z</time>
      </trkpt>
      <trkpt lat="49.008888" lon="10.842569">
        <ele>426.827579</ele>
        <time>2026-05-05T11:37:27.143Z</time>
      </trkpt>
      <trkpt lat="49.009032" lon="10.843139">
        <ele>426.143777</ele>
        <time>2026-05-05T11:37:34.101Z</time>
      </trkpt>
      <trkpt lat="49.009184" lon="10.843508">
        <ele>425.655985</ele>
        <time>2026-05-05T11:37:39.113Z</time>
      </trkpt>
      <trkpt lat="49.009276" lon="10.843810">
        <ele>425.283218</ele>
        <time>2026-05-05T11:37:42.939Z</time>
      </trkpt>
      <trkpt lat="49.009375" lon="10.844429">
        <ele>424.569957</ele>
        <time>2026-05-05T11:37:50.493Z</time>
      </trkpt>
      <trkpt lat="49.009431" lon="10.844523">
        <ele>424.427801</ele>
        <time>2026-05-05T11:37:52.109Z</time>
      </trkpt>
      <trkpt lat="49.009544" lon="10.844719">
        <ele>424.135675</ele>
        <time>2026-05-05T11:37:55.427Z</time>
      </trkpt>
      <trkpt lat="49.009654" lon="10.845086">
        <ele>423.913915</ele>
        <time>2026-05-05T11:38:00.530Z</time>
      </trkpt>
      <trkpt lat="49.010029" lon="10.845102">
        <ele>423.798947</ele>
        <time>2026-05-05T11:38:07.608Z</time>
      </trkpt>
      <trkpt lat="49.010130" lon="10.845552">
        <ele>423.703341</ele>
        <time>2026-05-05T11:38:14.144Z</time>
      </trkpt>
      <trkpt lat="49.010178" lon="10.845670">
        <ele>423.675430</ele>
        <time>2026-05-05T11:38:16.156Z</time>
      </trkpt>
      <trkpt lat="49.010224" lon="10.845781">
        <ele>423.649037</ele>
        <time>2026-05-05T11:38:18.165Z</time>
      </trkpt>
      <trkpt lat="49.010247" lon="10.845834">
        <ele>423.636262</ele>
        <time>2026-05-05T11:38:19.124Z</time>
      </trkpt>
      <trkpt lat="49.010322" lon="10.846004">
        <ele>423.595079</ele>
        <time>2026-05-05T11:38:22.383Z</time>
      </trkpt>
      <trkpt lat="49.010331" lon="10.846190">
        <ele>423.557588</ele>
        <time>2026-05-05T11:38:25.544Z</time>
      </trkpt>
      <trkpt lat="49.010311" lon="10.846399">
        <ele>423.515131</ele>
        <time>2026-05-05T11:38:29.141Z</time>
      </trkpt>
      <trkpt lat="49.010360" lon="10.846561">
        <ele>423.479271</ele>
        <time>2026-05-05T11:38:32.145Z</time>
      </trkpt>
      <trkpt lat="49.010365" lon="10.846680">
        <ele>423.455302</ele>
        <time>2026-05-05T11:38:34.109Z</time>
      </trkpt>
      <trkpt lat="49.010632" lon="10.846820">
        <ele>423.282470</ele>
        <time>2026-05-05T11:38:40.910Z</time>
      </trkpt>
      <trkpt lat="49.011258" lon="10.846830">
        <ele>422.716478</ele>
        <time>2026-05-05T11:38:55.359Z</time>
      </trkpt>
      <trkpt lat="49.011682" lon="10.846962">
        <ele>422.325234</ele>
        <time>2026-05-05T11:39:04.138Z</time>
      </trkpt>
      <trkpt lat="49.011807" lon="10.847126">
        <ele>422.176139</ele>
        <time>2026-05-05T11:39:07.154Z</time>
      </trkpt>
      <trkpt lat="49.011937" lon="10.847619">
        <ele>421.861051</ele>
        <time>2026-05-05T11:39:13.141Z</time>
      </trkpt>
      <trkpt lat="49.012128" lon="10.847886">
        <ele>421.265163</ele>
        <time>2026-05-05T11:39:17.375Z</time>
      </trkpt>
      <trkpt lat="49.012533" lon="10.848318">
        <ele>419.809098</ele>
        <time>2026-05-05T11:39:25.335Z</time>
      </trkpt>
      <trkpt lat="49.012543" lon="10.848647">
        <ele>419.172736</ele>
        <time>2026-05-05T11:39:28.769Z</time>
      </trkpt>
      <trkpt lat="49.012571" lon="10.848776">
        <ele>418.910194</ele>
        <time>2026-05-05T11:39:30.204Z</time>
      </trkpt>
      <trkpt lat="49.012618" lon="10.848866">
        <ele>418.687913</ele>
        <time>2026-05-05T11:39:31.421Z</time>
      </trkpt>
      <trkpt lat="49.012717" lon="10.849020">
        <ele>418.271271</ele>
        <time>2026-05-05T11:39:33.710Z</time>
      </trkpt>
      <trkpt lat="49.012817" lon="10.849066">
        <ele>417.963571</ele>
        <time>2026-05-05T11:39:35.416Z</time>
      </trkpt>
      <trkpt lat="49.012964" lon="10.848989">
        <ele>417.505689</ele>
        <time>2026-05-05T11:39:37.977Z</time>
      </trkpt>
      <trkpt lat="49.013100" lon="10.849009">
        <ele>417.103195</ele>
        <time>2026-05-05T11:39:40.246Z</time>
      </trkpt>
      <trkpt lat="49.013106" lon="10.849074">
        <ele>416.976368</ele>
        <time>2026-05-05T11:39:40.968Z</time>
      </trkpt>
      <trkpt lat="49.013310" lon="10.849880">
        <ele>415.823283</ele>
        <time>2026-05-05T11:39:50.707Z</time>
      </trkpt>
      <trkpt lat="49.013908" lon="10.852604">
        <ele>413.139218</ele>
        <time>2026-05-05T11:40:25.760Z</time>
      </trkpt>
      <trkpt lat="49.014116" lon="10.853463">
        <ele>412.687494</ele>
        <time>2026-05-05T11:40:37.709Z</time>
      </trkpt>
      <trkpt lat="49.014122" lon="10.853487">
        <ele>412.674824</ele>
        <time>2026-05-05T11:40:38.052Z</time>
      </trkpt>
      <trkpt lat="49.014328" lon="10.854075">
        <ele>412.345961</ele>
        <time>2026-05-05T11:40:47.032Z</time>
      </trkpt>
      <trkpt lat="49.012314" lon="10.855433">
        <ele>411.718002</ele>
        <time>2026-05-05T11:41:39.427Z</time>
      </trkpt>
      <trkpt lat="49.009858" lon="10.856989">
        <ele>411.826389</ele>
        <time>2026-05-05T11:42:46.536Z</time>
      </trkpt>
      <trkpt lat="49.009162" lon="10.857510">
        <ele>411.809308</ele>
        <time>2026-05-05T11:43:05.199Z</time>
      </trkpt>
      <trkpt lat="49.009074" lon="10.857629">
        <ele>411.786178</ele>
        <time>2026-05-05T11:43:07.980Z</time>
      </trkpt>
      <trkpt lat="49.009044" lon="10.857713">
        <ele>411.772066</ele>
        <time>2026-05-05T11:43:09.464Z</time>
      </trkpt>
      <trkpt lat="49.007922" lon="10.858766">
        <ele>411.475701</ele>
        <time>2026-05-05T11:43:37.496Z</time>
      </trkpt>
      <trkpt lat="49.007819" lon="10.858785">
        <ele>411.452364</ele>
        <time>2026-05-05T11:43:39.739Z</time>
      </trkpt>
      <trkpt lat="49.007493" lon="10.859046">
        <ele>411.408854</ele>
        <time>2026-05-05T11:43:48.647Z</time>
      </trkpt>
      <trkpt lat="49.007050" lon="10.859535">
        <ele>411.424692</ele>
        <time>2026-05-05T11:44:02.066Z</time>
      </trkpt>
      <trkpt lat="49.006618" lon="10.860069">
        <ele>411.440797</ele>
        <time>2026-05-05T11:44:15.894Z</time>
      </trkpt>
      <trkpt lat="49.001755" lon="10.866451">
        <ele>411.896387</ele>
        <time>2026-05-05T11:46:57.582Z</time>
      </trkpt>
      <trkpt lat="49.001614" lon="10.866651">
        <ele>411.843178</ele>
        <time>2026-05-05T11:47:02.072Z</time>
      </trkpt>
      <trkpt lat="49.001598" lon="10.866720">
        <ele>411.829915</ele>
        <time>2026-05-05T11:47:03.173Z</time>
      </trkpt>
      <trkpt lat="49.001621" lon="10.866814">
        <ele>411.811732</ele>
        <time>2026-05-05T11:47:04.698Z</time>
      </trkpt>
      <trkpt lat="49.001751" lon="10.867004">
        <ele>411.761976</ele>
        <time>2026-05-05T11:47:08.828Z</time>
      </trkpt>
      <trkpt lat="49.002448" lon="10.867914">
        <ele>411.520516</ele>
        <time>2026-05-05T11:47:29.782Z</time>
      </trkpt>
      <trkpt lat="49.002460" lon="10.867961">
        <ele>411.516026</ele>
        <time>2026-05-05T11:47:30.539Z</time>
      </trkpt>
      <trkpt lat="49.002426" lon="10.868045">
        <ele>411.507237</ele>
        <time>2026-05-05T11:47:32.046Z</time>
      </trkpt>
      <trkpt lat="48.999456" lon="10.873780">
        <ele>410.862351</ele>
        <time>2026-05-05T11:49:16.696Z</time>
      </trkpt>
      <trkpt lat="48.999268" lon="10.874048">
        <ele>410.828478</ele>
        <time>2026-05-05T11:49:22.346Z</time>
      </trkpt>
      <trkpt lat="48.992515" lon="10.881780">
        <ele>410.273530</ele>
        <time>2026-05-05T11:52:26.691Z</time>
      </trkpt>
      <trkpt lat="48.992437" lon="10.881692">
        <ele>410.296437</ele>
        <time>2026-05-05T11:52:29.029Z</time>
      </trkpt>
      <trkpt lat="48.991512" lon="10.880097">
        <ele>410.797319</ele>
        <time>2026-05-05T11:53:04.195Z</time>
      </trkpt>
      <trkpt lat="48.987372" lon="10.885612">
        <ele>412.847726</ele>
        <time>2026-05-05T11:55:14.696Z</time>
      </trkpt>
      <trkpt lat="48.987162" lon="10.885978">
        <ele>412.878965</ele>
        <time>2026-05-05T11:55:22.079Z</time>
      </trkpt>
      <trkpt lat="48.986707" lon="10.886952">
        <ele>412.819541</ele>
        <time>2026-05-05T11:55:38.926Z</time>
      </trkpt>
      <trkpt lat="48.987929" lon="10.886954">
        <ele>412.077650</ele>
        <time>2026-05-05T11:56:03.257Z</time>
      </trkpt>
      <trkpt lat="48.988598" lon="10.887096">
        <ele>411.731219</ele>
        <time>2026-05-05T11:56:16.803Z</time>
      </trkpt>
      <trkpt lat="48.988562" lon="10.887175">
        <ele>411.706655</ele>
        <time>2026-05-05T11:56:18.105Z</time>
      </trkpt>
      <trkpt lat="48.988523" lon="10.887234">
        <ele>411.685268</ele>
        <time>2026-05-05T11:56:19.233Z</time>
      </trkpt>
      <trkpt lat="48.988513" lon="10.887296">
        <ele>411.668962</ele>
        <time>2026-05-05T11:56:20.077Z</time>
      </trkpt>
      <trkpt lat="48.988450" lon="10.888102">
        <ele>411.461663</ele>
        <time>2026-05-05T11:56:31.273Z</time>
      </trkpt>
      <trkpt lat="48.988442" lon="10.888193">
        <ele>411.438215</ele>
        <time>2026-05-05T11:56:32.526Z</time>
      </trkpt>
      <trkpt lat="48.988436" lon="10.888233">
        <ele>411.427736</ele>
        <time>2026-05-05T11:56:33.085Z</time>
      </trkpt>
      <trkpt lat="48.988312" lon="10.888444">
        <ele>411.355397</ele>
        <time>2026-05-05T11:56:37.051Z</time>
      </trkpt>
      <trkpt lat="48.988169" lon="10.888615">
        <ele>411.284654</ele>
        <time>2026-05-05T11:56:40.968Z</time>
      </trkpt>
      <trkpt lat="48.985219" lon="10.892292">
        <ele>410.534318</ele>
        <time>2026-05-05T11:58:03.042Z</time>
      </trkpt>
      <trkpt lat="48.982023" lon="10.901093">
        <ele>410.672297</ele>
        <time>2026-05-05T12:00:28.127Z</time>
      </trkpt>
      <trkpt lat="48.981777" lon="10.901698">
        <ele>410.896191</ele>
        <time>2026-05-05T12:00:41.773Z</time>
      </trkpt>
      <trkpt lat="48.981684" lon="10.901826">
        <ele>410.956264</ele>
        <time>2026-05-05T12:00:45.562Z</time>
      </trkpt>
      <trkpt lat="48.981161" lon="10.902171">
        <ele>411.273350</ele>
        <time>2026-05-05T12:01:02.892Z</time>
      </trkpt>
      <trkpt lat="48.981026" lon="10.902333">
        <ele>411.373531</ele>
        <time>2026-05-05T12:01:08.088Z</time>
      </trkpt>
      <trkpt lat="48.980780" lon="10.902850">
        <ele>411.617864</ele>
        <time>2026-05-05T12:01:20.282Z</time>
      </trkpt>
      <trkpt lat="48.980488" lon="10.903635">
        <ele>411.963109</ele>
        <time>2026-05-05T12:01:35.829Z</time>
      </trkpt>
      <trkpt lat="48.980278" lon="10.904938">
        <ele>411.300898</ele>
        <time>2026-05-05T12:01:54.696Z</time>
      </trkpt>
      <trkpt lat="48.980279" lon="10.905108">
        <ele>411.175489</ele>
        <time>2026-05-05T12:01:56.988Z</time>
      </trkpt>
      <trkpt lat="48.980593" lon="10.905414">
        <ele>410.756556</ele>
        <time>2026-05-05T12:02:04.617Z</time>
      </trkpt>
      <trkpt lat="48.981163" lon="10.905966">
        <ele>410.036429</ele>
        <time>2026-05-05T12:02:18.730Z</time>
      </trkpt>
      <trkpt lat="48.981297" lon="10.906129">
        <ele>409.978002</ele>
        <time>2026-05-05T12:02:22.421Z</time>
      </trkpt>
      <trkpt lat="48.981854" lon="10.906843">
        <ele>409.729971</ele>
        <time>2026-05-05T12:02:39.404Z</time>
      </trkpt>
      <trkpt lat="48.981954" lon="10.906913">
        <ele>409.692472</ele>
        <time>2026-05-05T12:02:42.093Z</time>
      </trkpt>
      <trkpt lat="48.982017" lon="10.906945">
        <ele>409.669843</ele>
        <time>2026-05-05T12:02:43.583Z</time>
      </trkpt>
      <trkpt lat="48.982033" lon="10.907014">
        <ele>409.653478</ele>
        <time>2026-05-05T12:02:44.656Z</time>
      </trkpt>
      <trkpt lat="48.981888" lon="10.907809">
        <ele>409.468952</ele>
        <time>2026-05-05T12:02:56.964Z</time>
      </trkpt>
      <trkpt lat="48.981679" lon="10.908617">
        <ele>409.586113</ele>
        <time>2026-05-05T12:03:09.996Z</time>
      </trkpt>
      <trkpt lat="48.981616" lon="10.908858">
        <ele>409.637073</ele>
        <time>2026-05-05T12:03:13.904Z</time>
      </trkpt>
      <trkpt lat="48.981539" lon="10.909626">
        <ele>409.789692</ele>
        <time>2026-05-05T12:03:26.030Z</time>
      </trkpt>
      <trkpt lat="48.981547" lon="10.910046">
        <ele>409.872233</ele>
        <time>2026-05-05T12:03:32.695Z</time>
      </trkpt>
      <trkpt lat="48.981576" lon="10.910269">
        <ele>409.916892</ele>
        <time>2026-05-05T12:03:36.173Z</time>
      </trkpt>
      <trkpt lat="48.981666" lon="10.910540">
        <ele>409.976556</ele>
        <time>2026-05-05T12:03:40.845Z</time>
      </trkpt>
      <trkpt lat="48.981778" lon="10.910716">
        <ele>410.008336</ele>
        <time>2026-05-05T12:03:44.654Z</time>
      </trkpt>
      <trkpt lat="48.982092" lon="10.911021">
        <ele>410.079981</ele>
        <time>2026-05-05T12:03:53.553Z</time>
      </trkpt>
      <trkpt lat="48.982148" lon="10.911142">
        <ele>410.098677</ele>
        <time>2026-05-05T12:03:55.890Z</time>
      </trkpt>
      <trkpt lat="48.982198" lon="10.911214">
        <ele>410.111913</ele>
        <time>2026-05-05T12:03:57.547Z</time>
      </trkpt>
      <trkpt lat="48.982277" lon="10.911476">
        <ele>410.148320</ele>
        <time>2026-05-05T12:04:02.056Z</time>
      </trkpt>
      <trkpt lat="48.982482" lon="10.912740">
        <ele>410.312725</ele>
        <time>2026-05-05T12:04:21.307Z</time>
      </trkpt>
      <trkpt lat="48.982465" lon="10.913024">
        <ele>410.330211</ele>
        <time>2026-05-05T12:04:25.265Z</time>
      </trkpt>
      <trkpt lat="48.982409" lon="10.913240">
        <ele>410.336725</ele>
        <time>2026-05-05T12:04:28.603Z</time>
      </trkpt>
      <trkpt lat="48.982172" lon="10.913883">
        <ele>410.357410</ele>
        <time>2026-05-05T12:04:39.109Z</time>
      </trkpt>
      <trkpt lat="48.982105" lon="10.914059">
        <ele>410.363117</ele>
        <time>2026-05-05T12:04:42.013Z</time>
      </trkpt>
      <trkpt lat="48.982052" lon="10.914306">
        <ele>410.370406</ele>
        <time>2026-05-05T12:04:45.715Z</time>
      </trkpt>
      <trkpt lat="48.981986" lon="10.914408">
        <ele>410.374423</ele>
        <time>2026-05-05T12:04:47.762Z</time>
      </trkpt>
      <trkpt lat="48.981939" lon="10.914794">
        <ele>410.385435</ele>
        <time>2026-05-05T12:04:53.497Z</time>
      </trkpt>
      <trkpt lat="48.981946" lon="10.915283">
        <ele>410.399154</ele>
        <time>2026-05-05T12:05:00.758Z</time>
      </trkpt>
      <trkpt lat="48.982085" lon="10.916616">
        <ele>411.063096</ele>
        <time>2026-05-05T12:05:23.020Z</time>
      </trkpt>
      <trkpt lat="48.982032" lon="10.916638">
        <ele>411.107176</ele>
        <time>2026-05-05T12:05:24.466Z</time>
      </trkpt>
      <trkpt lat="48.982155" lon="10.917707">
        <ele>411.678749</ele>
        <time>2026-05-05T12:05:43.871Z</time>
      </trkpt>
      <trkpt lat="48.982369" lon="10.918442">
        <ele>411.759602</ele>
        <time>2026-05-05T12:05:57.094Z</time>
      </trkpt>
      <trkpt lat="48.982415" lon="10.918780">
        <ele>411.699129</ele>
        <time>2026-05-05T12:06:02.489Z</time>
      </trkpt>
      <trkpt lat="48.982406" lon="10.918960">
        <ele>411.667505</ele>
        <time>2026-05-05T12:06:05.207Z</time>
      </trkpt>
      <trkpt lat="48.982323" lon="10.919055">
        <ele>411.639795</ele>
        <time>2026-05-05T12:06:07.525Z</time>
      </trkpt>
      <trkpt lat="48.982216" lon="10.919230">
        <ele>411.597894</ele>
        <time>2026-05-05T12:06:10.961Z</time>
      </trkpt>
      <trkpt lat="48.981978" lon="10.919083">
        <ele>411.529343</ele>
        <time>2026-05-05T12:06:16.256Z</time>
      </trkpt>
      <trkpt lat="48.981274" lon="10.918392">
        <ele>411.138523</ele>
        <time>2026-05-05T12:06:31.976Z</time>
      </trkpt>
      <trkpt lat="48.981130" lon="10.918284">
        <ele>410.974617</ele>
        <time>2026-05-05T12:06:34.921Z</time>
      </trkpt>
      <trkpt lat="48.980735" lon="10.918116">
        <ele>410.555812</ele>
        <time>2026-05-05T12:06:42.588Z</time>
      </trkpt>
      <trkpt lat="48.980503" lon="10.918048">
        <ele>410.314544</ele>
        <time>2026-05-05T12:06:47.084Z</time>
      </trkpt>
      <trkpt lat="48.980156" lon="10.918053">
        <ele>409.960163</ele>
        <time>2026-05-05T12:06:53.808Z</time>
      </trkpt>
      <trkpt lat="48.979217" lon="10.918192">
        <ele>409.333766</ele>
        <time>2026-05-05T12:07:13.024Z</time>
      </trkpt>
      <trkpt lat="48.979152" lon="10.918068">
        <ele>409.294855</ele>
        <time>2026-05-05T12:07:15.499Z</time>
      </trkpt>
      <trkpt lat="48.978136" lon="10.916919">
        <ele>408.843552</ele>
        <time>2026-05-05T12:07:45.420Z</time>
      </trkpt>
      <trkpt lat="48.977706" lon="10.916250">
        <ele>408.758026</ele>
        <time>2026-05-05T12:08:00.037Z</time>
      </trkpt>
      <trkpt lat="48.977336" lon="10.915767">
        <ele>408.690220</ele>
        <time>2026-05-05T12:08:11.818Z</time>
      </trkpt>
      <trkpt lat="48.976313" lon="10.914576">
        <ele>408.656148</ele>
        <time>2026-05-05T12:08:43.515Z</time>
      </trkpt>
      <trkpt lat="48.975291" lon="10.913385">
        <ele>408.809264</ele>
        <time>2026-05-05T12:09:15.905Z</time>
      </trkpt>
      <trkpt lat="48.975200" lon="10.913391">
        <ele>408.847259</ele>
        <time>2026-05-05T12:09:18.290Z</time>
      </trkpt>
      <trkpt lat="48.974826" lon="10.913984">
        <ele>409.072430</ele>
        <time>2026-05-05T12:09:32.685Z</time>
      </trkpt>
      <trkpt lat="48.974400" lon="10.914758">
        <ele>409.349000</ele>
        <time>2026-05-05T12:09:50.442Z</time>
      </trkpt>
      <trkpt lat="48.974181" lon="10.914914">
        <ele>409.449847</ele>
        <time>2026-05-05T12:09:56.938Z</time>
      </trkpt>
      <trkpt lat="48.974115" lon="10.915131">
        <ele>409.483477</ele>
        <time>2026-05-05T12:10:01.142Z</time>
      </trkpt>
      <trkpt lat="48.973893" lon="10.914977">
        <ele>409.463733</ele>
        <time>2026-05-05T12:10:08.604Z</time>
      </trkpt>
      <trkpt lat="48.973861" lon="10.914999">
        <ele>409.460892</ele>
        <time>2026-05-05T12:10:09.662Z</time>
      </trkpt>
      <trkpt lat="48.973799" lon="10.915207">
        <ele>409.448755</ele>
        <time>2026-05-05T12:10:14.124Z</time>
      </trkpt>
      <trkpt lat="48.973780" lon="10.915471">
        <ele>409.434646</ele>
        <time>2026-05-05T12:10:19.198Z</time>
      </trkpt>
      <trkpt lat="48.973804" lon="10.915566">
        <ele>409.429237</ele>
        <time>2026-05-05T12:10:21.111Z</time>
      </trkpt>
      <trkpt lat="48.973661" lon="10.915973">
        <ele>409.404712</ele>
        <time>2026-05-05T12:10:28.259Z</time>
      </trkpt>
      <trkpt lat="48.973564" lon="10.916110">
        <ele>409.394006</ele>
        <time>2026-05-05T12:10:31.320Z</time>
      </trkpt>
      <trkpt lat="48.972909" lon="10.916606">
        <ele>409.401662</ele>
        <time>2026-05-05T12:10:48.466Z</time>
      </trkpt>
      <trkpt lat="48.972580" lon="10.916900">
        <ele>409.620318</ele>
        <time>2026-05-05T12:10:57.788Z</time>
      </trkpt>
      <trkpt lat="48.972022" lon="10.917243">
        <ele>409.965256</ele>
        <time>2026-05-05T12:11:13.635Z</time>
      </trkpt>
      <trkpt lat="48.971963" lon="10.917462">
        <ele>410.054338</ele>
        <time>2026-05-05T12:11:18.073Z</time>
      </trkpt>
      <trkpt lat="48.971424" lon="10.917477">
        <ele>410.363377</ele>
        <time>2026-05-05T12:11:34.245Z</time>
      </trkpt>
      <trkpt lat="48.970577" lon="10.917408">
        <ele>411.258403</ele>
        <time>2026-05-05T12:12:00.053Z</time>
      </trkpt>
      <trkpt lat="48.970351" lon="10.917362">
        <ele>411.501489</ele>
        <time>2026-05-05T12:12:06.770Z</time>
      </trkpt>
      <trkpt lat="48.969931" lon="10.917164">
        <ele>411.970216</ele>
        <time>2026-05-05T12:12:19.368Z</time>
      </trkpt>
      <trkpt lat="48.968990" lon="10.916384">
        <ele>412.558340</ele>
        <time>2026-05-05T12:12:47.568Z</time>
      </trkpt>
      <trkpt lat="48.968702" lon="10.916217">
        <ele>412.665071</ele>
        <time>2026-05-05T12:12:55.362Z</time>
      </trkpt>
      <trkpt lat="48.968269" lon="10.916055">
        <ele>412.819498</ele>
        <time>2026-05-05T12:13:06.752Z</time>
      </trkpt>
      <trkpt lat="48.968077" lon="10.916020">
        <ele>412.886471</ele>
        <time>2026-05-05T12:13:11.748Z</time>
      </trkpt>
      <trkpt lat="48.967648" lon="10.916003">
        <ele>412.869260</ele>
        <time>2026-05-05T12:13:22.944Z</time>
      </trkpt>
      <trkpt lat="48.966674" lon="10.916174">
        <ele>412.741045</ele>
        <time>2026-05-05T12:13:48.832Z</time>
      </trkpt>
      <trkpt lat="48.965720" lon="10.916713">
        <ele>411.833817</ele>
        <time>2026-05-05T12:14:10.189Z</time>
      </trkpt>
      <trkpt lat="48.965689" lon="10.916102">
        <ele>411.211707</ele>
        <time>2026-05-05T12:14:18.045Z</time>
      </trkpt>
      <trkpt lat="48.965666" lon="10.915934">
        <ele>411.037492</ele>
        <time>2026-05-05T12:14:20.246Z</time>
      </trkpt>
      <trkpt lat="48.965584" lon="10.915644">
        <ele>410.716952</ele>
        <time>2026-05-05T12:14:24.278Z</time>
      </trkpt>
      <trkpt lat="48.965580" lon="10.915138">
        <ele>410.203245</ele>
        <time>2026-05-05T12:14:30.751Z</time>
      </trkpt>
      <trkpt lat="48.963772" lon="10.916192">
        <ele>409.452194</ele>
        <time>2026-05-05T12:15:16.602Z</time>
      </trkpt>
      <trkpt lat="48.963661" lon="10.916224">
        <ele>409.458568</ele>
        <time>2026-05-05T12:15:19.551Z</time>
      </trkpt>
      <trkpt lat="48.963522" lon="10.916315">
        <ele>409.520688</ele>
        <time>2026-05-05T12:15:23.523Z</time>
      </trkpt>
      <trkpt lat="48.963485" lon="10.916367">
        <ele>409.541358</ele>
        <time>2026-05-05T12:15:24.855Z</time>
      </trkpt>
      <trkpt lat="48.963451" lon="10.916533">
        <ele>409.588233</ele>
        <time>2026-05-05T12:15:27.887Z</time>
      </trkpt>
      <trkpt lat="48.963422" lon="10.917549">
        <ele>409.862369</ele>
        <time>2026-05-05T12:15:45.221Z</time>
      </trkpt>
      <trkpt lat="48.963381" lon="10.917832">
        <ele>409.940491</ele>
        <time>2026-05-05T12:15:49.854Z</time>
      </trkpt>
      <trkpt lat="48.963293" lon="10.918203">
        <ele>410.046826</ele>
        <time>2026-05-05T12:15:55.804Z</time>
      </trkpt>
      <trkpt lat="48.963203" lon="10.918341">
        <ele>410.099260</ele>
        <time>2026-05-05T12:15:58.620Z</time>
      </trkpt>
      <trkpt lat="48.963119" lon="10.918212">
        <ele>410.148237</ele>
        <time>2026-05-05T12:16:01.184Z</time>
      </trkpt>
      <trkpt lat="48.962923" lon="10.918005">
        <ele>410.117811</ele>
        <time>2026-05-05T12:16:06.226Z</time>
      </trkpt>
      <trkpt lat="48.962572" lon="10.917763">
        <ele>409.989480</ele>
        <time>2026-05-05T12:16:14.166Z</time>
      </trkpt>
      <trkpt lat="48.962386" lon="10.917715">
        <ele>409.926644</ele>
        <time>2026-05-05T12:16:17.983Z</time>
      </trkpt>
      <trkpt lat="48.962326" lon="10.917708">
        <ele>409.906601</ele>
        <time>2026-05-05T12:16:19.193Z</time>
      </trkpt>
      <trkpt lat="48.962244" lon="10.917710">
        <ele>409.879285</ele>
        <time>2026-05-05T12:16:20.845Z</time>
      </trkpt>
      <trkpt lat="48.961403" lon="10.917755">
        <ele>409.598993</ele>
        <time>2026-05-05T12:16:38.400Z</time>
      </trkpt>
      <trkpt lat="48.960737" lon="10.917696">
        <ele>409.704080</ele>
        <time>2026-05-05T12:16:53.363Z</time>
      </trkpt>
      <trkpt lat="48.960421" lon="10.917597">
        <ele>409.772982</ele>
        <time>2026-05-05T12:17:00.726Z</time>
      </trkpt>
      <trkpt lat="48.960203" lon="10.917513">
        <ele>409.821008</ele>
        <time>2026-05-05T12:17:05.924Z</time>
      </trkpt>
      <trkpt lat="48.959492" lon="10.917252">
        <ele>410.010131</ele>
        <time>2026-05-05T12:17:23.667Z</time>
      </trkpt>
      <trkpt lat="48.959240" lon="10.917160">
        <ele>410.173577</ele>
        <time>2026-05-05T12:17:29.969Z</time>
      </trkpt>
      <trkpt lat="48.958959" lon="10.917050">
        <ele>410.356573</ele>
        <time>2026-05-05T12:17:37.024Z</time>
      </trkpt>
      <trkpt lat="48.958916" lon="10.917033">
        <ele>410.384593</ele>
        <time>2026-05-05T12:17:38.128Z</time>
      </trkpt>
      <trkpt lat="48.958684" lon="10.916943">
        <ele>410.535595</ele>
        <time>2026-05-05T12:17:44.101Z</time>
      </trkpt>
      <trkpt lat="48.958254" lon="10.916732">
        <ele>410.820538</ele>
        <time>2026-05-05T12:17:55.925Z</time>
      </trkpt>
      <trkpt lat="48.958152" lon="10.916662">
        <ele>410.891103</ele>
        <time>2026-05-05T12:17:58.921Z</time>
      </trkpt>
      <trkpt lat="48.958073" lon="10.916608">
        <ele>410.945719</ele>
        <time>2026-05-05T12:18:01.236Z</time>
      </trkpt>
      <trkpt lat="48.957982" lon="10.916545">
        <ele>411.008767</ele>
        <time>2026-05-05T12:18:03.880Z</time>
      </trkpt>
      <trkpt lat="48.957825" lon="10.916438">
        <ele>411.089311</ele>
        <time>2026-05-05T12:18:08.066Z</time>
      </trkpt>
      <trkpt lat="48.957695" lon="10.916349">
        <ele>411.067292</ele>
        <time>2026-05-05T12:18:11.251Z</time>
      </trkpt>
      <trkpt lat="48.957646" lon="10.916306">
        <ele>411.058556</ele>
        <time>2026-05-05T12:18:12.403Z</time>
      </trkpt>
      <trkpt lat="48.957589" lon="10.916258">
        <ele>411.048494</ele>
        <time>2026-05-05T12:18:13.743Z</time>
      </trkpt>
      <trkpt lat="48.957774" lon="10.915848">
        <ele>410.998031</ele>
        <time>2026-05-05T12:18:20.581Z</time>
      </trkpt>
      <trkpt lat="48.957848" lon="10.915598">
        <ele>410.970214</ele>
        <time>2026-05-05T12:18:24.399Z</time>
      </trkpt>
      <trkpt lat="48.957892" lon="10.915276">
        <ele>410.936852</ele>
        <time>2026-05-05T12:18:29.024Z</time>
      </trkpt>
      <trkpt lat="48.957909" lon="10.914717">
        <ele>410.880088</ele>
        <time>2026-05-05T12:18:37.067Z</time>
      </trkpt>
      <trkpt lat="48.957907" lon="10.913847">
        <ele>410.866452</ele>
        <time>2026-05-05T12:18:48.772Z</time>
      </trkpt>
      <trkpt lat="48.957903" lon="10.913747">
        <ele>410.886489</ele>
        <time>2026-05-05T12:18:50.066Z</time>
      </trkpt>
      <trkpt lat="48.957859" lon="10.913595">
        <ele>410.919713</ele>
        <time>2026-05-05T12:18:52.251Z</time>
      </trkpt>
      <trkpt lat="48.957895" lon="10.913072">
        <ele>411.024888</ele>
        <time>2026-05-05T12:18:59.744Z</time>
      </trkpt>
      <trkpt lat="48.957907" lon="10.912939">
        <ele>411.051738</ele>
        <time>2026-05-05T12:19:01.869Z</time>
      </trkpt>
      <trkpt lat="48.957914" lon="10.912805">
        <ele>411.078623</ele>
        <time>2026-05-05T12:19:04.013Z</time>
      </trkpt>
      <trkpt lat="48.957927" lon="10.912584">
        <ele>411.123001</ele>
        <time>2026-05-05T12:19:07.617Z</time>
      </trkpt>
      <trkpt lat="48.957877" lon="10.912462">
        <ele>411.151764</ele>
        <time>2026-05-05T12:19:09.966Z</time>
      </trkpt>
      <trkpt lat="48.957879" lon="10.912405">
        <ele>411.163181</ele>
        <time>2026-05-05T12:19:10.922Z</time>
      </trkpt>
      <trkpt lat="48.957417" lon="10.912366">
        <ele>411.304121</ele>
        <time>2026-05-05T12:19:22.725Z</time>
      </trkpt>
      <trkpt lat="48.956736" lon="10.912301">
        <ele>411.695790</ele>
        <time>2026-05-05T12:19:40.101Z</time>
      </trkpt>
      <trkpt lat="48.956555" lon="10.912247">
        <ele>411.822155</ele>
        <time>2026-05-05T12:19:45.962Z</time>
      </trkpt>
      <trkpt lat="48.956487" lon="10.912194">
        <ele>411.874490</ele>
        <time>2026-05-05T12:19:48.222Z</time>
      </trkpt>
      <trkpt lat="48.956451" lon="10.912114">
        <ele>411.918121</ele>
        <time>2026-05-05T12:19:50.419Z</time>
      </trkpt>
      <trkpt lat="48.956487" lon="10.911938">
        <ele>412.001051</ele>
        <time>2026-05-05T12:19:53.481Z</time>
      </trkpt>
      <trkpt lat="48.956512" lon="10.911715">
        <ele>412.102825</ele>
        <time>2026-05-05T12:19:57.433Z</time>
      </trkpt>
      <trkpt lat="48.956510" lon="10.911383">
        <ele>412.252190</ele>
        <time>2026-05-05T12:20:03.215Z</time>
      </trkpt>
      <trkpt lat="48.956446" lon="10.911382">
        <ele>412.296040</ele>
        <time>2026-05-05T12:20:04.679Z</time>
      </trkpt>
      <trkpt lat="48.956510" lon="10.911383">
        <ele>412.339890</ele>
        <time>2026-05-05T12:20:06.452Z</time>
      </trkpt>
      <trkpt lat="48.956512" lon="10.911715">
        <ele>412.489255</ele>
        <time>2026-05-05T12:20:11.948Z</time>
      </trkpt>
      <trkpt lat="48.956487" lon="10.911938">
        <ele>412.591028</ele>
        <time>2026-05-05T12:20:15.800Z</time>
      </trkpt>
      <trkpt lat="48.956451" lon="10.912114">
        <ele>412.707266</ele>
        <time>2026-05-05T12:20:19.006Z</time>
      </trkpt>
      <trkpt lat="48.956431" lon="10.912054">
        <ele>412.750656</ele>
        <time>2026-05-05T12:20:20.276Z</time>
      </trkpt>
      <trkpt lat="48.956379" lon="10.912029">
        <ele>412.804205</ele>
        <time>2026-05-05T12:20:22.028Z</time>
      </trkpt>
      <trkpt lat="48.956285" lon="10.912036">
        <ele>412.896627</ele>
        <time>2026-05-05T12:20:24.992Z</time>
      </trkpt>
      <trkpt lat="48.955913" lon="10.912054">
        <ele>413.262128</ele>
        <time>2026-05-05T12:20:36.560Z</time>
      </trkpt>
      <trkpt lat="48.955824" lon="10.912009">
        <ele>413.354220</ele>
        <time>2026-05-05T12:20:39.392Z</time>
      </trkpt>
      <trkpt lat="48.955752" lon="10.911883">
        <ele>413.461928</ele>
        <time>2026-05-05T12:20:42.806Z</time>
      </trkpt>
      <trkpt lat="48.955699" lon="10.911859">
        <ele>413.516228</ele>
        <time>2026-05-05T12:20:44.526Z</time>
      </trkpt>
      <trkpt lat="48.955416" lon="10.911861">
        <ele>413.794146</ele>
        <time>2026-05-05T12:20:53.867Z</time>
      </trkpt>
      <trkpt lat="48.955431" lon="10.911383">
        <ele>414.102736</ele>
        <time>2026-05-05T12:21:02.351Z</time>
      </trkpt>
      <trkpt lat="48.955413" lon="10.911156">
        <ele>414.250180</ele>
        <time>2026-05-05T12:21:06.692Z</time>
      </trkpt>
      <trkpt lat="48.955370" lon="10.910971">
        <ele>414.392339</ele>
        <time>2026-05-05T12:21:10.698Z</time>
      </trkpt>
      <trkpt lat="48.955333" lon="10.910443">
        <ele>415.136643</ele>
        <time>2026-05-05T12:21:21.397Z</time>
      </trkpt>
      <trkpt lat="48.955288" lon="10.910170">
        <ele>415.531181</ele>
        <time>2026-05-05T12:21:27.048Z</time>
      </trkpt>
      <trkpt lat="48.955227" lon="10.909829">
        <ele>416.026583</ele>
        <time>2026-05-05T12:21:34.323Z</time>
      </trkpt>
      <trkpt lat="48.955220" lon="10.909755">
        <ele>416.131381</ele>
        <time>2026-05-05T12:21:35.796Z</time>
      </trkpt>
      <trkpt lat="48.955194" lon="10.909318">
        <ele>416.746437</ele>
        <time>2026-05-05T12:21:44.718Z</time>
      </trkpt>
      <trkpt lat="48.955216" lon="10.909135">
        <ele>417.007214</ele>
        <time>2026-05-05T12:21:48.538Z</time>
      </trkpt>
      <trkpt lat="48.955239" lon="10.908986">
        <ele>417.221762</ele>
        <time>2026-05-05T12:21:51.703Z</time>
      </trkpt>
      <trkpt lat="48.955328" lon="10.908610">
        <ele>417.782001</ele>
        <time>2026-05-05T12:22:00.262Z</time>
      </trkpt>
      <trkpt lat="48.955320" lon="10.908441">
        <ele>418.019504</ele>
        <time>2026-05-05T12:22:03.953Z</time>
      </trkpt>
      <trkpt lat="48.955228" lon="10.908321">
        <ele>418.265199</ele>
        <time>2026-05-05T12:22:07.910Z</time>
      </trkpt>
      <trkpt lat="48.954931" lon="10.908003">
        <ele>418.907450</ele>
        <time>2026-05-05T12:22:19.280Z</time>
      </trkpt>
      <trkpt lat="48.954845" lon="10.907735">
        <ele>419.253947</ele>
        <time>2026-05-05T12:22:24.661Z</time>
      </trkpt>
      <trkpt lat="48.954825" lon="10.907311">
        <ele>419.747741</ele>
        <time>2026-05-05T12:22:32.087Z</time>
      </trkpt>
      <trkpt lat="48.954816" lon="10.907052">
        <ele>420.049021</ele>
        <time>2026-05-05T12:22:36.653Z</time>
      </trkpt>
      <trkpt lat="48.954798" lon="10.906583">
        <ele>420.594748</ele>
        <time>2026-05-05T12:22:45.303Z</time>
      </trkpt>
      <trkpt lat="48.954815" lon="10.906514">
        <ele>420.680356</ele>
        <time>2026-05-05T12:22:46.701Z</time>
      </trkpt>
      <trkpt lat="48.954915" lon="10.906350">
        <ele>420.940328</ele>
        <time>2026-05-05T12:22:51.129Z</time>
      </trkpt>
      <trkpt lat="48.955043" lon="10.906270">
        <ele>421.185087</ele>
        <time>2026-05-05T12:22:55.384Z</time>
      </trkpt>
      <trkpt lat="48.955182" lon="10.906275">
        <ele>421.443659</ele>
        <time>2026-05-05T12:22:59.607Z</time>
      </trkpt>
      <trkpt lat="48.955200" lon="10.906114">
        <ele>421.684979</ele>
        <time>2026-05-05T12:23:02.863Z</time>
      </trkpt>
      <trkpt lat="48.955253" lon="10.906020">
        <ele>421.868052</ele>
        <time>2026-05-05T12:23:05.360Z</time>
      </trkpt>
      <trkpt lat="48.955224" lon="10.905966">
        <ele>421.971130</ele>
        <time>2026-05-05T12:23:06.737Z</time>
      </trkpt>
      <trkpt lat="48.955154" lon="10.905422">
        <ele>422.790243</ele>
        <time>2026-05-05T12:23:17.829Z</time>
      </trkpt>
      <trkpt lat="48.955115" lon="10.904875">
        <ele>423.603251</ele>
        <time>2026-05-05T12:23:28.954Z</time>
      </trkpt>
      <trkpt lat="48.955129" lon="10.904251">
        <ele>424.525823</ele>
        <time>2026-05-05T12:23:42.502Z</time>
      </trkpt>
      <trkpt lat="48.955289" lon="10.902580">
        <ele>427.993873</ele>
        <time>2026-05-05T12:24:17.335Z</time>
      </trkpt>
      <trkpt lat="48.955421" lon="10.901919">
        <ele>429.639763</ele>
        <time>2026-05-05T12:24:33.586Z</time>
      </trkpt>
      <trkpt lat="48.955647" lon="10.900986">
        <ele>432.043363</ele>
        <time>2026-05-05T12:24:59.264Z</time>
      </trkpt>
      <trkpt lat="48.955876" lon="10.899872">
        <ele>436.692745</ele>
        <time>2026-05-05T12:25:38.016Z</time>
      </trkpt>
      <trkpt lat="48.955963" lon="10.899103">
        <ele>439.800774</ele>
        <time>2026-05-05T12:26:03.710Z</time>
      </trkpt>
      <trkpt lat="48.955972" lon="10.898482">
        <ele>442.274796</ele>
        <time>2026-05-05T12:26:22.774Z</time>
      </trkpt>
      <trkpt lat="48.955949" lon="10.898244">
        <ele>443.022250</ele>
        <time>2026-05-05T12:26:29.522Z</time>
      </trkpt>
      <trkpt lat="48.955920" lon="10.897900">
        <ele>443.607395</ele>
        <time>2026-05-05T12:26:38.632Z</time>
      </trkpt>
      <trkpt lat="48.955869" lon="10.897559">
        <ele>444.197449</ele>
        <time>2026-05-05T12:26:47.191Z</time>
      </trkpt>
      <trkpt lat="48.955849" lon="10.897492">
        <ele>444.321621</ele>
        <time>2026-05-05T12:26:48.855Z</time>
      </trkpt>
      <trkpt lat="48.955806" lon="10.897457">
        <ele>444.446895</ele>
        <time>2026-05-05T12:26:51.468Z</time>
      </trkpt>
      <trkpt lat="48.955443" lon="10.896479">
        <ele>446.342299</ele>
        <time>2026-05-05T12:27:25.171Z</time>
      </trkpt>
      <trkpt lat="48.955102" lon="10.895571">
        <ele>447.439363</ele>
        <time>2026-05-05T12:27:51.982Z</time>
      </trkpt>
      <trkpt lat="48.954726" lon="10.894727">
        <ele>447.301767</ele>
        <time>2026-05-05T12:28:16.490Z</time>
      </trkpt>
      <trkpt lat="48.954390" lon="10.894092">
        <ele>447.191747</ele>
        <time>2026-05-05T12:28:35.083Z</time>
      </trkpt>
      <trkpt lat="48.954288" lon="10.893835">
        <ele>447.151234</ele>
        <time>2026-05-05T12:28:41.661Z</time>
      </trkpt>
      <trkpt lat="48.954247" lon="10.893741">
        <ele>447.136009</ele>
        <time>2026-05-05T12:28:44.308Z</time>
      </trkpt>
      <trkpt lat="48.954136" lon="10.893491">
        <ele>447.282804</ele>
        <time>2026-05-05T12:28:50.982Z</time>
      </trkpt>
      <trkpt lat="48.953897" lon="10.893121">
        <ele>447.760421</ele>
        <time>2026-05-05T12:29:02.734Z</time>
      </trkpt>
      <trkpt lat="48.953066" lon="10.892238">
        <ele>449.180464</ele>
        <time>2026-05-05T12:29:46.780Z</time>
      </trkpt>
      <trkpt lat="48.952840" lon="10.892049">
        <ele>449.541798</ele>
        <time>2026-05-05T12:29:59.523Z</time>
      </trkpt>
      <trkpt lat="48.952449" lon="10.891866">
        <ele>450.943613</ele>
        <time>2026-05-05T12:30:20.961Z</time>
      </trkpt>
      <trkpt lat="48.951730" lon="10.891620">
        <ele>453.777237</ele>
        <time>2026-05-05T12:31:02.132Z</time>
      </trkpt>
      <trkpt lat="48.951510" lon="10.891344">
        <ele>454.873294</ele>
        <time>2026-05-05T12:31:17.750Z</time>
      </trkpt>
      <trkpt lat="48.951290" lon="10.890916">
        <ele>456.245760</ele>
        <time>2026-05-05T12:31:36.726Z</time>
      </trkpt>
      <trkpt lat="48.950333" lon="10.888221">
        <ele>460.741344</ele>
        <time>2026-05-05T12:33:07.759Z</time>
      </trkpt>
      <trkpt lat="48.950244" lon="10.887905">
        <ele>461.249052</ele>
        <time>2026-05-05T12:33:17.119Z</time>
      </trkpt>
      <trkpt lat="48.950173" lon="10.887381">
        <ele>462.039091</ele>
        <time>2026-05-05T12:33:31.200Z</time>
      </trkpt>
      <trkpt lat="48.950023" lon="10.886703">
        <ele>463.095516</ele>
        <time>2026-05-05T12:33:51.273Z</time>
      </trkpt>
      <trkpt lat="48.949847" lon="10.886302">
        <ele>463.807705</ele>
        <time>2026-05-05T12:34:06.456Z</time>
      </trkpt>
      <trkpt lat="48.949698" lon="10.886067">
        <ele>464.290046</ele>
        <time>2026-05-05T12:34:17.469Z</time>
      </trkpt>
      <trkpt lat="48.949410" lon="10.885526">
        <ele>466.434864</ele>
        <time>2026-05-05T12:34:43.087Z</time>
      </trkpt>
      <trkpt lat="48.949246" lon="10.884987">
        <ele>468.490368</ele>
        <time>2026-05-05T12:35:06.528Z</time>
      </trkpt>
      <trkpt lat="48.949067" lon="10.883805">
        <ele>472.687687</ele>
        <time>2026-05-05T12:35:56.822Z</time>
      </trkpt>
      <trkpt lat="48.949089" lon="10.882272">
        <ele>475.716847</ele>
        <time>2026-05-05T12:36:51.318Z</time>
      </trkpt>
      <trkpt lat="48.949068" lon="10.881508">
        <ele>476.867800</ele>
        <time>2026-05-05T12:37:12.834Z</time>
      </trkpt>
      <trkpt lat="48.948624" lon="10.878757">
        <ele>479.181218</ele>
        <time>2026-05-05T12:38:21.003Z</time>
      </trkpt>
      <trkpt lat="48.948181" lon="10.875786">
        <ele>483.340718</ele>
        <time>2026-05-05T12:39:59.145Z</time>
      </trkpt>
      <trkpt lat="48.948070" lon="10.873889">
        <ele>484.411843</ele>
        <time>2026-05-05T12:40:49.632Z</time>
      </trkpt>
      <trkpt lat="48.947841" lon="10.872098">
        <ele>484.800369</ele>
        <time>2026-05-05T12:41:31.921Z</time>
      </trkpt>
      <trkpt lat="48.947523" lon="10.870069">
        <ele>484.969364</ele>
        <time>2026-05-05T12:42:24.976Z</time>
      </trkpt>
      <trkpt lat="48.947442" lon="10.869217">
        <ele>484.838334</ele>
        <time>2026-05-05T12:42:46.419Z</time>
      </trkpt>
      <trkpt lat="48.947495" lon="10.869031">
        <ele>484.803288</ele>
        <time>2026-05-05T12:42:49.421Z</time>
      </trkpt>
      <trkpt lat="48.947584" lon="10.868342">
        <ele>484.681913</ele>
        <time>2026-05-05T12:42:59.423Z</time>
      </trkpt>
      <trkpt lat="48.947729" lon="10.867821">
        <ele>484.584106</ele>
        <time>2026-05-05T12:43:07.207Z</time>
      </trkpt>
      <trkpt lat="48.948052" lon="10.866983">
        <ele>484.600934</ele>
        <time>2026-05-05T12:43:20.481Z</time>
      </trkpt>
      <trkpt lat="48.948393" lon="10.865866">
        <ele>484.848176</ele>
        <time>2026-05-05T12:43:39.239Z</time>
      </trkpt>
      <trkpt lat="48.948594" lon="10.865389">
        <ele>484.961932</ele>
        <time>2026-05-05T12:43:49.172Z</time>
      </trkpt>
      <trkpt lat="48.948837" lon="10.864987">
        <ele>485.145773</ele>
        <time>2026-05-05T12:43:59.414Z</time>
      </trkpt>
      <trkpt lat="48.949229" lon="10.864541">
        <ele>485.843764</ele>
        <time>2026-05-05T12:44:13.874Z</time>
      </trkpt>
      <trkpt lat="48.949262" lon="10.864500">
        <ele>485.904516</ele>
        <time>2026-05-05T12:44:15.146Z</time>
      </trkpt>
      <trkpt lat="48.949697" lon="10.863947">
        <ele>486.712809</ele>
        <time>2026-05-05T12:44:31.954Z</time>
      </trkpt>
      <trkpt lat="48.950023" lon="10.863404">
        <ele>487.401976</ele>
        <time>2026-05-05T12:44:45.707Z</time>
      </trkpt>
      <trkpt lat="48.950287" lon="10.862885">
        <ele>488.156627</ele>
        <time>2026-05-05T12:44:57.893Z</time>
      </trkpt>
      <trkpt lat="48.950416" lon="10.862566">
        <ele>488.630123</ele>
        <time>2026-05-05T12:45:04.892Z</time>
      </trkpt>
      <trkpt lat="48.950480" lon="10.862245">
        <ele>489.054122</ele>
        <time>2026-05-05T12:45:11.207Z</time>
      </trkpt>
      <trkpt lat="48.950570" lon="10.861293">
        <ele>490.269759</ele>
        <time>2026-05-05T12:45:30.396Z</time>
      </trkpt>
      <trkpt lat="48.950695" lon="10.860051">
        <ele>492.392896</ele>
        <time>2026-05-05T12:45:58.756Z</time>
      </trkpt>
      <trkpt lat="48.950846" lon="10.858603">
        <ele>495.518271</ele>
        <time>2026-05-05T12:46:34.887Z</time>
      </trkpt>
      <trkpt lat="48.950904" lon="10.858044">
        <ele>496.724669</ele>
        <time>2026-05-05T12:46:48.793Z</time>
      </trkpt>
      <trkpt lat="48.950966" lon="10.857248">
        <ele>498.363942</ele>
        <time>2026-05-05T12:47:07.524Z</time>
      </trkpt>
      <trkpt lat="48.951040" lon="10.856132">
        <ele>500.645493</ele>
        <time>2026-05-05T12:47:33.287Z</time>
      </trkpt>
      <trkpt lat="48.951097" lon="10.855654">
        <ele>501.633671</ele>
        <time>2026-05-05T12:47:44.281Z</time>
      </trkpt>
      <trkpt lat="48.951386" lon="10.853715">
        <ele>506.599640</ele>
        <time>2026-05-05T12:48:31.866Z</time>
      </trkpt>
      <trkpt lat="48.951506" lon="10.853386">
        <ele>507.586304</ele>
        <time>2026-05-05T12:48:42.211Z</time>
      </trkpt>
      <trkpt lat="48.951666" lon="10.853211">
        <ele>508.372766</ele>
        <time>2026-05-05T12:48:50.607Z</time>
      </trkpt>
      <trkpt lat="48.951818" lon="10.853132">
        <ele>509.013966</ele>
        <time>2026-05-05T12:48:57.621Z</time>
      </trkpt>
      <trkpt lat="48.953069" lon="10.853364">
        <ele>514.550228</ele>
        <time>2026-05-05T12:49:52.457Z</time>
      </trkpt>
      <trkpt lat="48.953115" lon="10.853445">
        <ele>514.863372</ele>
        <time>2026-05-05T12:49:55.251Z</time>
      </trkpt>
      <trkpt lat="48.953528" lon="10.853904">
        <ele>517.140140</ele>
        <time>2026-05-05T12:50:14.491Z</time>
      </trkpt>
      <trkpt lat="48.953812" lon="10.854159">
        <ele>518.313865</ele>
        <time>2026-05-05T12:50:26.091Z</time>
      </trkpt>
      <trkpt lat="48.953942" lon="10.853879">
        <ele>518.999224</ele>
        <time>2026-05-05T12:50:33.669Z</time>
      </trkpt>
      <trkpt lat="48.953987" lon="10.853722">
        <ele>519.341595</ele>
        <time>2026-05-05T12:50:37.302Z</time>
      </trkpt>
      <trkpt lat="48.953995" lon="10.852660">
        <ele>521.464260</ele>
        <time>2026-05-05T12:50:59.791Z</time>
      </trkpt>
      <trkpt lat="48.953962" lon="10.851766">
        <ele>523.294053</ele>
        <time>2026-05-05T12:51:20.533Z</time>
      </trkpt>
      <trkpt lat="48.954026" lon="10.851370">
        <ele>524.432452</ele>
        <time>2026-05-05T12:51:30.220Z</time>
      </trkpt>
      <trkpt lat="48.954391" lon="10.849444">
        <ele>530.028171</ele>
        <time>2026-05-05T12:52:21.100Z</time>
      </trkpt>
      <trkpt lat="48.954835" lon="10.847965">
        <ele>537.192045</ele>
        <time>2026-05-05T12:53:10.927Z</time>
      </trkpt>
      <trkpt lat="48.955027" lon="10.847212">
        <ele>541.016823</ele>
        <time>2026-05-05T12:53:40.827Z</time>
      </trkpt>
      <trkpt lat="48.955032" lon="10.846629">
        <ele>543.776737</ele>
        <time>2026-05-05T12:54:03.045Z</time>
      </trkpt>
      <trkpt lat="48.955116" lon="10.845882">
        <ele>547.069176</ele>
        <time>2026-05-05T12:54:31.222Z</time>
      </trkpt>
      <trkpt lat="48.955204" lon="10.845339">
        <ele>549.498914</ele>
        <time>2026-05-05T12:54:50.735Z</time>
      </trkpt>
      <trkpt lat="48.955203" lon="10.844670">
        <ele>552.405258</ele>
        <time>2026-05-05T12:55:10.540Z</time>
      </trkpt>
      <trkpt lat="48.955143" lon="10.844193">
        <ele>554.515166</ele>
        <time>2026-05-05T12:55:23.509Z</time>
      </trkpt>
      <trkpt lat="48.955022" lon="10.843620">
        <ele>556.847469</ele>
        <time>2026-05-05T12:55:39.374Z</time>
      </trkpt>
      <trkpt lat="48.954994" lon="10.843192">
        <ele>558.355051</ele>
        <time>2026-05-05T12:55:51.062Z</time>
      </trkpt>
      <trkpt lat="48.955005" lon="10.842821">
        <ele>559.656744</ele>
        <time>2026-05-05T12:56:01.631Z</time>
      </trkpt>
      <trkpt lat="48.955124" lon="10.841799">
        <ele>563.294768</ele>
        <time>2026-05-05T12:56:32.793Z</time>
      </trkpt>
      <trkpt lat="48.955122" lon="10.841292">
        <ele>565.071849</ele>
        <time>2026-05-05T12:56:48.170Z</time>
      </trkpt>
      <trkpt lat="48.955067" lon="10.840772">
        <ele>566.356065</ele>
        <time>2026-05-05T12:57:03.410Z</time>
      </trkpt>
      <trkpt lat="48.954973" lon="10.840318">
        <ele>567.456294</ele>
        <time>2026-05-05T12:57:16.006Z</time>
      </trkpt>
      <trkpt lat="48.954521" lon="10.838642">
        <ele>571.626864</ele>
        <time>2026-05-05T12:57:54.957Z</time>
      </trkpt>
      <trkpt lat="48.954400" lon="10.837978">
        <ele>572.614916</ele>
        <time>2026-05-05T12:58:09.107Z</time>
      </trkpt>
      <trkpt lat="48.954384" lon="10.837558">
        <ele>573.218143</ele>
        <time>2026-05-05T12:58:18.040Z</time>
      </trkpt>
      <trkpt lat="48.954382" lon="10.837011">
        <ele>574.002469</ele>
        <time>2026-05-05T12:58:29.929Z</time>
      </trkpt>
      <trkpt lat="48.954432" lon="10.836588">
        <ele>574.618733</ele>
        <time>2026-05-05T12:58:39.197Z</time>
      </trkpt>
      <trkpt lat="48.954615" lon="10.835550">
        <ele>575.288015</ele>
        <time>2026-05-05T12:58:59.524Z</time>
      </trkpt>
      <trkpt lat="48.954665" lon="10.835081">
        <ele>575.031617</ele>
        <time>2026-05-05T12:59:06.571Z</time>
      </trkpt>
      <trkpt lat="48.954799" lon="10.833104">
        <ele>574.210876</ele>
        <time>2026-05-05T12:59:29.362Z</time>
      </trkpt>
      <trkpt lat="48.954781" lon="10.832839">
        <ele>574.472922</ele>
        <time>2026-05-05T12:59:32.507Z</time>
      </trkpt>
      <trkpt lat="48.954656" lon="10.832026">
        <ele>575.294224</ele>
        <time>2026-05-05T12:59:44.248Z</time>
      </trkpt>
      <trkpt lat="48.954635" lon="10.831969">
        <ele>575.358511</ele>
        <time>2026-05-05T12:59:45.395Z</time>
      </trkpt>
      <trkpt lat="48.954370" lon="10.831177">
        <ele>576.232834</ele>
        <time>2026-05-05T13:00:04.188Z</time>
      </trkpt>
      <trkpt lat="48.954245" lon="10.830741">
        <ele>576.700783</ele>
        <time>2026-05-05T13:00:16.739Z</time>
      </trkpt>
      <trkpt lat="48.954226" lon="10.830591">
        <ele>577.142754</ele>
        <time>2026-05-05T13:00:21.138Z</time>
      </trkpt>
      <trkpt lat="48.954029" lon="10.828352">
        <ele>585.336292</ele>
        <time>2026-05-05T13:01:31.189Z</time>
      </trkpt>
      <trkpt lat="48.953910" lon="10.826801">
        <ele>589.472791</ele>
        <time>2026-05-05T13:02:12.263Z</time>
      </trkpt>
      <trkpt lat="48.953892" lon="10.826427">
        <ele>590.352389</ele>
        <time>2026-05-05T13:02:20.537Z</time>
      </trkpt>
      <trkpt lat="48.953963" lon="10.825908">
        <ele>591.595877</ele>
        <time>2026-05-05T13:02:31.761Z</time>
      </trkpt>
      <trkpt lat="48.954479" lon="10.825257">
        <ele>594.207720</ele>
        <time>2026-05-05T13:02:52.824Z</time>
      </trkpt>
      <trkpt lat="48.954965" lon="10.824830">
        <ele>596.705026</ele>
        <time>2026-05-05T13:03:13.560Z</time>
      </trkpt>
      <trkpt lat="48.955974" lon="10.824450">
        <ele>601.294309</ele>
        <time>2026-05-05T13:04:00.228Z</time>
      </trkpt>
      <trkpt lat="48.956395" lon="10.824184">
        <ele>602.988373</ele>
        <time>2026-05-05T13:04:20.689Z</time>
      </trkpt>
      <trkpt lat="48.956788" lon="10.823779">
        <ele>604.752039</ele>
        <time>2026-05-05T13:04:40.237Z</time>
      </trkpt>
      <trkpt lat="48.958426" lon="10.821706">
        <ele>608.327270</ele>
        <time>2026-05-05T13:05:43.309Z</time>
      </trkpt>
      <trkpt lat="48.957684" lon="10.820277">
        <ele>605.412785</ele>
        <time>2026-05-05T13:06:03.094Z</time>
      </trkpt>
      <trkpt lat="48.957272" lon="10.819368">
        <ele>602.229739</ele>
        <time>2026-05-05T13:06:13.951Z</time>
      </trkpt>
      <trkpt lat="48.957064" lon="10.818664">
        <ele>599.812647</ele>
        <time>2026-05-05T13:06:21.414Z</time>
      </trkpt>
      <trkpt lat="48.956853" lon="10.817769">
        <ele>596.231146</ele>
        <time>2026-05-05T13:06:30.540Z</time>
      </trkpt>
      <trkpt lat="48.956664" lon="10.817210">
        <ele>593.863079</ele>
        <time>2026-05-05T13:06:36.587Z</time>
      </trkpt>
      <trkpt lat="48.956162" lon="10.816215">
        <ele>589.520782</ele>
        <time>2026-05-05T13:06:48.834Z</time>
      </trkpt>
      <trkpt lat="48.955897" lon="10.815728">
        <ele>587.914433</ele>
        <time>2026-05-05T13:06:55.178Z</time>
      </trkpt>
      <trkpt lat="48.955186" lon="10.814255">
        <ele>583.326118</ele>
        <time>2026-05-05T13:07:14.464Z</time>
      </trkpt>
      <trkpt lat="48.954887" lon="10.813696">
        <ele>582.647642</ele>
        <time>2026-05-05T13:07:22.904Z</time>
      </trkpt>
      <trkpt lat="48.954343" lon="10.812698">
        <ele>581.427060</ele>
        <time>2026-05-05T13:07:39.135Z</time>
      </trkpt>
      <trkpt lat="48.953874" lon="10.811792">
        <ele>580.134729</ele>
        <time>2026-05-05T13:07:54.323Z</time>
      </trkpt>
      <trkpt lat="48.953722" lon="10.811239">
        <ele>579.305186</ele>
        <time>2026-05-05T13:08:01.998Z</time>
      </trkpt>
      <trkpt lat="48.953554" lon="10.810275">
        <ele>577.925072</ele>
        <time>2026-05-05T13:08:13.617Z</time>
      </trkpt>
      <trkpt lat="48.953522" lon="10.809621">
        <ele>577.017588</ele>
        <time>2026-05-05T13:08:20.669Z</time>
      </trkpt>
      <trkpt lat="48.953359" lon="10.806729">
        <ele>566.802429</ele>
        <time>2026-05-05T13:08:49.135Z</time>
      </trkpt>
      <trkpt lat="48.953278" lon="10.806113">
        <ele>563.711726</ele>
        <time>2026-05-05T13:08:54.988Z</time>
      </trkpt>
      <trkpt lat="48.953179" lon="10.805650">
        <ele>561.316184</ele>
        <time>2026-05-05T13:08:59.455Z</time>
      </trkpt>
      <trkpt lat="48.952451" lon="10.802581">
        <ele>549.473518</ele>
        <time>2026-05-05T13:09:29.552Z</time>
      </trkpt>
      <trkpt lat="48.952597" lon="10.802495">
        <ele>548.863624</ele>
        <time>2026-05-05T13:09:32.639Z</time>
      </trkpt>
      <trkpt lat="48.952856" lon="10.802496">
        <ele>547.854545</ele>
        <time>2026-05-05T13:09:39.592Z</time>
      </trkpt>
      <trkpt lat="48.953081" lon="10.802582">
        <ele>547.151776</ele>
        <time>2026-05-05T13:09:47.983Z</time>
      </trkpt>
      <trkpt lat="48.953430" lon="10.802784">
        <ele>549.459212</ele>
        <time>2026-05-05T13:10:05.732Z</time>
      </trkpt>
      <trkpt lat="48.953797" lon="10.802865">
        <ele>551.751049</ele>
        <time>2026-05-05T13:10:26.800Z</time>
      </trkpt>
      <trkpt lat="48.954463" lon="10.802681">
        <ele>555.934260</ele>
        <time>2026-05-05T13:11:04.060Z</time>
      </trkpt>
      <trkpt lat="48.956597" lon="10.801686">
        <ele>566.171817</ele>
        <time>2026-05-05T13:12:34.374Z</time>
      </trkpt>
      <trkpt lat="48.957579" lon="10.801072">
        <ele>568.254184</ele>
        <time>2026-05-05T13:13:03.407Z</time>
      </trkpt>
      <trkpt lat="48.958196" lon="10.800593">
        <ele>569.625057</ele>
        <time>2026-05-05T13:13:22.670Z</time>
      </trkpt>
      <trkpt lat="48.959609" lon="10.799631">
        <ele>573.279223</ele>
        <time>2026-05-05T13:14:14.504Z</time>
      </trkpt>
      <trkpt lat="48.961237" lon="10.798744">
        <ele>575.784185</ele>
        <time>2026-05-05T13:15:02.255Z</time>
      </trkpt>
      <trkpt lat="48.962786" lon="10.797724">
        <ele>577.323979</ele>
        <time>2026-05-05T13:15:45.038Z</time>
      </trkpt>
      <trkpt lat="48.963366" lon="10.797481">
        <ele>577.587994</ele>
        <time>2026-05-05T13:16:00.724Z</time>
      </trkpt>
      <trkpt lat="48.963757" lon="10.797432">
        <ele>577.455098</ele>
        <time>2026-05-05T13:16:10.687Z</time>
      </trkpt>
      <trkpt lat="48.964125" lon="10.796007">
        <ele>577.114548</ele>
        <time>2026-05-05T13:16:31.939Z</time>
      </trkpt>
      <trkpt lat="48.964162" lon="10.795774">
        <ele>577.061236</ele>
        <time>2026-05-05T13:16:34.717Z</time>
      </trkpt>
      <trkpt lat="48.964159" lon="10.795445">
        <ele>576.425292</ele>
        <time>2026-05-05T13:16:38.413Z</time>
      </trkpt>
      <trkpt lat="48.964114" lon="10.795198">
        <ele>575.821876</ele>
        <time>2026-05-05T13:16:41.219Z</time>
      </trkpt>
      <trkpt lat="48.964078" lon="10.795090">
        <ele>575.536751</ele>
        <time>2026-05-05T13:16:42.513Z</time>
      </trkpt>
      <trkpt lat="48.963967" lon="10.794909">
        <ele>574.953704</ele>
        <time>2026-05-05T13:16:45.143Z</time>
      </trkpt>
      <trkpt lat="48.963821" lon="10.794736">
        <ele>574.290461</ele>
        <time>2026-05-05T13:16:48.099Z</time>
      </trkpt>
      <trkpt lat="48.963548" lon="10.794552">
        <ele>573.220055</ele>
        <time>2026-05-05T13:16:52.744Z</time>
      </trkpt>
      <trkpt lat="48.963014" lon="10.794258">
        <ele>571.184129</ele>
        <time>2026-05-05T13:17:01.413Z</time>
      </trkpt>
      <trkpt lat="48.962471" lon="10.794009">
        <ele>569.184451</ele>
        <time>2026-05-05T13:17:10.163Z</time>
      </trkpt>
      <trkpt lat="48.960969" lon="10.793411">
        <ele>564.201554</ele>
        <time>2026-05-05T13:17:35.250Z</time>
      </trkpt>
      <trkpt lat="48.960682" lon="10.793223">
        <ele>564.009442</ele>
        <time>2026-05-05T13:17:40.880Z</time>
      </trkpt>
      <trkpt lat="48.960412" lon="10.792952">
        <ele>563.810604</ele>
        <time>2026-05-05T13:17:47.137Z</time>
      </trkpt>
      <trkpt lat="48.960215" lon="10.792705">
        <ele>563.653697</ele>
        <time>2026-05-05T13:17:52.479Z</time>
      </trkpt>
      <trkpt lat="48.959870" lon="10.792147">
        <ele>563.344242</ele>
        <time>2026-05-05T13:18:04.526Z</time>
      </trkpt>
      <trkpt lat="48.960150" lon="10.790641">
        <ele>564.441017</ele>
        <time>2026-05-05T13:18:33.133Z</time>
      </trkpt>
      <trkpt lat="48.960289" lon="10.790069">
        <ele>565.081660</ele>
        <time>2026-05-05T13:18:44.725Z</time>
      </trkpt>
      <trkpt lat="48.960576" lon="10.789133">
        <ele>566.288730</ele>
        <time>2026-05-05T13:19:04.482Z</time>
      </trkpt>
      <trkpt lat="48.960983" lon="10.787942">
        <ele>569.471798</ele>
        <time>2026-05-05T13:19:32.743Z</time>
      </trkpt>
      <trkpt lat="48.961091" lon="10.787580">
        <ele>570.414436</ele>
        <time>2026-05-05T13:19:42.493Z</time>
      </trkpt>
      <trkpt lat="48.961133" lon="10.787355">
        <ele>570.968983</ele>
        <time>2026-05-05T13:19:48.575Z</time>
      </trkpt>
      <trkpt lat="48.961119" lon="10.787162">
        <ele>571.429312</ele>
        <time>2026-05-05T13:19:53.821Z</time>
      </trkpt>
      <trkpt lat="48.961064" lon="10.786902">
        <ele>572.076897</ele>
        <time>2026-05-05T13:20:01.436Z</time>
      </trkpt>
      <trkpt lat="48.960234" lon="10.784862">
        <ele>581.110024</ele>
        <time>2026-05-05T13:21:18.744Z</time>
      </trkpt>
      <trkpt lat="48.959901" lon="10.783934">
        <ele>583.979992</ele>
        <time>2026-05-05T13:21:48.311Z</time>
      </trkpt>
      <trkpt lat="48.957431" lon="10.784273">
        <ele>587.068049</ele>
        <time>2026-05-05T13:23:02.164Z</time>
      </trkpt>
      <trkpt lat="48.957439" lon="10.782674">
        <ele>586.175625</ele>
        <time>2026-05-05T13:23:23.295Z</time>
      </trkpt>
      <trkpt lat="48.957545" lon="10.780946">
        <ele>582.916205</ele>
        <time>2026-05-05T13:23:44.498Z</time>
      </trkpt>
      <trkpt lat="48.957503" lon="10.778811">
        <ele>577.846866</ele>
        <time>2026-05-05T13:24:09.963Z</time>
      </trkpt>
      <trkpt lat="48.957467" lon="10.778401">
        <ele>576.786268</ele>
        <time>2026-05-05T13:24:14.721Z</time>
      </trkpt>
      <trkpt lat="48.957168" lon="10.776460">
        <ele>571.535641</ele>
        <time>2026-05-05T13:24:37.509Z</time>
      </trkpt>
      <trkpt lat="48.957117" lon="10.774919">
        <ele>567.392324</ele>
        <time>2026-05-05T13:24:55.853Z</time>
      </trkpt>
      <trkpt lat="48.957236" lon="10.773624">
        <ele>562.936396</ele>
        <time>2026-05-05T13:25:10.801Z</time>
      </trkpt>
      <trkpt lat="48.957336" lon="10.772822">
        <ele>560.154617</ele>
        <time>2026-05-05T13:25:19.707Z</time>
      </trkpt>
      <trkpt lat="48.957385" lon="10.772723">
        <ele>559.732154</ele>
        <time>2026-05-05T13:25:21.041Z</time>
      </trkpt>
      <trkpt lat="48.957444" lon="10.772692">
        <ele>559.408252</ele>
        <time>2026-05-05T13:25:22.074Z</time>
      </trkpt>
      <trkpt lat="48.957664" lon="10.772796">
        <ele>558.212785</ele>
        <time>2026-05-05T13:25:25.841Z</time>
      </trkpt>
      <trkpt lat="48.957740" lon="10.772791">
        <ele>557.801207</ele>
        <time>2026-05-05T13:25:27.073Z</time>
      </trkpt>
      <trkpt lat="48.957792" lon="10.772742">
        <ele>557.465349</ele>
        <time>2026-05-05T13:25:28.065Z</time>
      </trkpt>
      <trkpt lat="48.957822" lon="10.772643">
        <ele>557.072124</ele>
        <time>2026-05-05T13:25:29.232Z</time>
      </trkpt>
      <trkpt lat="48.958115" lon="10.770926">
        <ele>550.674195</ele>
        <time>2026-05-05T13:25:48.686Z</time>
      </trkpt>
      <trkpt lat="48.958213" lon="10.770113">
        <ele>547.876114</ele>
        <time>2026-05-05T13:25:58.170Z</time>
      </trkpt>
      <trkpt lat="48.958278" lon="10.768843">
        <ele>544.856766</ele>
        <time>2026-05-05T13:26:12.870Z</time>
      </trkpt>
      <trkpt lat="48.958263" lon="10.768593">
        <ele>544.261736</ele>
        <time>2026-05-05T13:26:15.817Z</time>
      </trkpt>
      <trkpt lat="48.958191" lon="10.768285">
        <ele>543.486812</ele>
        <time>2026-05-05T13:26:19.691Z</time>
      </trkpt>
      <trkpt lat="48.958030" lon="10.767852">
        <ele>542.307360</ele>
        <time>2026-05-05T13:26:25.728Z</time>
      </trkpt>
      <trkpt lat="48.957620" lon="10.767070">
        <ele>542.376041</ele>
        <time>2026-05-05T13:26:38.924Z</time>
      </trkpt>
      <trkpt lat="48.957582" lon="10.766943">
        <ele>542.494114</ele>
        <time>2026-05-05T13:26:41.150Z</time>
      </trkpt>
      <trkpt lat="48.957612" lon="10.766806">
        <ele>542.616292</ele>
        <time>2026-05-05T13:26:43.701Z</time>
      </trkpt>
      <trkpt lat="48.957957" lon="10.766156">
        <ele>543.323387</ele>
        <time>2026-05-05T13:27:01.167Z</time>
      </trkpt>
      <trkpt lat="48.958285" lon="10.765346">
        <ele>544.331273</ele>
        <time>2026-05-05T13:27:26.328Z</time>
      </trkpt>
      <trkpt lat="48.958523" lon="10.764234">
        <ele>547.927088</ele>
        <time>2026-05-05T13:28:01.877Z</time>
      </trkpt>
      <trkpt lat="48.958831" lon="10.762966">
        <ele>552.083657</ele>
        <time>2026-05-05T13:28:41.496Z</time>
      </trkpt>
      <trkpt lat="48.958962" lon="10.763020">
        <ele>552.583138</ele>
        <time>2026-05-05T13:28:46.625Z</time>
      </trkpt>
      <trkpt lat="48.959011" lon="10.762756">
        <ele>552.960015</ele>
        <time>2026-05-05T13:28:53.637Z</time>
      </trkpt>
      <trkpt lat="48.959086" lon="10.761832">
        <ele>554.239008</ele>
        <time>2026-05-05T13:29:15.810Z</time>
      </trkpt>
      <trkpt lat="48.959194" lon="10.760105">
        <ele>555.955607</ele>
        <time>2026-05-05T13:29:49.139Z</time>
      </trkpt>
      <trkpt lat="48.959191" lon="10.759289">
        <ele>555.139566</ele>
        <time>2026-05-05T13:30:01.403Z</time>
      </trkpt>
      <trkpt lat="48.958926" lon="10.758115">
        <ele>553.898083</ele>
        <time>2026-05-05T13:30:17.685Z</time>
      </trkpt>
      <trkpt lat="48.958940" lon="10.757729">
        <ele>553.511479</ele>
        <time>2026-05-05T13:30:22.324Z</time>
      </trkpt>
      <trkpt lat="48.958982" lon="10.757440">
        <ele>552.437406</ele>
        <time>2026-05-05T13:30:25.740Z</time>
      </trkpt>
      <trkpt lat="48.959054" lon="10.757167">
        <ele>551.330034</ele>
        <time>2026-05-05T13:30:29.074Z</time>
      </trkpt>
      <trkpt lat="48.959182" lon="10.756952">
        <ele>550.237639</ele>
        <time>2026-05-05T13:30:32.317Z</time>
      </trkpt>
      <trkpt lat="48.959402" lon="10.756782">
        <ele>548.823426</ele>
        <time>2026-05-05T13:30:36.420Z</time>
      </trkpt>
      <trkpt lat="48.959500" lon="10.756640">
        <ele>548.047998</ele>
        <time>2026-05-05T13:30:38.650Z</time>
      </trkpt>
      <trkpt lat="48.959539" lon="10.756478">
        <ele>547.398539</ele>
        <time>2026-05-05T13:30:40.504Z</time>
      </trkpt>
      <trkpt lat="48.959513" lon="10.756009">
        <ele>545.626953</ele>
        <time>2026-05-05T13:30:45.506Z</time>
      </trkpt>
      <trkpt lat="48.959577" lon="10.755073">
        <ele>542.505024</ele>
        <time>2026-05-05T13:30:55.458Z</time>
      </trkpt>
      <trkpt lat="48.959666" lon="10.754340">
        <ele>540.769836</ele>
        <time>2026-05-05T13:31:03.530Z</time>
      </trkpt>
      <trkpt lat="48.959815" lon="10.753618">
        <ele>539.008125</ele>
        <time>2026-05-05T13:31:12.254Z</time>
      </trkpt>
      <trkpt lat="48.960157" lon="10.752658">
        <ele>537.219998</ele>
        <time>2026-05-05T13:31:28.219Z</time>
      </trkpt>
      <trkpt lat="48.960288" lon="10.751973">
        <ele>539.203614</ele>
        <time>2026-05-05T13:31:44.458Z</time>
      </trkpt>
      <trkpt lat="48.960525" lon="10.750401">
        <ele>543.687902</ele>
        <time>2026-05-05T13:32:36.774Z</time>
      </trkpt>
      <trkpt lat="48.960636" lon="10.748620">
        <ele>548.533846</ele>
        <time>2026-05-05T13:33:29.877Z</time>
      </trkpt>
      <trkpt lat="48.960763" lon="10.748559">
        <ele>549.080700</ele>
        <time>2026-05-05T13:33:34.857Z</time>
      </trkpt>
      <trkpt lat="48.960916" lon="10.748413">
        <ele>549.822138</ele>
        <time>2026-05-05T13:33:41.480Z</time>
      </trkpt>
      <trkpt lat="48.961053" lon="10.748375">
        <ele>550.393991</ele>
        <time>2026-05-05T13:33:46.419Z</time>
      </trkpt>
      <trkpt lat="48.961253" lon="10.748513">
        <ele>551.295657</ele>
        <time>2026-05-05T13:33:53.925Z</time>
      </trkpt>
      <trkpt lat="48.961391" lon="10.748547">
        <ele>551.885901</ele>
        <time>2026-05-05T13:33:58.618Z</time>
      </trkpt>
      <trkpt lat="48.961548" lon="10.748489">
        <ele>552.734986</ele>
        <time>2026-05-05T13:34:03.912Z</time>
      </trkpt>
      <trkpt lat="48.961704" lon="10.748216">
        <ele>553.983873</ele>
        <time>2026-05-05T13:34:11.631Z</time>
      </trkpt>
      <trkpt lat="48.961860" lon="10.748009">
        <ele>555.071289</ele>
        <time>2026-05-05T13:34:19.666Z</time>
      </trkpt>
      <trkpt lat="48.962033" lon="10.747950">
        <ele>556.003056</ele>
        <time>2026-05-05T13:34:27.792Z</time>
      </trkpt>
      <trkpt lat="48.962234" lon="10.747927">
        <ele>557.062447</ele>
        <time>2026-05-05T13:34:37.851Z</time>
      </trkpt>
      <trkpt lat="48.962548" lon="10.747973">
        <ele>558.720382</ele>
        <time>2026-05-05T13:34:54.537Z</time>
      </trkpt>
      <trkpt lat="48.962730" lon="10.747963">
        <ele>559.677558</ele>
        <time>2026-05-05T13:35:04.429Z</time>
      </trkpt>
      <trkpt lat="48.962884" lon="10.747870">
        <ele>560.548248</ele>
        <time>2026-05-05T13:35:13.452Z</time>
      </trkpt>
      <trkpt lat="48.963111" lon="10.747610">
        <ele>562.176895</ele>
        <time>2026-05-05T13:35:28.622Z</time>
      </trkpt>
      <trkpt lat="48.963287" lon="10.747340">
        <ele>563.719763</ele>
        <time>2026-05-05T13:35:41.839Z</time>
      </trkpt>
      <trkpt lat="48.963415" lon="10.746953">
        <ele>565.476973</ele>
        <time>2026-05-05T13:35:56.678Z</time>
      </trkpt>
      <trkpt lat="48.963648" lon="10.746651">
        <ele>567.366619</ele>
        <time>2026-05-05T13:36:12.163Z</time>
      </trkpt>
      <trkpt lat="48.963779" lon="10.746425">
        <ele>568.589131</ele>
        <time>2026-05-05T13:36:21.833Z</time>
      </trkpt>
      <trkpt lat="48.964117" lon="10.745980">
        <ele>571.348555</ele>
        <time>2026-05-05T13:36:42.773Z</time>
      </trkpt>
      <trkpt lat="48.964318" lon="10.745599">
        <ele>572.976941</ele>
        <time>2026-05-05T13:36:57.000Z</time>
      </trkpt>
      <trkpt lat="48.964736" lon="10.744568">
        <ele>576.073421</ele>
        <time>2026-05-05T13:37:31.475Z</time>
      </trkpt>
      <trkpt lat="48.965462" lon="10.743193">
        <ele>579.200947</ele>
        <time>2026-05-05T13:38:14.760Z</time>
      </trkpt>
      <trkpt lat="48.965930" lon="10.742354">
        <ele>578.794640</ele>
        <time>2026-05-05T13:38:33.691Z</time>
      </trkpt>
      <trkpt lat="48.966121" lon="10.742130">
        <ele>578.659133</ele>
        <time>2026-05-05T13:38:38.474Z</time>
      </trkpt>
      <trkpt lat="48.966172" lon="10.741936">
        <ele>578.582011</ele>
        <time>2026-05-05T13:38:40.751Z</time>
      </trkpt>
      <trkpt lat="48.966272" lon="10.741216">
        <ele>577.744514</ele>
        <time>2026-05-05T13:38:48.501Z</time>
      </trkpt>
      <trkpt lat="48.966275" lon="10.741146">
        <ele>577.446182</ele>
        <time>2026-05-05T13:38:49.232Z</time>
      </trkpt>
      <trkpt lat="48.966364" lon="10.740581">
        <ele>574.975136</ele>
        <time>2026-05-05T13:38:55.108Z</time>
      </trkpt>
      <trkpt lat="48.966369" lon="10.740313">
        <ele>573.834919</ele>
        <time>2026-05-05T13:38:57.789Z</time>
      </trkpt>
      <trkpt lat="48.966067" lon="10.739178">
        <ele>568.626567</ele>
        <time>2026-05-05T13:39:09.345Z</time>
      </trkpt>
      <trkpt lat="48.966015" lon="10.738824">
        <ele>567.083833</ele>
        <time>2026-05-05T13:39:12.617Z</time>
      </trkpt>
      <trkpt lat="48.966015" lon="10.738437">
        <ele>564.367071</ele>
        <time>2026-05-05T13:39:16.074Z</time>
      </trkpt>
      <trkpt lat="48.966092" lon="10.737963">
        <ele>560.545634</ele>
        <time>2026-05-05T13:39:20.364Z</time>
      </trkpt>
      <trkpt lat="48.966284" lon="10.737355">
        <ele>555.265536</ele>
        <time>2026-05-05T13:39:26.174Z</time>
      </trkpt>
      <trkpt lat="48.966820" lon="10.735897">
        <ele>543.088181</ele>
        <time>2026-05-05T13:39:40.594Z</time>
      </trkpt>
      <trkpt lat="48.967009" lon="10.735506">
        <ele>540.397638</ele>
        <time>2026-05-05T13:39:44.955Z</time>
      </trkpt>
      <trkpt lat="48.967238" lon="10.735115">
        <ele>537.494162</ele>
        <time>2026-05-05T13:39:49.795Z</time>
      </trkpt>
      <trkpt lat="48.967485" lon="10.734838">
        <ele>534.905272</ele>
        <time>2026-05-05T13:39:54.222Z</time>
      </trkpt>
      <trkpt lat="48.968197" lon="10.734328">
        <ele>528.339369</ele>
        <time>2026-05-05T13:40:05.809Z</time>
      </trkpt>
      <trkpt lat="48.968458" lon="10.734098">
        <ele>525.898935</ele>
        <time>2026-05-05T13:40:10.163Z</time>
      </trkpt>
      <trkpt lat="48.969797" lon="10.732555">
        <ele>511.979656</ele>
        <time>2026-05-05T13:40:33.340Z</time>
      </trkpt>
      <trkpt lat="48.970211" lon="10.732204">
        <ele>507.751694</ele>
        <time>2026-05-05T13:40:39.844Z</time>
      </trkpt>
      <trkpt lat="48.970919" lon="10.731944">
        <ele>501.252872</ele>
        <time>2026-05-05T13:40:49.907Z</time>
      </trkpt>
      <trkpt lat="48.971044" lon="10.731796">
        <ele>499.840145</ele>
        <time>2026-05-05T13:40:52.090Z</time>
      </trkpt>
      <trkpt lat="48.971217" lon="10.731494">
        <ele>497.599975</ele>
        <time>2026-05-05T13:40:55.740Z</time>
      </trkpt>
      <trkpt lat="48.972541" lon="10.728675">
        <ele>480.134377</ele>
        <time>2026-05-05T13:41:27.419Z</time>
      </trkpt>
      <trkpt lat="48.972710" lon="10.728321">
        <ele>478.423390</ele>
        <time>2026-05-05T13:41:31.643Z</time>
      </trkpt>
      <trkpt lat="48.972798" lon="10.728043">
        <ele>477.216981</ele>
        <time>2026-05-05T13:41:34.680Z</time>
      </trkpt>
      <trkpt lat="48.972819" lon="10.727771">
        <ele>476.146449</ele>
        <time>2026-05-05T13:41:37.435Z</time>
      </trkpt>
      <trkpt lat="48.972800" lon="10.727503">
        <ele>475.092789</ele>
        <time>2026-05-05T13:41:40.202Z</time>
      </trkpt>
      <trkpt lat="48.972752" lon="10.727291">
        <ele>474.216206</ele>
        <time>2026-05-05T13:41:42.551Z</time>
      </trkpt>
      <trkpt lat="48.972665" lon="10.727104">
        <ele>473.515656</ele>
        <time>2026-05-05T13:41:45.021Z</time>
      </trkpt>
      <trkpt lat="48.972591" lon="10.726998">
        <ele>473.348253</ele>
        <time>2026-05-05T13:41:46.727Z</time>
      </trkpt>
      <trkpt lat="48.972516" lon="10.726892">
        <ele>473.179645</ele>
        <time>2026-05-05T13:41:48.471Z</time>
      </trkpt>
      <trkpt lat="48.972087" lon="10.726412">
        <ele>472.302411</ele>
        <time>2026-05-05T13:41:58.011Z</time>
      </trkpt>
      <trkpt lat="48.971971" lon="10.726178">
        <ele>471.985182</ele>
        <time>2026-05-05T13:42:01.465Z</time>
      </trkpt>
      <trkpt lat="48.971641" lon="10.726037">
        <ele>471.420329</ele>
        <time>2026-05-05T13:42:07.808Z</time>
      </trkpt>
      <trkpt lat="48.971362" lon="10.726010">
        <ele>470.959588</ele>
        <time>2026-05-05T13:42:13.331Z</time>
      </trkpt>
      <trkpt lat="48.971240" lon="10.725915">
        <ele>470.733777</ele>
        <time>2026-05-05T13:42:16.167Z</time>
      </trkpt>
      <trkpt lat="48.971169" lon="10.725806">
        <ele>470.613112</ele>
        <time>2026-05-05T13:42:18.332Z</time>
      </trkpt>
      <trkpt lat="48.971120" lon="10.725663">
        <ele>470.574292</ele>
        <time>2026-05-05T13:42:20.623Z</time>
      </trkpt>
      <trkpt lat="48.971120" lon="10.725419">
        <ele>470.515573</ele>
        <time>2026-05-05T13:42:24.124Z</time>
      </trkpt>
      <trkpt lat="48.971108" lon="10.725199">
        <ele>470.462447</ele>
        <time>2026-05-05T13:42:27.258Z</time>
      </trkpt>
      <trkpt lat="48.971102" lon="10.724868">
        <ele>470.382761</ele>
        <time>2026-05-05T13:42:31.863Z</time>
      </trkpt>
      <trkpt lat="48.971039" lon="10.724472">
        <ele>470.284704</ele>
        <time>2026-05-05T13:42:37.348Z</time>
      </trkpt>
      <trkpt lat="48.971004" lon="10.724288">
        <ele>470.238602</ele>
        <time>2026-05-05T13:42:39.912Z</time>
      </trkpt>
      <trkpt lat="48.970921" lon="10.724196">
        <ele>470.200972</ele>
        <time>2026-05-05T13:42:42.031Z</time>
      </trkpt>
      <trkpt lat="48.970832" lon="10.724211">
        <ele>470.168145</ele>
        <time>2026-05-05T13:42:43.884Z</time>
      </trkpt>
      <trkpt lat="48.970738" lon="10.724227">
        <ele>470.133470</ele>
        <time>2026-05-05T13:42:45.915Z</time>
      </trkpt>
      <trkpt lat="48.970404" lon="10.724083">
        <ele>470.006216</ele>
        <time>2026-05-05T13:42:53.547Z</time>
      </trkpt>
      <trkpt lat="48.970228" lon="10.723959">
        <ele>469.942207</ele>
        <time>2026-05-05T13:42:57.819Z</time>
      </trkpt>
      <trkpt lat="48.970076" lon="10.723836">
        <ele>469.893244</ele>
        <time>2026-05-05T13:43:01.614Z</time>
      </trkpt>
      <trkpt lat="48.969977" lon="10.723704">
        <ele>469.855816</ele>
        <time>2026-05-05T13:43:04.512Z</time>
      </trkpt>
      <trkpt lat="48.969943" lon="10.723658">
        <ele>469.842880</ele>
        <time>2026-05-05T13:43:05.436Z</time>
      </trkpt>
      <trkpt lat="48.969746" lon="10.723393">
        <ele>469.768114</ele>
        <time>2026-05-05T13:43:10.609Z</time>
      </trkpt>
      <trkpt lat="48.969373" lon="10.722623">
        <ele>469.589405</ele>
        <time>2026-05-05T13:43:23.448Z</time>
      </trkpt>
      <trkpt lat="48.969322" lon="10.722525">
        <ele>469.566051</ele>
        <time>2026-05-05T13:43:25.354Z</time>
      </trkpt>
      <trkpt lat="48.969233" lon="10.722668">
        <ele>469.529251</ele>
        <time>2026-05-05T13:43:28.106Z</time>
      </trkpt>
      <trkpt lat="48.969430" lon="10.723004">
        <ele>469.466620</ele>
        <time>2026-05-05T13:43:34.788Z</time>
      </trkpt>
      <trkpt lat="48.969554" lon="10.723400">
        <ele>469.562002</ele>
        <time>2026-05-05T13:43:41.322Z</time>
      </trkpt>
      <trkpt lat="48.969662" lon="10.723602">
        <ele>469.618638</ele>
        <time>2026-05-05T13:43:45.278Z</time>
      </trkpt>
      <trkpt lat="48.969897" lon="10.723839">
        <ele>469.711972</ele>
        <time>2026-05-05T13:43:51.809Z</time>
      </trkpt>
      <trkpt lat="48.969977" lon="10.723704">
        <ele>469.751510</ele>
        <time>2026-05-05T13:43:54.666Z</time>
      </trkpt>
      <trkpt lat="48.970076" lon="10.723836">
        <ele>469.795081</ele>
        <time>2026-05-05T13:43:57.901Z</time>
      </trkpt>
      <trkpt lat="48.970228" lon="10.723959">
        <ele>469.852079</ele>
        <time>2026-05-05T13:44:02.124Z</time>
      </trkpt>
      <trkpt lat="48.970404" lon="10.724083">
        <ele>469.916297</ele>
        <time>2026-05-05T13:44:06.835Z</time>
      </trkpt>
      <trkpt lat="48.970738" lon="10.724227">
        <ele>470.031251</ele>
        <time>2026-05-05T13:44:15.096Z</time>
      </trkpt>
      <trkpt lat="48.970832" lon="10.724211">
        <ele>470.070575</ele>
        <time>2026-05-05T13:44:17.329Z</time>
      </trkpt>
      <trkpt lat="48.970921" lon="10.724196">
        <ele>470.120219</ele>
        <time>2026-05-05T13:44:19.547Z</time>
      </trkpt>
      <trkpt lat="48.971004" lon="10.724288">
        <ele>470.177127</ele>
        <time>2026-05-05T13:44:21.996Z</time>
      </trkpt>
      <trkpt lat="48.971039" lon="10.724472">
        <ele>470.246847</ele>
        <time>2026-05-05T13:44:25.103Z</time>
      </trkpt>
      <trkpt lat="48.971102" lon="10.724868">
        <ele>470.395139</ele>
        <time>2026-05-05T13:44:31.567Z</time>
      </trkpt>
      <trkpt lat="48.971108" lon="10.725199">
        <ele>470.515649</ele>
        <time>2026-05-05T13:44:36.658Z</time>
      </trkpt>
      <trkpt lat="48.971120" lon="10.725419">
        <ele>470.595991</ele>
        <time>2026-05-05T13:44:39.995Z</time>
      </trkpt>
      <trkpt lat="48.971120" lon="10.725663">
        <ele>470.684792</ele>
        <time>2026-05-05T13:44:43.608Z</time>
      </trkpt>
      <trkpt lat="48.971169" lon="10.725806">
        <ele>470.743499</ele>
        <time>2026-05-05T13:44:46.035Z</time>
      </trkpt>
      <trkpt lat="48.971240" lon="10.725915">
        <ele>470.799384</ele>
        <time>2026-05-05T13:44:48.377Z</time>
      </trkpt>
      <trkpt lat="48.971362" lon="10.726010">
        <ele>470.875346</ele>
        <time>2026-05-05T13:44:51.671Z</time>
      </trkpt>
      <trkpt lat="48.971641" lon="10.726037">
        <ele>471.030339</ele>
        <time>2026-05-05T13:44:58.778Z</time>
      </trkpt>
      <trkpt lat="48.971971" lon="10.726178">
        <ele>471.498460</ele>
        <time>2026-05-05T13:45:08.296Z</time>
      </trkpt>
      <trkpt lat="48.972087" lon="10.726412">
        <ele>471.777265</ele>
        <time>2026-05-05T13:45:13.889Z</time>
      </trkpt>
      <trkpt lat="48.972516" lon="10.726892">
        <ele>472.548245</ele>
        <time>2026-05-05T13:45:29.511Z</time>
      </trkpt>
      <trkpt lat="48.972665" lon="10.727104">
        <ele>472.843556</ele>
        <time>2026-05-05T13:45:35.572Z</time>
      </trkpt>
      <trkpt lat="48.972752" lon="10.727291">
        <ele>473.061483</ele>
        <time>2026-05-05T13:45:39.974Z</time>
      </trkpt>
      <trkpt lat="48.972800" lon="10.727503">
        <ele>473.274705</ele>
        <time>2026-05-05T13:45:44.200Z</time>
      </trkpt>
      <trkpt lat="48.972819" lon="10.727771">
        <ele>473.530999</ele>
        <time>2026-05-05T13:45:49.128Z</time>
      </trkpt>
      <trkpt lat="48.972798" lon="10.728043">
        <ele>473.733207</ele>
        <time>2026-05-05T13:45:54.037Z</time>
      </trkpt>
      <trkpt lat="48.972710" lon="10.728321">
        <ele>473.903137</ele>
        <time>2026-05-05T13:45:59.473Z</time>
      </trkpt>
      <trkpt lat="48.973275" lon="10.728855">
        <ele>474.460833</ele>
        <time>2026-05-05T13:46:16.481Z</time>
      </trkpt>
      <trkpt lat="48.973771" lon="10.729060">
        <ele>474.891899</ele>
        <time>2026-05-05T13:46:28.944Z</time>
      </trkpt>
      <trkpt lat="48.974646" lon="10.729432">
        <ele>475.250729</ele>
        <time>2026-05-05T13:46:51.964Z</time>
      </trkpt>
      <trkpt lat="48.975365" lon="10.729674">
        <ele>475.362354</ele>
        <time>2026-05-05T13:47:08.328Z</time>
      </trkpt>
      <trkpt lat="48.975615" lon="10.729794">
        <ele>475.402089</ele>
        <time>2026-05-05T13:47:13.937Z</time>
      </trkpt>
      <trkpt lat="48.975720" lon="10.729204">
        <ele>475.431783</ele>
        <time>2026-05-05T13:47:22.301Z</time>
      </trkpt>
      <trkpt lat="48.975976" lon="10.729306">
        <ele>475.428009</ele>
        <time>2026-05-05T13:47:27.800Z</time>
      </trkpt>
      <trkpt lat="48.976113" lon="10.729205">
        <ele>475.425838</ele>
        <time>2026-05-05T13:47:30.930Z</time>
      </trkpt>
      <trkpt lat="48.976233" lon="10.728992">
        <ele>475.423210</ele>
        <time>2026-05-05T13:47:34.667Z</time>
      </trkpt>
      <trkpt lat="48.976336" lon="10.728973">
        <ele>475.421730</ele>
        <time>2026-05-05T13:47:36.787Z</time>
      </trkpt>
      <trkpt lat="48.976541" lon="10.729060">
        <ele>475.418695</ele>
        <time>2026-05-05T13:47:41.148Z</time>
      </trkpt>
      <trkpt lat="48.976841" lon="10.729043">
        <ele>475.414413</ele>
        <time>2026-05-05T13:47:48.236Z</time>
      </trkpt>
      <trkpt lat="48.977097" lon="10.729126">
        <ele>475.410680</ele>
        <time>2026-05-05T13:47:54.731Z</time>
      </trkpt>
      <trkpt lat="48.977342" lon="10.729157">
        <ele>475.504019</ele>
        <time>2026-05-05T13:48:00.897Z</time>
      </trkpt>
      <trkpt lat="48.977551" lon="10.729292">
        <ele>475.692856</ele>
        <time>2026-05-05T13:48:06.689Z</time>
      </trkpt>
      <trkpt lat="48.977687" lon="10.729537">
        <ele>475.868049</ele>
        <time>2026-05-05T13:48:12.114Z</time>
      </trkpt>
      <trkpt lat="48.978108" lon="10.729988">
        <ele>476.296164</ele>
        <time>2026-05-05T13:48:25.504Z</time>
      </trkpt>
      <trkpt lat="48.978217" lon="10.730181">
        <ele>476.435180</ele>
        <time>2026-05-05T13:48:29.773Z</time>
      </trkpt>
      <trkpt lat="48.978333" lon="10.730542">
        <ele>476.654633</ele>
        <time>2026-05-05T13:48:36.564Z</time>
      </trkpt>
      <trkpt lat="48.978536" lon="10.730773">
        <ele>476.865400</ele>
        <time>2026-05-05T13:48:43.104Z</time>
      </trkpt>
      <trkpt lat="48.978691" lon="10.730863">
        <ele>477.048592</ele>
        <time>2026-05-05T13:48:47.372Z</time>
      </trkpt>
      <trkpt lat="48.978878" lon="10.730673">
        <ele>477.321496</ele>
        <time>2026-05-05T13:48:53.199Z</time>
      </trkpt>
      <trkpt lat="48.979190" lon="10.730277">
        <ele>477.814537</ele>
        <time>2026-05-05T13:49:04.015Z</time>
      </trkpt>
      <trkpt lat="48.979422" lon="10.730134">
        <ele>478.118401</ele>
        <time>2026-05-05T13:49:10.898Z</time>
      </trkpt>
      <trkpt lat="48.979643" lon="10.730104">
        <ele>478.387794</ele>
        <time>2026-05-05T13:49:16.954Z</time>
      </trkpt>
      <trkpt lat="48.979974" lon="10.730185">
        <ele>478.794833</ele>
        <time>2026-05-05T13:49:25.927Z</time>
      </trkpt>
      <trkpt lat="48.980129" lon="10.730178">
        <ele>478.983111</ele>
        <time>2026-05-05T13:49:30.225Z</time>
      </trkpt>
      <trkpt lat="48.980474" lon="10.730085">
        <ele>479.329071</ele>
        <time>2026-05-05T13:49:40.392Z</time>
      </trkpt>
      <trkpt lat="48.980659" lon="10.729985">
        <ele>479.508179</ele>
        <time>2026-05-05T13:49:46.165Z</time>
      </trkpt>
      <trkpt lat="48.980724" lon="10.729922">
        <ele>479.578470</ele>
        <time>2026-05-05T13:49:48.355Z</time>
      </trkpt>
      <trkpt lat="48.980836" lon="10.729662">
        <ele>479.764711</ele>
        <time>2026-05-05T13:49:54.262Z</time>
      </trkpt>
      <trkpt lat="48.980937" lon="10.729250">
        <ele>480.028082</ele>
        <time>2026-05-05T13:50:02.158Z</time>
      </trkpt>
      <trkpt lat="48.981238" lon="10.729135">
        <ele>480.311228</ele>
        <time>2026-05-05T13:50:09.997Z</time>
      </trkpt>
      <trkpt lat="48.981618" lon="10.728689">
        <ele>480.728971</ele>
        <time>2026-05-05T13:50:20.629Z</time>
      </trkpt>
      <trkpt lat="48.982174" lon="10.728412">
        <ele>480.699581</ele>
        <time>2026-05-05T13:50:32.812Z</time>
      </trkpt>
      <trkpt lat="48.982652" lon="10.728537">
        <ele>480.675215</ele>
        <time>2026-05-05T13:50:42.357Z</time>
      </trkpt>
      <trkpt lat="48.982846" lon="10.728655">
        <ele>480.664720</ele>
        <time>2026-05-05T13:50:46.756Z</time>
      </trkpt>
      <trkpt lat="48.982909" lon="10.728823">
        <ele>480.658340</ele>
        <time>2026-05-05T13:50:49.622Z</time>
      </trkpt>
      <trkpt lat="48.982957" lon="10.729134">
        <ele>480.647805</ele>
        <time>2026-05-05T13:50:54.636Z</time>
      </trkpt>
      <trkpt lat="48.983003" lon="10.729230">
        <ele>480.643886</ele>
        <time>2026-05-05T13:50:56.596Z</time>
      </trkpt>
      <trkpt lat="48.983100" lon="10.729330">
        <ele>480.688868</ele>
        <time>2026-05-05T13:50:59.623Z</time>
      </trkpt>
      <trkpt lat="48.983109" lon="10.729441">
        <ele>480.799454</ele>
        <time>2026-05-05T13:51:01.562Z</time>
      </trkpt>
      <trkpt lat="48.983081" lon="10.729521">
        <ele>480.889100</ele>
        <time>2026-05-05T13:51:03.182Z</time>
      </trkpt>
      <trkpt lat="48.983064" lon="10.729575">
        <ele>480.948318</ele>
        <time>2026-05-05T13:51:04.259Z</time>
      </trkpt>
      <trkpt lat="48.983102" lon="10.730831">
        <ele>482.191507</ele>
        <time>2026-05-05T13:51:28.396Z</time>
      </trkpt>
      <trkpt lat="48.983164" lon="10.731685">
        <ele>483.041050</ele>
        <time>2026-05-05T13:51:45.823Z</time>
      </trkpt>
      <trkpt lat="48.983218" lon="10.731818">
        <ele>483.195685</ele>
        <time>2026-05-05T13:51:48.845Z</time>
      </trkpt>
      <trkpt lat="48.983447" lon="10.731931">
        <ele>483.338789</ele>
        <time>2026-05-05T13:51:55.581Z</time>
      </trkpt>
      <trkpt lat="48.983559" lon="10.732048">
        <ele>483.328328</ele>
        <time>2026-05-05T13:51:59.122Z</time>
      </trkpt>
      <trkpt lat="48.983600" lon="10.732207">
        <ele>483.319690</ele>
        <time>2026-05-05T13:52:01.895Z</time>
      </trkpt>
      <trkpt lat="48.983649" lon="10.732895">
        <ele>483.284702</ele>
        <time>2026-05-05T13:52:12.183Z</time>
      </trkpt>
      <trkpt lat="48.984699" lon="10.732823">
        <ele>483.209374</ele>
        <time>2026-05-05T13:52:32.860Z</time>
      </trkpt>
      <trkpt lat="48.984896" lon="10.732705">
        <ele>483.205898</ele>
        <time>2026-05-05T13:52:36.772Z</time>
      </trkpt>
      <trkpt lat="48.985037" lon="10.732539">
        <ele>483.202972</ele>
        <time>2026-05-05T13:52:40.175Z</time>
      </trkpt>
      <trkpt lat="48.985069" lon="10.732335">
        <ele>483.200712</ele>
        <time>2026-05-05T13:52:42.888Z</time>
      </trkpt>
      <trkpt lat="48.985329" lon="10.731836">
        <ele>483.193846</ele>
        <time>2026-05-05T13:52:51.854Z</time>
      </trkpt>
      <trkpt lat="48.985601" lon="10.731536">
        <ele>483.188332</ele>
        <time>2026-05-05T13:53:00.102Z</time>
      </trkpt>
      <trkpt lat="48.986045" lon="10.731311">
        <ele>483.211129</ele>
        <time>2026-05-05T13:53:12.496Z</time>
      </trkpt>
      <trkpt lat="48.986519" lon="10.731128">
        <ele>483.543345</ele>
        <time>2026-05-05T13:53:25.596Z</time>
      </trkpt>
      <trkpt lat="48.986776" lon="10.731085">
        <ele>483.719002</ele>
        <time>2026-05-05T13:53:32.407Z</time>
      </trkpt>
      <trkpt lat="48.987597" lon="10.731251">
        <ele>484.281686</ele>
        <time>2026-05-05T13:53:53.062Z</time>
      </trkpt>
      <trkpt lat="48.988329" lon="10.731353">
        <ele>484.673458</ele>
        <time>2026-05-05T13:54:09.177Z</time>
      </trkpt>
      <trkpt lat="48.988666" lon="10.731447">
        <ele>484.839895</ele>
        <time>2026-05-05T13:54:16.407Z</time>
      </trkpt>
      <trkpt lat="48.989788" lon="10.732072">
        <ele>485.666735</ele>
        <time>2026-05-05T13:54:47.006Z</time>
      </trkpt>
      <trkpt lat="48.989919" lon="10.731839">
        <ele>485.933066</ele>
        <time>2026-05-05T13:54:53.112Z</time>
      </trkpt>
      <trkpt lat="48.990165" lon="10.731514">
        <ele>486.363732</ele>
        <time>2026-05-05T13:55:03.231Z</time>
      </trkpt>
      <trkpt lat="48.990673" lon="10.730990">
        <ele>487.175171</ele>
        <time>2026-05-05T13:55:21.357Z</time>
      </trkpt>
      <trkpt lat="48.990919" lon="10.730578">
        <ele>487.656644</ele>
        <time>2026-05-05T13:55:30.941Z</time>
      </trkpt>
      <trkpt lat="48.991119" lon="10.730574">
        <ele>487.682592</ele>
        <time>2026-05-05T13:55:35.457Z</time>
      </trkpt>
      <trkpt lat="48.992083" lon="10.730934">
        <ele>487.811354</ele>
        <time>2026-05-05T13:55:56.296Z</time>
      </trkpt>
      <trkpt lat="48.992340" lon="10.730929">
        <ele>487.844698</ele>
        <time>2026-05-05T13:56:01.782Z</time>
      </trkpt>
      <trkpt lat="48.993509" lon="10.730878">
        <ele>488.424690</ele>
        <time>2026-05-05T13:56:30.642Z</time>
      </trkpt>
      <trkpt lat="48.995556" lon="10.730592">
        <ele>489.942375</ele>
        <time>2026-05-05T13:57:22.827Z</time>
      </trkpt>
      <trkpt lat="48.996036" lon="10.730653">
        <ele>490.336203</ele>
        <time>2026-05-05T13:57:35.060Z</time>
      </trkpt>
      <trkpt lat="48.996340" lon="10.730646">
        <ele>490.593008</ele>
        <time>2026-05-05T13:57:42.877Z</time>
      </trkpt>
      <trkpt lat="48.997010" lon="10.730939">
        <ele>491.249553</ele>
        <time>2026-05-05T13:58:01.052Z</time>
      </trkpt>
      <trkpt lat="48.997474" lon="10.731187">
        <ele>491.712695</ele>
        <time>2026-05-05T13:58:13.907Z</time>
      </trkpt>
      <trkpt lat="48.997790" lon="10.731274">
        <ele>492.015156</ele>
        <time>2026-05-05T13:58:22.338Z</time>
      </trkpt>
      <trkpt lat="48.998184" lon="10.731306">
        <ele>492.413681</ele>
        <time>2026-05-05T13:58:32.616Z</time>
      </trkpt>
      <trkpt lat="48.998345" lon="10.731369">
        <ele>492.596249</ele>
        <time>2026-05-05T13:58:36.915Z</time>
      </trkpt>
      <trkpt lat="48.998512" lon="10.731486">
        <ele>492.798122</ele>
        <time>2026-05-05T13:58:41.679Z</time>
      </trkpt>
      <trkpt lat="48.998944" lon="10.732001">
        <ele>493.400498</ele>
        <time>2026-05-05T13:58:55.954Z</time>
      </trkpt>
      <trkpt lat="48.999409" lon="10.732415">
        <ele>493.991973</ele>
        <time>2026-05-05T13:59:10.411Z</time>
      </trkpt>
      <trkpt lat="48.999786" lon="10.732566">
        <ele>494.455641</ele>
        <time>2026-05-05T13:59:21.155Z</time>
      </trkpt>
      <trkpt lat="49.000129" lon="10.732807">
        <ele>494.937580</ele>
        <time>2026-05-05T13:59:31.794Z</time>
      </trkpt>
      <trkpt lat="49.000368" lon="10.732855">
        <ele>495.245187</ele>
        <time>2026-05-05T13:59:38.586Z</time>
      </trkpt>
      <trkpt lat="49.000436" lon="10.732957">
        <ele>495.366925</ele>
        <time>2026-05-05T13:59:41.241Z</time>
      </trkpt>
      <trkpt lat="49.001144" lon="10.732872">
        <ele>496.273150</ele>
        <time>2026-05-05T14:00:00.584Z</time>
      </trkpt>
      <trkpt lat="49.001646" lon="10.732748">
        <ele>497.021723</ele>
        <time>2026-05-05T14:00:13.809Z</time>
      </trkpt>
      <trkpt lat="49.002542" lon="10.733172">
        <ele>498.498580</ele>
        <time>2026-05-05T14:00:40.032Z</time>
      </trkpt>
      <trkpt lat="49.003383" lon="10.733796">
        <ele>499.866854</ele>
        <time>2026-05-05T14:01:08.973Z</time>
      </trkpt>
      <trkpt lat="49.003768" lon="10.734136">
        <ele>500.454051</ele>
        <time>2026-05-05T14:01:21.976Z</time>
      </trkpt>
      <trkpt lat="49.004052" lon="10.734434">
        <ele>500.909061</ele>
        <time>2026-05-05T14:01:31.088Z</time>
      </trkpt>
      <trkpt lat="49.004835" lon="10.735557">
        <ele>502.365766</ele>
        <time>2026-05-05T14:01:57.676Z</time>
      </trkpt>
      <trkpt lat="49.005104" lon="10.735828">
        <ele>502.817003</ele>
        <time>2026-05-05T14:02:06.238Z</time>
      </trkpt>
      <trkpt lat="49.005284" lon="10.735968">
        <ele>503.099800</ele>
        <time>2026-05-05T14:02:11.843Z</time>
      </trkpt>
      <trkpt lat="49.005706" lon="10.736111">
        <ele>503.704789</ele>
        <time>2026-05-05T14:02:24.487Z</time>
      </trkpt>
      <trkpt lat="49.005993" lon="10.735968">
        <ele>504.127345</ele>
        <time>2026-05-05T14:02:33.894Z</time>
      </trkpt>
      <trkpt lat="49.006327" lon="10.736370">
        <ele>504.789119</ele>
        <time>2026-05-05T14:02:47.168Z</time>
      </trkpt>
      <trkpt lat="49.006879" lon="10.736638">
        <ele>505.706153</ele>
        <time>2026-05-05T14:03:04.453Z</time>
      </trkpt>
      <trkpt lat="49.007916" lon="10.736853">
        <ele>507.180639</ele>
        <time>2026-05-05T14:03:32.927Z</time>
      </trkpt>
      <trkpt lat="49.008462" lon="10.737023">
        <ele>507.523318</ele>
        <time>2026-05-05T14:03:46.504Z</time>
      </trkpt>
      <trkpt lat="49.008896" lon="10.737192">
        <ele>507.798763</ele>
        <time>2026-05-05T14:03:57.009Z</time>
      </trkpt>
      <trkpt lat="49.009386" lon="10.737512">
        <ele>508.126557</ele>
        <time>2026-05-05T14:04:09.513Z</time>
      </trkpt>
      <trkpt lat="49.009502" lon="10.737555">
        <ele>508.213133</ele>
        <time>2026-05-05T14:04:12.413Z</time>
      </trkpt>
      <trkpt lat="49.009763" lon="10.737541">
        <ele>508.446622</ele>
        <time>2026-05-05T14:04:19.014Z</time>
      </trkpt>
      <trkpt lat="49.009968" lon="10.737236">
        <ele>508.702713</ele>
        <time>2026-05-05T14:04:26.570Z</time>
      </trkpt>
      <trkpt lat="49.010053" lon="10.737195">
        <ele>508.782419</ele>
        <time>2026-05-05T14:04:29.036Z</time>
      </trkpt>
      <trkpt lat="49.010187" lon="10.737163">
        <ele>508.903682</ele>
        <time>2026-05-05T14:04:32.881Z</time>
      </trkpt>
      <trkpt lat="49.010670" lon="10.737253">
        <ele>509.338718</ele>
        <time>2026-05-05T14:04:46.192Z</time>
      </trkpt>
      <trkpt lat="49.010783" lon="10.737221">
        <ele>509.441473</ele>
        <time>2026-05-05T14:04:49.097Z</time>
      </trkpt>
      <trkpt lat="49.010919" lon="10.737102">
        <ele>509.581665</ele>
        <time>2026-05-05T14:04:53.016Z</time>
      </trkpt>
      <trkpt lat="49.011217" lon="10.736756">
        <ele>509.885115</ele>
        <time>2026-05-05T14:05:02.162Z</time>
      </trkpt>
      <trkpt lat="49.011540" lon="10.737091">
        <ele>510.154536</ele>
        <time>2026-05-05T14:05:11.827Z</time>
      </trkpt>
      <trkpt lat="49.011854" lon="10.737616">
        <ele>510.475935</ele>
        <time>2026-05-05T14:05:23.751Z</time>
      </trkpt>
      <trkpt lat="49.012016" lon="10.737460">
        <ele>510.608081</ele>
        <time>2026-05-05T14:05:28.577Z</time>
      </trkpt>
      <trkpt lat="49.013104" lon="10.736939">
        <ele>512.128618</ele>
        <time>2026-05-05T14:05:56.601Z</time>
      </trkpt>
      <trkpt lat="49.013271" lon="10.736965">
        <ele>512.470959</ele>
        <time>2026-05-05T14:06:00.935Z</time>
      </trkpt>
      <trkpt lat="49.013419" lon="10.737051">
        <ele>512.793958</ele>
        <time>2026-05-05T14:06:05.180Z</time>
      </trkpt>
      <trkpt lat="49.013692" lon="10.737421">
        <ele>513.538862</ele>
        <time>2026-05-05T14:06:16.156Z</time>
      </trkpt>
      <trkpt lat="49.013884" lon="10.737680">
        <ele>514.061667</ele>
        <time>2026-05-05T14:06:25.176Z</time>
      </trkpt>
      <trkpt lat="49.014176" lon="10.738035">
        <ele>515.107048</ele>
        <time>2026-05-05T14:06:39.156Z</time>
      </trkpt>
      <trkpt lat="49.014308" lon="10.738194">
        <ele>516.167192</ele>
        <time>2026-05-05T14:06:46.207Z</time>
      </trkpt>
      <trkpt lat="49.014561" lon="10.738502">
        <ele>518.207485</ele>
        <time>2026-05-05T14:07:02.000Z</time>
      </trkpt>
      <trkpt lat="49.014727" lon="10.738704">
        <ele>519.545950</ele>
        <time>2026-05-05T14:07:13.205Z</time>
      </trkpt>
      <trkpt lat="49.014845" lon="10.738740">
        <ele>520.304327</ele>
        <time>2026-05-05T14:07:19.568Z</time>
      </trkpt>
      <trkpt lat="49.015072" lon="10.738746">
        <ele>521.735097</ele>
        <time>2026-05-05T14:07:31.434Z</time>
      </trkpt>
      <trkpt lat="49.015168" lon="10.738744">
        <ele>522.340146</ele>
        <time>2026-05-05T14:07:36.516Z</time>
      </trkpt>
      <trkpt lat="49.015337" lon="10.738743">
        <ele>523.405193</ele>
        <time>2026-05-05T14:07:45.580Z</time>
      </trkpt>
      <trkpt lat="49.015623" lon="10.738739">
        <ele>525.207642</ele>
        <time>2026-05-05T14:08:00.639Z</time>
      </trkpt>
      <trkpt lat="49.015701" lon="10.738806">
        <ele>525.771836</ele>
        <time>2026-05-05T14:08:05.122Z</time>
      </trkpt>
      <trkpt lat="49.015929" lon="10.739197">
        <ele>527.634924</ele>
        <time>2026-05-05T14:08:21.778Z</time>
      </trkpt>
      <trkpt lat="49.016014" lon="10.739323">
        <ele>528.265024</ele>
        <time>2026-05-05T14:08:27.444Z</time>
      </trkpt>
      <trkpt lat="49.016120" lon="10.739414">
        <ele>528.911590</ele>
        <time>2026-05-05T14:08:33.210Z</time>
      </trkpt>
      <trkpt lat="49.016255" lon="10.739530">
        <ele>529.735223</ele>
        <time>2026-05-05T14:08:40.413Z</time>
      </trkpt>
      <trkpt lat="49.016486" lon="10.739624">
        <ele>531.005985</ele>
        <time>2026-05-05T14:08:50.653Z</time>
      </trkpt>
      <trkpt lat="49.016769" lon="10.739651">
        <ele>532.513102</ele>
        <time>2026-05-05T14:09:02.064Z</time>
      </trkpt>
      <trkpt lat="49.017259" lon="10.739661">
        <ele>535.117737</ele>
        <time>2026-05-05T14:09:23.152Z</time>
      </trkpt>
      <trkpt lat="49.017483" lon="10.739716">
        <ele>535.566697</ele>
        <time>2026-05-05T14:09:32.996Z</time>
      </trkpt>
      <trkpt lat="49.017745" lon="10.739775">
        <ele>535.536543</ele>
        <time>2026-05-05T14:09:43.563Z</time>
      </trkpt>
      <trkpt lat="49.017767" lon="10.739423">
        <ele>535.510141</ele>
        <time>2026-05-05T14:09:51.712Z</time>
      </trkpt>
      <trkpt lat="49.017767" lon="10.739141">
        <ele>535.489085</ele>
        <time>2026-05-05T14:09:57.257Z</time>
      </trkpt>
      <trkpt lat="49.017715" lon="10.738521">
        <ele>535.442413</ele>
        <time>2026-05-05T14:10:05.853Z</time>
      </trkpt>
      <trkpt lat="49.017677" lon="10.738224">
        <ele>535.419819</ele>
        <time>2026-05-05T14:10:09.332Z</time>
      </trkpt>
      <trkpt lat="49.017536" lon="10.737648">
        <ele>535.183065</ele>
        <time>2026-05-05T14:10:15.816Z</time>
      </trkpt>
      <trkpt lat="49.017449" lon="10.737306">
        <ele>533.807549</ele>
        <time>2026-05-05T14:10:19.477Z</time>
      </trkpt>
      <trkpt lat="49.017429" lon="10.736827">
        <ele>532.007770</ele>
        <time>2026-05-05T14:10:24.166Z</time>
      </trkpt>
      <trkpt lat="49.017553" lon="10.736321">
        <ele>529.982251</ele>
        <time>2026-05-05T14:10:29.342Z</time>
      </trkpt>
      <trkpt lat="49.017589" lon="10.736261">
        <ele>529.677315</ele>
        <time>2026-05-05T14:10:30.131Z</time>
      </trkpt>
      <trkpt lat="49.017808" lon="10.735803">
        <ele>527.551917</ele>
        <time>2026-05-05T14:10:35.694Z</time>
      </trkpt>
      <trkpt lat="49.017859" lon="10.735625">
        <ele>526.823545</ele>
        <time>2026-05-05T14:10:37.708Z</time>
      </trkpt>
      <trkpt lat="49.017899" lon="10.735332">
        <ele>525.701319</ele>
        <time>2026-05-05T14:10:40.873Z</time>
      </trkpt>
      <trkpt lat="49.017910" lon="10.735068">
        <ele>525.036695</ele>
        <time>2026-05-05T14:10:43.799Z</time>
      </trkpt>
      <trkpt lat="49.017666" lon="10.733076">
        <ele>523.907047</ele>
        <time>2026-05-05T14:11:11.349Z</time>
      </trkpt>
      <trkpt lat="49.018431" lon="10.732424">
        <ele>523.939852</ele>
        <time>2026-05-05T14:11:35.025Z</time>
      </trkpt>
      <trkpt lat="49.019048" lon="10.731950">
        <ele>524.486242</ele>
        <time>2026-05-05T14:11:54.731Z</time>
      </trkpt>
      <trkpt lat="49.019316" lon="10.731826">
        <ele>524.707734</ele>
        <time>2026-05-05T14:12:01.559Z</time>
      </trkpt>
      <trkpt lat="49.019858" lon="10.731657">
        <ele>525.035558</ele>
        <time>2026-05-05T14:12:13.201Z</time>
      </trkpt>
      <trkpt lat="49.020101" lon="10.732841">
        <ele>525.231675</ele>
        <time>2026-05-05T14:12:30.143Z</time>
      </trkpt>
      <trkpt lat="49.022270" lon="10.730879">
        <ele>527.194454</ele>
        <time>2026-05-05T14:13:35.286Z</time>
      </trkpt>
      <trkpt lat="49.022827" lon="10.730340">
        <ele>528.371830</ele>
        <time>2026-05-05T14:13:54.545Z</time>
      </trkpt>
      <trkpt lat="49.023485" lon="10.732202">
        <ele>531.306273</ele>
        <time>2026-05-05T14:14:36.159Z</time>
      </trkpt>
      <trkpt lat="49.024117" lon="10.731482">
        <ele>534.257012</ele>
        <time>2026-05-05T14:15:03.840Z</time>
      </trkpt>
      <trkpt lat="49.024409" lon="10.731232">
        <ele>535.509564</ele>
        <time>2026-05-05T14:15:17.177Z</time>
      </trkpt>
      <trkpt lat="49.025329" lon="10.730602">
        <ele>539.551108</ele>
        <time>2026-05-05T14:16:00.599Z</time>
      </trkpt>
      <trkpt lat="49.025533" lon="10.730639">
        <ele>540.426074</ele>
        <time>2026-05-05T14:16:09.194Z</time>
      </trkpt>
      <trkpt lat="49.026195" lon="10.729964">
        <ele>543.817685</ele>
        <time>2026-05-05T14:16:40.526Z</time>
      </trkpt>
      <trkpt lat="49.026889" lon="10.729192">
        <ele>546.320919</ele>
        <time>2026-05-05T14:17:08.880Z</time>
      </trkpt>
      <trkpt lat="49.027696" lon="10.728053">
        <ele>548.819527</ele>
        <time>2026-05-05T14:17:43.307Z</time>
      </trkpt>
      <trkpt lat="49.028371" lon="10.727261">
        <ele>549.150819</ele>
        <time>2026-05-05T14:18:05.166Z</time>
      </trkpt>
      <trkpt lat="49.030238" lon="10.725756">
        <ele>548.767451</ele>
        <time>2026-05-05T14:18:47.518Z</time>
      </trkpt>
      <trkpt lat="49.030714" lon="10.725181">
        <ele>548.491223</ele>
        <time>2026-05-05T14:19:00.140Z</time>
      </trkpt>
      <trkpt lat="49.031046" lon="10.724655">
        <ele>548.823357</ele>
        <time>2026-05-05T14:19:10.929Z</time>
      </trkpt>
      <trkpt lat="49.031367" lon="10.723839">
        <ele>549.565371</ele>
        <time>2026-05-05T14:19:26.839Z</time>
      </trkpt>
      <trkpt lat="49.031529" lon="10.723841">
        <ele>549.758040</ele>
        <time>2026-05-05T14:19:31.199Z</time>
      </trkpt>
      <trkpt lat="49.031960" lon="10.723621">
        <ele>550.298563</ele>
        <time>2026-05-05T14:19:44.225Z</time>
      </trkpt>
      <trkpt lat="49.032603" lon="10.723231">
        <ele>551.863341</ele>
        <time>2026-05-05T14:20:07.330Z</time>
      </trkpt>
      <trkpt lat="49.033483" lon="10.722603">
        <ele>554.558133</ele>
        <time>2026-05-05T14:20:41.000Z</time>
      </trkpt>
      <trkpt lat="49.033937" lon="10.722128">
        <ele>556.057879</ele>
        <time>2026-05-05T14:20:59.080Z</time>
      </trkpt>
      <trkpt lat="49.034295" lon="10.721614">
        <ele>557.351578</ele>
        <time>2026-05-05T14:21:14.548Z</time>
      </trkpt>
      <trkpt lat="49.034826" lon="10.720715">
        <ele>559.439036</ele>
        <time>2026-05-05T14:21:39.863Z</time>
      </trkpt>
      <trkpt lat="49.035242" lon="10.720139">
        <ele>561.131892</ele>
        <time>2026-05-05T14:21:59.270Z</time>
      </trkpt>
      <trkpt lat="49.035939" lon="10.719518">
        <ele>563.977834</ele>
        <time>2026-05-05T14:22:28.331Z</time>
      </trkpt>
      <trkpt lat="49.036535" lon="10.719127">
        <ele>566.265279</ele>
        <time>2026-05-05T14:22:52.513Z</time>
      </trkpt>
      <trkpt lat="49.038698" lon="10.718726">
        <ele>576.152392</ele>
        <time>2026-05-05T14:24:17.701Z</time>
      </trkpt>
      <trkpt lat="49.039157" lon="10.718792">
        <ele>579.212204</ele>
        <time>2026-05-05T14:24:38.639Z</time>
      </trkpt>
      <trkpt lat="49.039640" lon="10.719060">
        <ele>582.623269</ele>
        <time>2026-05-05T14:25:04.119Z</time>
      </trkpt>
      <trkpt lat="49.039992" lon="10.719301">
        <ele>585.183944</ele>
        <time>2026-05-05T14:25:25.511Z</time>
      </trkpt>
      <trkpt lat="49.040235" lon="10.719542">
        <ele>587.351122</ele>
        <time>2026-05-05T14:25:42.281Z</time>
      </trkpt>
      <trkpt lat="49.040751" lon="10.720473">
        <ele>594.159060</ele>
        <time>2026-05-05T14:26:29.090Z</time>
      </trkpt>
      <trkpt lat="49.041162" lon="10.721066">
        <ele>598.978039</ele>
        <time>2026-05-05T14:27:02.895Z</time>
      </trkpt>
      <trkpt lat="49.041306" lon="10.721214">
        <ele>600.457122</ele>
        <time>2026-05-05T14:27:12.462Z</time>
      </trkpt>
      <trkpt lat="49.041435" lon="10.721297">
        <ele>601.591251</ele>
        <time>2026-05-05T14:27:19.793Z</time>
      </trkpt>
      <trkpt lat="49.041611" lon="10.721350">
        <ele>601.995287</ele>
        <time>2026-05-05T14:27:28.889Z</time>
      </trkpt>
      <trkpt lat="49.041812" lon="10.721326">
        <ele>602.449364</ele>
        <time>2026-05-05T14:27:38.451Z</time>
      </trkpt>
      <trkpt lat="49.042123" lon="10.721165">
        <ele>603.189030</ele>
        <time>2026-05-05T14:27:52.293Z</time>
      </trkpt>
      <trkpt lat="49.042389" lon="10.720977">
        <ele>603.849285</ele>
        <time>2026-05-05T14:28:02.221Z</time>
      </trkpt>
      <trkpt lat="49.042712" lon="10.720824">
        <ele>604.611006</ele>
        <time>2026-05-05T14:28:10.041Z</time>
      </trkpt>
      <trkpt lat="49.043014" lon="10.720736">
        <ele>605.303467</ele>
        <time>2026-05-05T14:28:15.502Z</time>
      </trkpt>
      <trkpt lat="49.043250" lon="10.720592">
        <ele>605.050205</ele>
        <time>2026-05-05T14:28:19.606Z</time>
      </trkpt>
      <trkpt lat="49.043405" lon="10.720407">
        <ele>604.057014</ele>
        <time>2026-05-05T14:28:22.685Z</time>
      </trkpt>
      <trkpt lat="49.043531" lon="10.720182">
        <ele>603.078064</ele>
        <time>2026-05-05T14:28:25.617Z</time>
      </trkpt>
      <trkpt lat="49.044054" lon="10.718836">
        <ele>597.901951</ele>
        <time>2026-05-05T14:28:40.670Z</time>
      </trkpt>
      <trkpt lat="49.044232" lon="10.718465">
        <ele>596.352273</ele>
        <time>2026-05-05T14:28:45.129Z</time>
      </trkpt>
      <trkpt lat="49.044467" lon="10.718064">
        <ele>594.258560</ele>
        <time>2026-05-05T14:28:50.349Z</time>
      </trkpt>
      <trkpt lat="49.044789" lon="10.717406">
        <ele>591.062342</ele>
        <time>2026-05-05T14:28:58.447Z</time>
      </trkpt>
      <trkpt lat="49.044863" lon="10.716859">
        <ele>588.888355</ele>
        <time>2026-05-05T14:29:03.905Z</time>
      </trkpt>
      <trkpt lat="49.044905" lon="10.716734">
        <ele>588.341612</ele>
        <time>2026-05-05T14:29:05.254Z</time>
      </trkpt>
      <trkpt lat="49.044990" lon="10.716629">
        <ele>587.692146</ele>
        <time>2026-05-05T14:29:06.851Z</time>
      </trkpt>
      <trkpt lat="49.045072" lon="10.716588">
        <ele>587.179725</ele>
        <time>2026-05-05T14:29:08.089Z</time>
      </trkpt>
      <trkpt lat="49.045148" lon="10.716549">
        <ele>586.703571</ele>
        <time>2026-05-05T14:29:09.239Z</time>
      </trkpt>
      <trkpt lat="49.045259" lon="10.716549">
        <ele>586.044424</ele>
        <time>2026-05-05T14:29:10.838Z</time>
      </trkpt>
      <trkpt lat="49.045344" lon="10.716585">
        <ele>585.343622</ele>
        <time>2026-05-05T14:29:12.098Z</time>
      </trkpt>
      <trkpt lat="49.045578" lon="10.716775">
        <ele>582.956300</ele>
        <time>2026-05-05T14:29:15.856Z</time>
      </trkpt>
      <trkpt lat="49.045853" lon="10.716829">
        <ele>580.459175</ele>
        <time>2026-05-05T14:29:19.731Z</time>
      </trkpt>
      <trkpt lat="49.046328" lon="10.717095">
        <ele>575.902172</ele>
        <time>2026-05-05T14:29:26.621Z</time>
      </trkpt>
      <trkpt lat="49.046405" lon="10.717103">
        <ele>575.207091</ele>
        <time>2026-05-05T14:29:27.644Z</time>
      </trkpt>
      <trkpt lat="49.046491" lon="10.717074">
        <ele>574.413868</ele>
        <time>2026-05-05T14:29:28.805Z</time>
      </trkpt>
      <trkpt lat="49.046679" lon="10.716754">
        <ele>571.877135</ele>
        <time>2026-05-05T14:29:32.570Z</time>
      </trkpt>
      <trkpt lat="49.046772" lon="10.716684">
        <ele>570.943180</ele>
        <time>2026-05-05T14:29:33.981Z</time>
      </trkpt>
      <trkpt lat="49.046864" lon="10.716665">
        <ele>570.107056</ele>
        <time>2026-05-05T14:29:35.264Z</time>
      </trkpt>
      <trkpt lat="49.046954" lon="10.716716">
        <ele>569.437207</ele>
        <time>2026-05-05T14:29:36.594Z</time>
      </trkpt>
      <trkpt lat="49.047039" lon="10.716878">
        <ele>568.777954</ele>
        <time>2026-05-05T14:29:38.496Z</time>
      </trkpt>
      <trkpt lat="49.047031" lon="10.717175">
        <ele>567.833614</ele>
        <time>2026-05-05T14:29:41.245Z</time>
      </trkpt>
      <trkpt lat="49.046934" lon="10.717395">
        <ele>566.991271</ele>
        <time>2026-05-05T14:29:43.742Z</time>
      </trkpt>
      <trkpt lat="49.046880" lon="10.717469">
        <ele>566.639455</ele>
        <time>2026-05-05T14:29:44.790Z</time>
      </trkpt>
      <trkpt lat="49.046519" lon="10.717775">
        <ele>564.637769</ele>
        <time>2026-05-05T14:29:50.962Z</time>
      </trkpt>
      <trkpt lat="49.046433" lon="10.717954">
        <ele>563.932682</ele>
        <time>2026-05-05T14:29:53.223Z</time>
      </trkpt>
      <trkpt lat="49.046432" lon="10.718069">
        <ele>563.567301</ele>
        <time>2026-05-05T14:29:54.383Z</time>
      </trkpt>
      <trkpt lat="49.046088" lon="10.718301">
        <ele>561.744290</ele>
        <time>2026-05-05T14:30:01.673Z</time>
      </trkpt>
      <trkpt lat="49.046032" lon="10.718434">
        <ele>561.242082</ele>
        <time>2026-05-05T14:30:04.353Z</time>
      </trkpt>
      <trkpt lat="49.046005" lon="10.718571">
        <ele>560.909248</ele>
        <time>2026-05-05T14:30:06.986Z</time>
      </trkpt>
      <trkpt lat="49.045989" lon="10.718917">
        <ele>560.652472</ele>
        <time>2026-05-05T14:30:12.530Z</time>
      </trkpt>
      <trkpt lat="49.046012" lon="10.719069">
        <ele>560.536988</ele>
        <time>2026-05-05T14:30:14.617Z</time>
      </trkpt>
      <trkpt lat="49.046194" lon="10.719422">
        <ele>560.204510</ele>
        <time>2026-05-05T14:30:20.424Z</time>
      </trkpt>
      <trkpt lat="49.046230" lon="10.719604">
        <ele>560.063776</ele>
        <time>2026-05-05T14:30:22.864Z</time>
      </trkpt>
      <trkpt lat="49.046262" lon="10.719998">
        <ele>559.769873</ele>
        <time>2026-05-05T14:30:27.764Z</time>
      </trkpt>
      <trkpt lat="49.046477" lon="10.720530">
        <ele>559.307199</ele>
        <time>2026-05-05T14:30:35.520Z</time>
      </trkpt>
      <trkpt lat="49.046654" lon="10.721138">
        <ele>558.802053</ele>
        <time>2026-05-05T14:30:44.502Z</time>
      </trkpt>
      <trkpt lat="49.046888" lon="10.721710">
        <ele>558.239766</ele>
        <time>2026-05-05T14:30:53.525Z</time>
      </trkpt>
      <trkpt lat="49.046994" lon="10.722093">
        <ele>557.893069</ele>
        <time>2026-05-05T14:30:59.140Z</time>
      </trkpt>
      <trkpt lat="49.047148" lon="10.723172">
        <ele>556.972189</ele>
        <time>2026-05-05T14:31:14.000Z</time>
      </trkpt>
      <trkpt lat="49.047094" lon="10.723970">
        <ele>555.263842</ele>
        <time>2026-05-05T14:31:23.891Z</time>
      </trkpt>
      <trkpt lat="49.047092" lon="10.725181">
        <ele>551.006065</ele>
        <time>2026-05-05T14:31:36.654Z</time>
      </trkpt>
      <trkpt lat="49.047060" lon="10.725740">
        <ele>549.033191</ele>
        <time>2026-05-05T14:31:42.111Z</time>
      </trkpt>
      <trkpt lat="49.046777" lon="10.728390">
        <ele>537.874915</ele>
        <time>2026-05-05T14:32:07.853Z</time>
      </trkpt>
      <trkpt lat="49.046678" lon="10.728928">
        <ele>535.453088</ele>
        <time>2026-05-05T14:32:13.869Z</time>
      </trkpt>
      <trkpt lat="49.046462" lon="10.729426">
        <ele>535.188830</ele>
        <time>2026-05-05T14:32:20.932Z</time>
      </trkpt>
      <trkpt lat="49.045770" lon="10.730825">
        <ele>535.544361</ele>
        <time>2026-05-05T14:32:52.180Z</time>
      </trkpt>
      <trkpt lat="49.045381" lon="10.731741">
        <ele>536.137905</ele>
        <time>2026-05-05T14:33:14.307Z</time>
      </trkpt>
      <trkpt lat="49.045126" lon="10.732523">
        <ele>536.846011</ele>
        <time>2026-05-05T14:33:30.253Z</time>
      </trkpt>
      <trkpt lat="49.044994" lon="10.733026">
        <ele>537.285275</ele>
        <time>2026-05-05T14:33:39.398Z</time>
      </trkpt>
      <trkpt lat="49.044990" lon="10.733415">
        <ele>537.600686</ele>
        <time>2026-05-05T14:33:46.038Z</time>
      </trkpt>
      <trkpt lat="49.045070" lon="10.734272">
        <ele>536.466341</ele>
        <time>2026-05-05T14:34:00.483Z</time>
      </trkpt>
      <trkpt lat="49.045066" lon="10.734534">
        <ele>535.784491</ele>
        <time>2026-05-05T14:34:04.174Z</time>
      </trkpt>
      <trkpt lat="49.045051" lon="10.734782">
        <ele>535.136509</ele>
        <time>2026-05-05T14:34:07.152Z</time>
      </trkpt>
      <trkpt lat="49.044994" lon="10.735006">
        <ele>534.511333</ele>
        <time>2026-05-05T14:34:09.799Z</time>
      </trkpt>
      <trkpt lat="49.044903" lon="10.735230">
        <ele>533.825674</ele>
        <time>2026-05-05T14:34:12.547Z</time>
      </trkpt>
      <trkpt lat="49.044831" lon="10.735914">
        <ele>532.023250</ele>
        <time>2026-05-05T14:34:19.394Z</time>
      </trkpt>
      <trkpt lat="49.045285" lon="10.738095">
        <ele>517.161504</ele>
        <time>2026-05-05T14:34:39.636Z</time>
      </trkpt>
      <trkpt lat="49.045513" lon="10.738919">
        <ele>510.383543</ele>
        <time>2026-05-05T14:34:47.275Z</time>
      </trkpt>
      <trkpt lat="49.045608" lon="10.739134">
        <ele>508.400397</ele>
        <time>2026-05-05T14:34:49.489Z</time>
      </trkpt>
      <trkpt lat="49.045652" lon="10.739209">
        <ele>507.628448</ele>
        <time>2026-05-05T14:34:50.351Z</time>
      </trkpt>
      <trkpt lat="49.045728" lon="10.739256">
        <ele>506.668916</ele>
        <time>2026-05-05T14:34:51.415Z</time>
      </trkpt>
      <trkpt lat="49.046751" lon="10.739532">
        <ele>494.513379</ele>
        <time>2026-05-05T14:35:05.116Z</time>
      </trkpt>
      <trkpt lat="49.046892" lon="10.739617">
        <ele>492.739462</ele>
        <time>2026-05-05T14:35:07.173Z</time>
      </trkpt>
      <trkpt lat="49.046993" lon="10.739762">
        <ele>491.116755</ele>
        <time>2026-05-05T14:35:09.071Z</time>
      </trkpt>
      <trkpt lat="49.047663" lon="10.741657">
        <ele>481.307367</ele>
        <time>2026-05-05T14:35:29.348Z</time>
      </trkpt>
      <trkpt lat="49.048147" lon="10.742944">
        <ele>476.373444</ele>
        <time>2026-05-05T14:35:44.436Z</time>
      </trkpt>
      <trkpt lat="49.049197" lon="10.744840">
        <ele>470.952106</ele>
        <time>2026-05-05T14:36:11.192Z</time>
      </trkpt>
      <trkpt lat="49.049327" lon="10.745049">
        <ele>470.414087</ele>
        <time>2026-05-05T14:36:14.266Z</time>
      </trkpt>
      <trkpt lat="49.049411" lon="10.745134">
        <ele>470.126928</ele>
        <time>2026-05-05T14:36:15.909Z</time>
      </trkpt>
      <trkpt lat="49.049412" lon="10.745080">
        <ele>470.026058</ele>
        <time>2026-05-05T14:36:16.516Z</time>
      </trkpt>
      <trkpt lat="49.050225" lon="10.745137">
        <ele>467.707419</ele>
        <time>2026-05-05T14:36:29.903Z</time>
      </trkpt>
      <trkpt lat="49.051908" lon="10.745923">
        <ele>463.540255</ele>
        <time>2026-05-05T14:36:59.925Z</time>
      </trkpt>
      <trkpt lat="49.052135" lon="10.745986">
        <ele>463.030670</ele>
        <time>2026-05-05T14:37:05.694Z</time>
      </trkpt>
      <trkpt lat="49.052571" lon="10.746080">
        <ele>462.123690</ele>
        <time>2026-05-05T14:37:14.169Z</time>
      </trkpt>
      <trkpt lat="49.052778" lon="10.746171">
        <ele>461.720140</ele>
        <time>2026-05-05T14:37:18.266Z</time>
      </trkpt>
      <trkpt lat="49.052941" lon="10.746295">
        <ele>461.378943</ele>
        <time>2026-05-05T14:37:21.700Z</time>
      </trkpt>
      <trkpt lat="49.053152" lon="10.746600">
        <ele>460.834471</ele>
        <time>2026-05-05T14:37:27.168Z</time>
      </trkpt>
      <trkpt lat="49.053317" lon="10.746824">
        <ele>460.420745</ele>
        <time>2026-05-05T14:37:31.289Z</time>
      </trkpt>
      <trkpt lat="49.053994" lon="10.747179">
        <ele>459.078737</ele>
        <time>2026-05-05T14:37:44.433Z</time>
      </trkpt>
      <trkpt lat="49.054127" lon="10.747431">
        <ele>458.672021</ele>
        <time>2026-05-05T14:37:48.241Z</time>
      </trkpt>
      <trkpt lat="49.054180" lon="10.747630">
        <ele>458.402011</ele>
        <time>2026-05-05T14:37:50.753Z</time>
      </trkpt>
      <trkpt lat="49.054992" lon="10.747898">
        <ele>456.808520</ele>
        <time>2026-05-05T14:38:06.008Z</time>
      </trkpt>
      <trkpt lat="49.055295" lon="10.747853">
        <ele>456.224598</ele>
        <time>2026-05-05T14:38:11.834Z</time>
      </trkpt>
      <trkpt lat="49.055589" lon="10.747607">
        <ele>455.585396</ele>
        <time>2026-05-05T14:38:17.963Z</time>
      </trkpt>
      <trkpt lat="49.055972" lon="10.747103">
        <ele>454.658091</ele>
        <time>2026-05-05T14:38:27.257Z</time>
      </trkpt>
      <trkpt lat="49.056768" lon="10.748435">
        <ele>452.492064</ele>
        <time>2026-05-05T14:38:49.333Z</time>
      </trkpt>
      <trkpt lat="49.057881" lon="10.749886">
        <ele>448.962045</ele>
        <time>2026-05-05T14:39:15.286Z</time>
      </trkpt>
      <trkpt lat="49.058196" lon="10.750289">
        <ele>447.964121</ele>
        <time>2026-05-05T14:39:22.596Z</time>
      </trkpt>
      <trkpt lat="49.059236" lon="10.751618">
        <ele>445.189933</ele>
        <time>2026-05-05T14:39:47.226Z</time>
      </trkpt>
      <trkpt lat="49.059323" lon="10.751725">
        <ele>444.961415</ele>
        <time>2026-05-05T14:39:49.295Z</time>
      </trkpt>
      <trkpt lat="49.063111" lon="10.756400">
        <ele>437.735837</ele>
        <time>2026-05-05T14:41:23.724Z</time>
      </trkpt>
      <trkpt lat="49.064082" lon="10.758705">
        <ele>435.317040</ele>
        <time>2026-05-05T14:41:57.940Z</time>
      </trkpt>
      <trkpt lat="49.064344" lon="10.759451">
        <ele>434.636978</ele>
        <time>2026-05-05T14:42:09.227Z</time>
      </trkpt>
      <trkpt lat="49.064362" lon="10.759493">
        <ele>434.596655</ele>
        <time>2026-05-05T14:42:10.338Z</time>
      </trkpt>
      <trkpt lat="49.064673" lon="10.760484">
        <ele>433.996390</ele>
        <time>2026-05-05T14:42:35.114Z</time>
      </trkpt>
      <trkpt lat="49.065055" lon="10.761551">
        <ele>433.508174</ele>
        <time>2026-05-05T14:43:03.342Z</time>
      </trkpt>
      <trkpt lat="49.065134" lon="10.761677">
        <ele>433.438149</ele>
        <time>2026-05-05T14:43:07.314Z</time>
      </trkpt>
      <trkpt lat="49.065381" lon="10.761412">
        <ele>433.253124</ele>
        <time>2026-05-05T14:43:13.678Z</time>
      </trkpt>
      <trkpt lat="49.065440" lon="10.761382">
        <ele>433.215013</ele>
        <time>2026-05-05T14:43:15.004Z</time>
      </trkpt>
      <trkpt lat="49.065784" lon="10.761226">
        <ele>432.954756</ele>
        <time>2026-05-05T14:43:22.656Z</time>
      </trkpt>
      <trkpt lat="49.065895" lon="10.762202">
        <ele>432.468544</ele>
        <time>2026-05-05T14:43:36.115Z</time>
      </trkpt>
      <trkpt lat="49.066500" lon="10.765206">
        <ele>430.628951</ele>
        <time>2026-05-05T14:44:15.789Z</time>
      </trkpt>
      <trkpt lat="49.066795" lon="10.767242">
        <ele>429.405555</ele>
        <time>2026-05-05T14:44:42.288Z</time>
      </trkpt>
      <trkpt lat="49.068041" lon="10.769814">
        <ele>427.665092</ele>
        <time>2026-05-05T14:45:23.999Z</time>
      </trkpt>
      <trkpt lat="49.068837" lon="10.771355">
        <ele>426.388364</ele>
        <time>2026-05-05T14:45:48.802Z</time>
      </trkpt>
      <trkpt lat="49.070065" lon="10.773324">
        <ele>424.365973</ele>
        <time>2026-05-05T14:46:22.189Z</time>
      </trkpt>
      <trkpt lat="49.070333" lon="10.773601">
        <ele>424.039709</ele>
        <time>2026-05-05T14:46:28.378Z</time>
      </trkpt>
      <trkpt lat="49.070643" lon="10.773805">
        <ele>423.699412</ele>
        <time>2026-05-05T14:46:34.943Z</time>
      </trkpt>
      <trkpt lat="49.071647" lon="10.774180">
        <ele>422.888338</ele>
        <time>2026-05-05T14:46:55.327Z</time>
      </trkpt>
      <trkpt lat="49.072400" lon="10.774778">
        <ele>422.482567</ele>
        <time>2026-05-05T14:47:12.558Z</time>
      </trkpt>
      <trkpt lat="49.072568" lon="10.774968">
        <ele>422.382615</ele>
        <time>2026-05-05T14:47:16.819Z</time>
      </trkpt>
      <trkpt lat="49.073337" lon="10.775996">
        <ele>422.908295</ele>
        <time>2026-05-05T14:47:40.188Z</time>
      </trkpt>
      <trkpt lat="49.073615" lon="10.775695">
        <ele>423.227509</ele>
        <time>2026-05-05T14:47:49.153Z</time>
      </trkpt>
      <trkpt lat="49.074111" lon="10.775261">
        <ele>423.762956</ele>
        <time>2026-05-05T14:48:05.353Z</time>
      </trkpt>
      <trkpt lat="49.074474" lon="10.775016">
        <ele>424.377343</ele>
        <time>2026-05-05T14:48:17.431Z</time>
      </trkpt>
      <trkpt lat="49.075841" lon="10.774373">
        <ele>427.240625</ele>
        <time>2026-05-05T14:49:01.360Z</time>
      </trkpt>
      <trkpt lat="49.076186" lon="10.774168">
        <ele>427.870200</ele>
        <time>2026-05-05T14:49:12.374Z</time>
      </trkpt>
      <trkpt lat="49.076467" lon="10.773889">
        <ele>428.378573</ele>
        <time>2026-05-05T14:49:22.264Z</time>
      </trkpt>
      <trkpt lat="49.076692" lon="10.773532">
        <ele>428.870739</ele>
        <time>2026-05-05T14:49:31.680Z</time>
      </trkpt>
      <trkpt lat="49.076899" lon="10.773140">
        <ele>429.370953</ele>
        <time>2026-05-05T14:49:41.148Z</time>
      </trkpt>
      <trkpt lat="49.077670" lon="10.771297">
        <ele>429.664470</ele>
        <time>2026-05-05T14:50:18.439Z</time>
      </trkpt>
      <trkpt lat="49.078012" lon="10.770643">
        <ele>429.288586</ele>
        <time>2026-05-05T14:50:28.707Z</time>
      </trkpt>
      <trkpt lat="49.078245" lon="10.770288">
        <ele>429.062860</ele>
        <time>2026-05-05T14:50:34.285Z</time>
      </trkpt>
      <trkpt lat="49.078594" lon="10.769884">
        <ele>427.873155</ele>
        <time>2026-05-05T14:50:41.327Z</time>
      </trkpt>
      <trkpt lat="49.079217" lon="10.769262">
        <ele>425.572648</ele>
        <time>2026-05-05T14:50:53.156Z</time>
      </trkpt>
      <trkpt lat="49.080016" lon="10.770775">
        <ele>422.525323</ele>
        <time>2026-05-05T14:51:15.467Z</time>
      </trkpt>
      <trkpt lat="49.080163" lon="10.771161">
        <ele>422.062134</ele>
        <time>2026-05-05T14:51:21.098Z</time>
      </trkpt>
      <trkpt lat="49.080219" lon="10.771429">
        <ele>421.770315</ele>
        <time>2026-05-05T14:51:24.729Z</time>
      </trkpt>
      <trkpt lat="49.080255" lon="10.773704">
        <ele>419.775526</ele>
        <time>2026-05-05T14:51:55.959Z</time>
      </trkpt>
      <trkpt lat="49.080395" lon="10.774669">
        <ele>419.063044</ele>
        <time>2026-05-05T14:52:08.923Z</time>
      </trkpt>
      <trkpt lat="49.080522" lon="10.775163">
        <ele>418.680496</ele>
        <time>2026-05-05T14:52:15.575Z</time>
      </trkpt>
      <trkpt lat="49.080648" lon="10.775549">
        <ele>418.184640</ele>
        <time>2026-05-05T14:52:20.872Z</time>
      </trkpt>
      <trkpt lat="49.081577" lon="10.777376">
        <ele>415.330383</ele>
        <time>2026-05-05T14:52:48.704Z</time>
      </trkpt>
      <trkpt lat="49.081803" lon="10.777603">
        <ele>414.992617</ele>
        <time>2026-05-05T14:52:53.813Z</time>
      </trkpt>
      <trkpt lat="49.082048" lon="10.777692">
        <ele>414.712376</ele>
        <time>2026-05-05T14:52:58.669Z</time>
      </trkpt>
      <trkpt lat="49.082289" lon="10.777899">
        <ele>414.404672</ele>
        <time>2026-05-05T14:53:04.062Z</time>
      </trkpt>
      <trkpt lat="49.082389" lon="10.777814">
        <ele>414.277311</ele>
        <time>2026-05-05T14:53:06.313Z</time>
      </trkpt>
      <trkpt lat="49.082465" lon="10.777529">
        <ele>414.053036</ele>
        <time>2026-05-05T14:53:10.149Z</time>
      </trkpt>
      <trkpt lat="49.083078" lon="10.776051">
        <ele>413.224070</ele>
        <time>2026-05-05T14:53:33.284Z</time>
      </trkpt>
      <trkpt lat="49.086830" lon="10.767060">
        <ele>413.073989</ele>
        <time>2026-05-05T14:56:09.130Z</time>
      </trkpt>
      <trkpt lat="49.087085" lon="10.766506">
        <ele>413.038122</ele>
        <time>2026-05-05T14:56:19.216Z</time>
      </trkpt>
      <trkpt lat="49.087711" lon="10.765699">
        <ele>412.971859</ele>
        <time>2026-05-05T14:56:37.387Z</time>
      </trkpt>
      <trkpt lat="49.088374" lon="10.764367">
        <ele>412.730422</ele>
        <time>2026-05-05T14:57:00.298Z</time>
      </trkpt>
      <trkpt lat="49.088750" lon="10.764261">
        <ele>412.622809</ele>
        <time>2026-05-05T14:57:08.223Z</time>
      </trkpt>
      <trkpt lat="49.088892" lon="10.764188">
        <ele>412.580640</ele>
        <time>2026-05-05T14:57:11.356Z</time>
      </trkpt>
      <trkpt lat="49.089121" lon="10.763925">
        <ele>412.499993</ele>
        <time>2026-05-05T14:57:17.415Z</time>
      </trkpt>
      <trkpt lat="49.089122" lon="10.763923">
        <ele>412.499529</ele>
        <time>2026-05-05T14:57:17.454Z</time>
      </trkpt>
      <trkpt lat="49.089655" lon="10.762550">
        <ele>412.522538</ele>
        <time>2026-05-05T14:57:40.507Z</time>
      </trkpt>
      <trkpt lat="49.089872" lon="10.762133">
        <ele>412.557842</ele>
        <time>2026-05-05T14:57:48.559Z</time>
      </trkpt>
      <trkpt lat="49.090066" lon="10.761919">
        <ele>412.582065</ele>
        <time>2026-05-05T14:57:54.140Z</time>
      </trkpt>
      <trkpt lat="49.091164" lon="10.760922">
        <ele>412.815471</ele>
        <time>2026-05-05T14:58:24.175Z</time>
      </trkpt>
      <trkpt lat="49.091468" lon="10.760577">
        <ele>412.897823</ele>
        <time>2026-05-05T14:58:32.887Z</time>
      </trkpt>
      <trkpt lat="49.091832" lon="10.759936">
        <ele>413.019178</ele>
        <time>2026-05-05T14:58:45.375Z</time>
      </trkpt>
      <trkpt lat="49.092525" lon="10.758950">
        <ele>413.241654</ele>
        <time>2026-05-05T14:59:06.639Z</time>
      </trkpt>
      <trkpt lat="49.092939" lon="10.758162">
        <ele>413.397043</ele>
        <time>2026-05-05T14:59:22.226Z</time>
      </trkpt>
      <trkpt lat="49.093110" lon="10.757774">
        <ele>413.546872</ele>
        <time>2026-05-05T14:59:29.708Z</time>
      </trkpt>
      <trkpt lat="49.093374" lon="10.756941">
        <ele>414.008316</ele>
        <time>2026-05-05T14:59:44.862Z</time>
      </trkpt>
      <trkpt lat="49.093856" lon="10.755148">
        <ele>414.967182</ele>
        <time>2026-05-05T15:00:17.512Z</time>
      </trkpt>
      <trkpt lat="49.093923" lon="10.754832">
        <ele>415.125466</ele>
        <time>2026-05-05T15:00:23.223Z</time>
      </trkpt>
      <trkpt lat="49.094033" lon="10.753664">
        <ele>415.687793</ele>
        <time>2026-05-05T15:00:43.045Z</time>
      </trkpt>
      <trkpt lat="49.094174" lon="10.753329">
        <ele>415.877568</ele>
        <time>2026-05-05T15:00:49.654Z</time>
      </trkpt>
      <trkpt lat="49.094351" lon="10.753022">
        <ele>416.072491</ele>
        <time>2026-05-05T15:00:56.347Z</time>
      </trkpt>
      <trkpt lat="49.094675" lon="10.752423">
        <ele>416.057281</ele>
        <time>2026-05-05T15:01:08.190Z</time>
      </trkpt>
      <trkpt lat="49.094975" lon="10.752153">
        <ele>416.014660</ele>
        <time>2026-05-05T15:01:15.710Z</time>
      </trkpt>
      <trkpt lat="49.095088" lon="10.752063">
        <ele>415.999061</ele>
        <time>2026-05-05T15:01:18.427Z</time>
      </trkpt>
      <trkpt lat="49.095545" lon="10.751696">
        <ele>415.935863</ele>
        <time>2026-05-05T15:01:29.285Z</time>
      </trkpt>
      <trkpt lat="49.096445" lon="10.753076">
        <ele>415.460538</ele>
        <time>2026-05-05T15:01:55.257Z</time>
      </trkpt>
      <trkpt lat="49.096511" lon="10.753096">
        <ele>415.429008</ele>
        <time>2026-05-05T15:01:56.638Z</time>
      </trkpt>
      <trkpt lat="49.096981" lon="10.753017">
        <ele>415.207440</ele>
        <time>2026-05-05T15:02:06.496Z</time>
      </trkpt>
      <trkpt lat="49.097040" lon="10.752911">
        <ele>415.164753</ele>
        <time>2026-05-05T15:02:08.413Z</time>
      </trkpt>
      <trkpt lat="49.097151" lon="10.752550">
        <ele>415.041019</ele>
        <time>2026-05-05T15:02:13.909Z</time>
      </trkpt>
      <trkpt lat="49.097263" lon="10.752358">
        <ele>414.947575</ele>
        <time>2026-05-05T15:02:17.464Z</time>
      </trkpt>
      <trkpt lat="49.097438" lon="10.752155">
        <ele>414.825614</ele>
        <time>2026-05-05T15:02:22.125Z</time>
      </trkpt>
      <trkpt lat="49.097549" lon="10.752148">
        <ele>414.763958</ele>
        <time>2026-05-05T15:02:24.483Z</time>
      </trkpt>
      <trkpt lat="49.097935" lon="10.751584">
        <ele>414.467483</ele>
        <time>2026-05-05T15:02:35.749Z</time>
      </trkpt>
      <trkpt lat="49.098280" lon="10.751293">
        <ele>414.248752</ele>
        <time>2026-05-05T15:02:43.603Z</time>
      </trkpt>
      <trkpt lat="49.098699" lon="10.751015">
        <ele>413.964207</ele>
        <time>2026-05-05T15:02:52.424Z</time>
      </trkpt>
      <trkpt lat="49.100068" lon="10.750858">
        <ele>412.783022</ele>
        <time>2026-05-05T15:03:18.985Z</time>
      </trkpt>
      <trkpt lat="49.100640" lon="10.750748">
        <ele>412.402208</ele>
        <time>2026-05-05T15:03:30.748Z</time>
      </trkpt>
      <trkpt lat="49.101005" lon="10.750771">
        <ele>412.254739</ele>
        <time>2026-05-05T15:03:38.471Z</time>
      </trkpt>
      <trkpt lat="49.103777" lon="10.751358">
        <ele>411.331288</ele>
        <time>2026-05-05T15:04:36.985Z</time>
      </trkpt>
      <trkpt lat="49.109131" lon="10.752493">
        <ele>411.911593</ele>
        <time>2026-05-05T15:06:39.351Z</time>
      </trkpt>
      <trkpt lat="49.109347" lon="10.752645">
        <ele>412.003782</ele>
        <time>2026-05-05T15:06:45.419Z</time>
      </trkpt>
      <trkpt lat="49.109390" lon="10.752707">
        <ele>412.052110</ele>
        <time>2026-05-05T15:06:46.933Z</time>
      </trkpt>
      <trkpt lat="49.109457" lon="10.752907">
        <ele>412.172316</ele>
        <time>2026-05-05T15:06:50.696Z</time>
      </trkpt>
      <trkpt lat="49.109476" lon="10.753144">
        <ele>412.300068</ele>
        <time>2026-05-05T15:06:54.717Z</time>
      </trkpt>
      <trkpt lat="49.109496" lon="10.753391">
        <ele>412.433230</ele>
        <time>2026-05-05T15:06:58.924Z</time>
      </trkpt>
      <trkpt lat="49.109510" lon="10.753831">
        <ele>412.668925</ele>
        <time>2026-05-05T15:07:06.494Z</time>
      </trkpt>
      <trkpt lat="49.109510" lon="10.754012">
        <ele>412.765768</ele>
        <time>2026-05-05T15:07:09.655Z</time>
      </trkpt>
      <trkpt lat="49.109522" lon="10.754203">
        <ele>412.868430</ele>
        <time>2026-05-05T15:07:13.043Z</time>
      </trkpt>
      <trkpt lat="49.110221" lon="10.754234">
        <ele>413.439424</ele>
        <time>2026-05-05T15:07:35.865Z</time>
      </trkpt>
      <trkpt lat="49.110316" lon="10.754296">
        <ele>413.521493</ele>
        <time>2026-05-05T15:07:39.148Z</time>
      </trkpt>
      <trkpt lat="49.110359" lon="10.754403">
        <ele>413.586785</ele>
        <time>2026-05-05T15:07:41.763Z</time>
      </trkpt>
      <trkpt lat="49.110577" lon="10.754481">
        <ele>413.764655</ele>
        <time>2026-05-05T15:07:48.765Z</time>
      </trkpt>
      <trkpt lat="49.111079" lon="10.754620">
        <ele>414.169950</ele>
        <time>2026-05-05T15:08:05.073Z</time>
      </trkpt>
      <trkpt lat="49.111158" lon="10.754712">
        <ele>414.248865</ele>
        <time>2026-05-05T15:08:08.289Z</time>
      </trkpt>
      <trkpt lat="49.111166" lon="10.754792">
        <ele>414.290949</ele>
        <time>2026-05-05T15:08:10.044Z</time>
      </trkpt>
      <trkpt lat="49.111256" lon="10.754936">
        <ele>414.394484</ele>
        <time>2026-05-05T15:08:14.356Z</time>
      </trkpt>
      <trkpt lat="49.111297" lon="10.754933">
        <ele>414.427092</ele>
        <time>2026-05-05T15:08:15.721Z</time>
      </trkpt>
      <trkpt lat="49.111425" lon="10.754938">
        <ele>414.528811</ele>
        <time>2026-05-05T15:08:19.938Z</time>
      </trkpt>
      <trkpt lat="49.111525" lon="10.754946">
        <ele>414.608362</ele>
        <time>2026-05-05T15:08:23.207Z</time>
      </trkpt>
      <trkpt lat="49.111577" lon="10.754950">
        <ele>414.649724</ele>
        <time>2026-05-05T15:08:24.891Z</time>
      </trkpt>
      <trkpt lat="49.111695" lon="10.754960">
        <ele>414.743609</ele>
        <time>2026-05-05T15:08:27.978Z</time>
      </trkpt>
      <trkpt lat="49.111765" lon="10.754996">
        <ele>414.802285</ele>
        <time>2026-05-05T15:08:29.947Z</time>
      </trkpt>
      <trkpt lat="49.111741" lon="10.755148">
        <ele>414.879114</ele>
        <time>2026-05-05T15:08:32.669Z</time>
      </trkpt>
      <trkpt lat="49.111726" lon="10.755853">
        <ele>415.198690</ele>
        <time>2026-05-05T15:08:45.373Z</time>
      </trkpt>
      <trkpt lat="49.111790" lon="10.755891">
        <ele>415.246214</ele>
        <time>2026-05-05T15:08:47.265Z</time>
      </trkpt>
      <trkpt lat="49.111832" lon="10.755937">
        <ele>415.281983</ele>
        <time>2026-05-05T15:08:48.683Z</time>
      </trkpt>
      <trkpt lat="49.111907" lon="10.756097">
        <ele>415.371142</ele>
        <time>2026-05-05T15:08:52.119Z</time>
      </trkpt>
      <trkpt lat="49.112117" lon="10.756731">
        <ele>415.693061</ele>
        <time>2026-05-05T15:09:04.140Z</time>
      </trkpt>
      <trkpt lat="49.112394" lon="10.757507">
        <ele>416.093509</ele>
        <time>2026-05-05T15:09:17.681Z</time>
      </trkpt>
      <trkpt lat="49.112452" lon="10.757768">
        <ele>416.042196</ele>
        <time>2026-05-05T15:09:21.678Z</time>
      </trkpt>
      <trkpt lat="49.112394" lon="10.757507">
        <ele>415.990616</ele>
        <time>2026-05-05T15:09:25.692Z</time>
      </trkpt>
      <trkpt lat="49.112117" lon="10.756731">
        <ele>415.825212</ele>
        <time>2026-05-05T15:09:38.088Z</time>
      </trkpt>
      <trkpt lat="49.111907" lon="10.756097">
        <ele>415.692244</ele>
        <time>2026-05-05T15:09:47.613Z</time>
      </trkpt>
      <trkpt lat="49.111832" lon="10.755937">
        <ele>415.655417</ele>
        <time>2026-05-05T15:09:50.190Z</time>
      </trkpt>
      <trkpt lat="49.111790" lon="10.755891">
        <ele>415.640643</ele>
        <time>2026-05-05T15:09:51.253Z</time>
      </trkpt>
      <trkpt lat="49.111726" lon="10.755853">
        <ele>415.621013</ele>
        <time>2026-05-05T15:09:52.684Z</time>
      </trkpt>
      <trkpt lat="49.111647" lon="10.755861">
        <ele>415.598378</ele>
        <time>2026-05-05T15:09:54.260Z</time>
      </trkpt>
      <trkpt lat="49.111523" lon="10.755943">
        <ele>415.579494</ele>
        <time>2026-05-05T15:09:56.971Z</time>
      </trkpt>
      <trkpt lat="49.111159" lon="10.756256">
        <ele>415.579494</ele>
        <time>2026-05-05T15:10:05.559Z</time>
      </trkpt>
      <trkpt lat="49.110816" lon="10.756614">
        <ele>415.579494</ele>
        <time>2026-05-05T15:10:14.039Z</time>
      </trkpt>
      <trkpt lat="49.110553" lon="10.756752">
        <ele>415.579494</ele>
        <time>2026-05-05T15:10:19.843Z</time>
      </trkpt>
      <trkpt lat="49.110415" lon="10.755995">
        <ele>415.579494</ele>
        <time>2026-05-05T15:10:31.092Z</time>
      </trkpt>
      <trkpt lat="49.110363" lon="10.755907">
        <ele>415.579494</ele>
        <time>2026-05-05T15:10:32.825Z</time>
      </trkpt>
      <trkpt lat="49.110287" lon="10.755878">
        <ele>415.579494</ele>
        <time>2026-05-05T15:10:34.560Z</time>
      </trkpt>
      <trkpt lat="49.110307" lon="10.755499">
        <ele>415.579494</ele>
        <time>2026-05-05T15:10:40.248Z</time>
      </trkpt>
      <trkpt lat="49.110244" lon="10.755386">
        <ele>415.579494</ele>
        <time>2026-05-05T15:10:43.153Z</time>
      </trkpt>
      <trkpt lat="49.110278" lon="10.755257">
        <ele>415.579494</ele>
        <time>2026-05-05T15:10:45.904Z</time>
      </trkpt>
      <trkpt lat="49.110341" lon="10.755098">
        <ele>415.579494</ele>
        <time>2026-05-05T15:10:48.728Z</time>
      </trkpt>
    </trkseg>
  </trk>
</gpx>